Darstellungsparameter: Aktuell verwendete Einstellungen:
Skalierung der Graphiken ... ?
xyx+y,   Skalierungsfaktor:      Skalierung: Modus: x, Faktor: 1
Darstellungszeitraum ... ?
Vom - - bis: - -   Zeitraum: 16.03.2019 - 15.09.2019
Min/Max/Avg-Anzeige ... ?
Zeige MMA aktuell
Zeige MMA Monat
Zeige MMA alles
Zeige --A aktuell
Zeige --A Monat
Zeige --A alles
Keine MMA-Anzeige
MMA:
Minimum Maximum Average (ber die Originaldaten)
MMA-Basis: 23.02.2003 - 16.08.2019
Quicknavigation für Darstellung... ?
Tage:      1T, 2T, 3T, 5T -1T -2T -3T -5T +1T +2T +3T +5T
Wochen: 1W, 2W, 3W -1W -2W -3W +1W +2W +3W
Monate: 1M, 3M, 6M -1M -3M -6M +1M +3M +6M
Jahre:    1J, 3J, 5J, 10J -1J -3J -5J -10J +1J +3J +5J +10J
Nutze für die Darstellung ... ?
Originaldaten oder Mittelwerte auf ...
Stundenbasis Tagesbasis Wochenbasis
Monatsbasis Jahresbasis      Datenbasis: Original-Daten
Darstellen als:
Statistik (Auto) Statistik J:M      Darstellung:
Zur Graphik,    zurück zur Übersicht aller Sensoren.
 
Tabellarische Datenbersicht: ?
 
Sensor: Nr:Datum:Temp:Feuchte:Taupunkt:
Aussen-T/F 1 16-03-2019 00:00:00 11.6 C 90 % 10.02 C
2 16-03-2019 00:05:00 11.6 C 90 % 10.02 C
3 16-03-2019 00:10:00 11.7 C 89 % 9.95 C
4 16-03-2019 00:15:00 11.7 C 89 % 9.95 C
5 16-03-2019 00:20:00 11.7 C 89 % 9.95 C
6 16-03-2019 00:25:00 11.7 C 88 % 9.78 C
7 16-03-2019 00:30:00 11.7 C 88 % 9.78 C
8 16-03-2019 00:35:00 11.8 C 88 % 9.88 C
9 16-03-2019 00:40:00 11.8 C 88 % 9.88 C
10 16-03-2019 00:45:00 11.7 C 87 % 9.61 C
11 16-03-2019 00:50:00 11.1 C 87 % 9.02 C
12 16-03-2019 00:55:00 10.8 C 89 % 9.06 C
13 16-03-2019 01:00:00 10.5 C 90 % 8.93 C
14 16-03-2019 01:05:00 10.3 C 91 % 8.9 C
15 16-03-2019 01:10:00 10.2 C 91 % 8.8 C
16 16-03-2019 01:15:00 10.1 C 92 % 8.86 C
17 16-03-2019 01:20:00 10.1 C 92 % 8.86 C
18 16-03-2019 01:25:00 10 C 92 % 8.76 C
19 16-03-2019 01:30:00 9.8 C 93 % 8.72 C
20 16-03-2019 01:35:00 9.6 C 92 % 8.37 C
21 16-03-2019 01:40:00 9.3 C 92 % 8.07 C
22 16-03-2019 01:45:00 9.3 C 92 % 8.07 C
23 16-03-2019 01:50:00 9.2 C 92 % 7.97 C
24 16-03-2019 01:55:00 9.1 C 92 % 7.87 C
25 16-03-2019 02:00:00 9.1 C 93 % 8.03 C
Sensor: Nr:Datum:Temp:Feuchte:Taupunkt:
Aussen-T/F 26 16-03-2019 02:05:00 9.1 C 93 % 8.03 C
27 16-03-2019 02:10:00 9.1 C 92 % 7.87 C
28 16-03-2019 02:15:00 9.1 C 92 % 7.87 C
29 16-03-2019 02:20:00 9 C 92 % 7.77 C
30 16-03-2019 02:25:00 9 C 92 % 7.77 C
31 16-03-2019 02:30:00 8.9 C 92 % 7.67 C
32 16-03-2019 02:35:00 8.9 C 92 % 7.67 C
33 16-03-2019 02:40:00 8.8 C 92 % 7.57 C
34 16-03-2019 02:45:00 8.8 C 92 % 7.57 C
35 16-03-2019 02:50:00 8.7 C 92 % 7.47 C
36 16-03-2019 02:55:00 8.7 C 92 % 7.47 C
37 16-03-2019 03:00:00 8.7 C 93 % 7.63 C
38 16-03-2019 03:05:00 8.6 C 93 % 7.53 C
39 16-03-2019 03:10:00 8.5 C 93 % 7.43 C
40 16-03-2019 03:15:00 8.5 C 93 % 7.43 C
41 16-03-2019 03:20:00 8.4 C 94 % 7.49 C
42 16-03-2019 03:25:00 8.4 C 94 % 7.49 C
43 16-03-2019 03:30:00 8.4 C 94 % 7.49 C
44 16-03-2019 03:35:00 8.3 C 94 % 7.39 C
45 16-03-2019 03:40:00 8.3 C 94 % 7.39 C
46 16-03-2019 03:45:00 8.3 C 94 % 7.39 C
47 16-03-2019 03:50:00 8.3 C 94 % 7.39 C
48 16-03-2019 03:55:00 8.3 C 95 % 7.55 C
49 16-03-2019 04:00:00 8.3 C 95 % 7.55 C
50 16-03-2019 04:05:00 8.3 C 95 % 7.55 C
Sensor: Nr:Datum:Temp:Feuchte:Taupunkt:
Aussen-T/F 51 16-03-2019 04:10:00 8.3 C 95 % 7.55 C
52 16-03-2019 04:15:00 8.3 C 95 % 7.55 C
53 16-03-2019 04:20:00 8.3 C 95 % 7.55 C
54 16-03-2019 04:25:00 8.3 C 95 % 7.55 C
55 16-03-2019 04:30:00 8.3 C 95 % 7.55 C
56 16-03-2019 04:35:00 8.3 C 95 % 7.55 C
57 16-03-2019 04:40:00 8.3 C 95 % 7.55 C
58 16-03-2019 04:45:00 8.3 C 95 % 7.55 C
59 16-03-2019 04:50:00 8.3 C 95 % 7.55 C
60 16-03-2019 04:55:00 8.3 C 95 % 7.55 C
61 16-03-2019 05:00:00 8.3 C 95 % 7.55 C
62 16-03-2019 05:05:00 8.3 C 95 % 7.55 C
63 16-03-2019 05:10:00 8.3 C 95 % 7.55 C
64 16-03-2019 05:15:00 8.3 C 95 % 7.55 C
65 16-03-2019 05:20:00 8.3 C 95 % 7.55 C
66 16-03-2019 05:25:00 8.3 C 95 % 7.55 C
67 16-03-2019 05:30:00 8.3 C 95 % 7.55 C
68 16-03-2019 05:35:00 8.3 C 95 % 7.55 C
69 16-03-2019 05:40:00 8.3 C 95 % 7.55 C
70 16-03-2019 05:45:00 8.3 C 95 % 7.55 C
71 16-03-2019 05:50:00 8.3 C 95 % 7.55 C
72 16-03-2019 05:55:00 8.3 C 96 % 7.7 C
73 16-03-2019 06:00:00 8.3 C 96 % 7.7 C
74 16-03-2019 06:05:00 8.3 C 96 % 7.7 C
75 16-03-2019 06:10:00 8.3 C 96 % 7.7 C
Sensor: Nr:Datum:Temp:Feuchte:Taupunkt:
Aussen-T/F 76 16-03-2019 06:15:00 8.3 C 96 % 7.7 C
77 16-03-2019 06:20:00 8.3 C 96 % 7.7 C
78 16-03-2019 06:25:00 8.4 C 96 % 7.8 C
79 16-03-2019 06:30:00 8.7 C 96 % 8.1 C
80 16-03-2019 06:35:00 8.8 C 96 % 8.2 C
81 16-03-2019 06:40:00 9.1 C 97 % 8.65 C
82 16-03-2019 06:45:00 9.3 C 97 % 8.85 C
83 16-03-2019 06:50:00 9.4 C 97 % 8.95 C
84 16-03-2019 06:55:00 9.6 C 97 % 9.15 C
85 16-03-2019 07:00:00 9.7 C 96 % 9.09 C
86 16-03-2019 07:05:00 9.7 C 96 % 9.09 C
87 16-03-2019 07:10:00 9.7 C 96 % 9.09 C
88 16-03-2019 07:15:00 9.8 C 96 % 9.19 C
89 16-03-2019 07:20:00 9.8 C 96 % 9.19 C
90 16-03-2019 07:25:00 9.8 C 95 % 9.04 C
91 16-03-2019 07:30:00 9.9 C 95 % 9.14 C
92 16-03-2019 07:35:00 9.9 C 95 % 9.14 C
93 16-03-2019 07:40:00 10 C 94 % 9.08 C
94 16-03-2019 07:45:00 10.1 C 94 % 9.18 C
95 16-03-2019 07:50:00 10.1 C 94 % 9.18 C
96 16-03-2019 07:55:00 10.1 C 94 % 9.18 C
97 16-03-2019 08:00:00 10.2 C 94 % 9.28 C
98 16-03-2019 08:05:00 10.2 C 94 % 9.28 C
99 16-03-2019 08:10:00 10.2 C 93 % 9.12 C
100 16-03-2019 08:15:00 10.3 C 93 % 9.22 C
Sensor: Nr:Datum:Temp:Feuchte:Taupunkt:
Aussen-T/F 101 16-03-2019 08:20:00 10.3 C 93 % 9.22 C
102 16-03-2019 08:25:00 10.3 C 93 % 9.22 C
103 16-03-2019 08:30:00 10.4 C 93 % 9.32 C
104 16-03-2019 08:35:00 10.4 C 93 % 9.32 C
105 16-03-2019 08:40:00 10.5 C 93 % 9.42 C
106 16-03-2019 08:45:00 10.5 C 93 % 9.42 C
107 16-03-2019 08:50:00 10.6 C 93 % 9.52 C
108 16-03-2019 08:55:00 10.6 C 93 % 9.52 C
109 16-03-2019 09:00:00 10.7 C 93 % 9.62 C
110 16-03-2019 09:05:00 10.7 C 92 % 9.45 C
111 16-03-2019 09:10:00 10.7 C 92 % 9.45 C
112 16-03-2019 09:15:00 10.7 C 92 % 9.45 C
113 16-03-2019 09:20:00 10.7 C 92 % 9.45 C
114 16-03-2019 09:25:00 10.7 C 92 % 9.45 C
115 16-03-2019 09:30:00 10.7 C 92 % 9.45 C
116 16-03-2019 09:35:00 10.7 C 92 % 9.45 C
117 16-03-2019 09:40:00 10.7 C 92 % 9.45 C
118 16-03-2019 09:45:00 10.7 C 91 % 9.29 C
119 16-03-2019 09:50:00 10.8 C 91 % 9.39 C
120 16-03-2019 09:55:00 10.8 C 90 % 9.23 C
121 16-03-2019 10:00:00 10.8 C 90 % 9.23 C
122 16-03-2019 10:05:00 10.9 C 90 % 9.33 C
123 16-03-2019 10:10:00 10.9 C 90 % 9.33 C
124 16-03-2019 10:15:00 10.9 C 90 % 9.33 C
125 16-03-2019 10:20:00 10.9 C 90 % 9.33 C
Sensor: Nr:Datum:Temp:Feuchte:Taupunkt:
Aussen-T/F 126 16-03-2019 10:25:00 10.8 C 90 % 9.23 C
127 16-03-2019 10:30:00 10.9 C 90 % 9.33 C
128 16-03-2019 10:35:00 10.9 C 89 % 9.16 C
129 16-03-2019 10:40:00 10.9 C 90 % 9.33 C
130 16-03-2019 10:45:00 10.8 C 90 % 9.23 C
131 16-03-2019 10:50:00 10.7 C 90 % 9.13 C
132 16-03-2019 10:55:00 10.7 C 91 % 9.29 C
133 16-03-2019 11:00:00 10.7 C 91 % 9.29 C
134 16-03-2019 11:05:00 10.7 C 91 % 9.29 C
135 16-03-2019 11:10:00 10.7 C 91 % 9.29 C
136 16-03-2019 11:15:00 10.7 C 91 % 9.29 C
137 16-03-2019 11:20:00 10.7 C 90 % 9.13 C
138 16-03-2019 11:25:00 10.7 C 90 % 9.13 C
139 16-03-2019 11:30:00 10.8 C 89 % 9.06 C
140 16-03-2019 11:35:00 10.8 C 88 % 8.89 C
141 16-03-2019 11:40:00 10.9 C 88 % 8.99 C
142 16-03-2019 11:45:00 11 C 88 % 9.09 C
143 16-03-2019 11:50:00 11.1 C 87 % 9.02 C
144 16-03-2019 11:55:00 11.1 C 87 % 9.02 C
145 16-03-2019 12:00:00 11.1 C 87 % 9.02 C
146 16-03-2019 12:05:00 11.2 C 86 % 8.95 C
147 16-03-2019 12:10:00 11.2 C 86 % 8.95 C
148 16-03-2019 12:15:00 11.2 C 85 % 8.77 C
149 16-03-2019 12:20:00 11.3 C 85 % 8.87 C
150 16-03-2019 12:25:00 11.4 C 84 % 8.8 C
Sensor: Nr:Datum:Temp:Feuchte:Taupunkt:
Aussen-T/F 151 16-03-2019 12:30:00 11.6 C 84 % 8.99 C
152 16-03-2019 12:35:00 11.7 C 83 % 8.91 C
153 16-03-2019 12:40:00 11.8 C 82 % 8.83 C
154 16-03-2019 12:45:00 11.8 C 82 % 8.83 C
155 16-03-2019 12:50:00 11.7 C 82 % 8.73 C
156 16-03-2019 12:55:00 11.6 C 82 % 8.64 C
157 16-03-2019 13:00:00 11.5 C 81 % 8.36 C
158 16-03-2019 13:05:00 11.5 C 81 % 8.36 C
159 16-03-2019 13:10:00 11.7 C 80 % 8.37 C
160 16-03-2019 13:15:00 11.8 C 80 % 8.47 C
161 16-03-2019 13:20:00 11.8 C 79 % 8.28 C
162 16-03-2019 13:25:00 11.8 C 79 % 8.28 C
163 16-03-2019 13:30:00 11.9 C 79 % 8.38 C
164 16-03-2019 13:35:00 11.9 C 79 % 8.38 C
165 16-03-2019 13:40:00 11.8 C 80 % 8.47 C
166 16-03-2019 13:45:00 11.8 C 80 % 8.47 C
167 16-03-2019 13:50:00 11.8 C 81 % 8.65 C
168 16-03-2019 13:55:00 11.8 C 81 % 8.65 C
169 16-03-2019 14:00:00 11.7 C 81 % 8.55 C
170 16-03-2019 14:05:00 11.6 C 80 % 8.27 C
171 16-03-2019 14:10:00 11.4 C 81 % 8.26 C
172 16-03-2019 14:15:00 11.3 C 81 % 8.16 C
173 16-03-2019 14:20:00 11.1 C 81 % 7.97 C
174 16-03-2019 14:25:00 11.1 C 82 % 8.15 C
175 16-03-2019 14:30:00 10.9 C 82 % 7.95 C
Sensor: Nr:Datum:Temp:Feuchte:Taupunkt:
Aussen-T/F 176 16-03-2019 14:35:00 10.9 C 81 % 7.77 C
177 16-03-2019 14:40:00 10.9 C 81 % 7.77 C
178 16-03-2019 14:45:00 10.9 C 80 % 7.59 C
179 16-03-2019 14:50:00 10.9 C 80 % 7.59 C
180 16-03-2019 14:55:00 10.8 C 80 % 7.49 C
181 16-03-2019 15:00:00 10.8 C 80 % 7.49 C
182 16-03-2019 15:05:00 10.8 C 79 % 7.31 C
183 16-03-2019 15:10:00 10.8 C 80 % 7.49 C
184 16-03-2019 15:15:00 10.8 C 80 % 7.49 C
185 16-03-2019 15:20:00 10.9 C 80 % 7.59 C
186 16-03-2019 15:25:00 10.9 C 79 % 7.41 C
187 16-03-2019 15:30:00 10.9 C 78 % 7.22 C
188 16-03-2019 15:35:00 11 C 78 % 7.32 C
189 16-03-2019 15:40:00 11.1 C 78 % 7.41 C
190 16-03-2019 15:45:00 11.1 C 77 % 7.23 C
191 16-03-2019 15:50:00 11.1 C 77 % 7.23 C
192 16-03-2019 15:55:00 11.1 C 77 % 7.23 C
193 16-03-2019 16:00:00 11.1 C 78 % 7.41 C
194 16-03-2019 16:05:00 11 C 78 % 7.32 C
195 16-03-2019 16:10:00 10.9 C 78 % 7.22 C
196 16-03-2019 16:15:00 11 C 78 % 7.32 C
197 16-03-2019 16:20:00 11.1 C 78 % 7.41 C
198 16-03-2019 16:25:00 11.1 C 77 % 7.23 C
199 16-03-2019 16:30:00 11 C 78 % 7.32 C
200 16-03-2019 16:35:00 11 C 77 % 7.13 C
Sensor: Nr:Datum:Temp:Feuchte:Taupunkt:
Aussen-T/F 201 16-03-2019 16:40:00 11 C 77 % 7.13 C
202 16-03-2019 16:45:00 10.9 C 77 % 7.03 C
203 16-03-2019 16:50:00 10.9 C 77 % 7.03 C
204 16-03-2019 16:55:00 10.9 C 76 % 6.84 C
205 16-03-2019 17:00:00 10.9 C 77 % 7.03 C
206 16-03-2019 17:05:00 10.9 C 77 % 7.03 C
207 16-03-2019 17:10:00 10.9 C 76 % 6.84 C
208 16-03-2019 17:15:00 10.9 C 76 % 6.84 C
209 16-03-2019 17:20:00 10.9 C 76 % 6.84 C
210 16-03-2019 17:25:00 10.9 C 76 % 6.84 C
211 16-03-2019 17:30:00 10.9 C 76 % 6.84 C
212 16-03-2019 17:35:00 10.9 C 76 % 6.84 C
213 16-03-2019 17:40:00 10.9 C 77 % 7.03 C
214 16-03-2019 17:45:00 10.9 C 76 % 6.84 C
215 16-03-2019 17:50:00 10.9 C 76 % 6.84 C
216 16-03-2019 17:55:00 10.9 C 76 % 6.84 C
217 16-03-2019 18:00:00 10.9 C 76 % 6.84 C
218 16-03-2019 18:05:00 10.8 C 76 % 6.75 C
219 16-03-2019 18:10:00 10.8 C 77 % 6.94 C
220 16-03-2019 18:15:00 10.8 C 77 % 6.94 C
221 16-03-2019 18:20:00 10.7 C 76 % 6.65 C
222 16-03-2019 18:25:00 10.7 C 76 % 6.65 C
223 16-03-2019 18:30:00 10.7 C 77 % 6.84 C
224 16-03-2019 18:35:00 10.7 C 77 % 6.84 C
225 16-03-2019 18:40:00 10.6 C 77 % 6.74 C
Sensor: Nr:Datum:Temp:Feuchte:Taupunkt:
Aussen-T/F 226 16-03-2019 18:45:00 10.6 C 76 % 6.55 C
227 16-03-2019 18:50:00 10.5 C 76 % 6.45 C
228 16-03-2019 18:55:00 10.5 C 76 % 6.45 C
229 16-03-2019 19:00:00 10.5 C 76 % 6.45 C
230 16-03-2019 19:05:00 10.5 C 76 % 6.45 C
231 16-03-2019 19:10:00 10.5 C 76 % 6.45 C
232 16-03-2019 19:15:00 10.5 C 76 % 6.45 C
233 16-03-2019 19:20:00 10.4 C 76 % 6.36 C
234 16-03-2019 19:25:00 10.4 C 76 % 6.36 C
235 16-03-2019 19:30:00 10.4 C 76 % 6.36 C
236 16-03-2019 19:35:00 10.4 C 76 % 6.36 C
237 16-03-2019 19:40:00 10.4 C 76 % 6.36 C
238 16-03-2019 19:45:00 10.4 C 76 % 6.36 C
239 16-03-2019 19:50:00 10.4 C 76 % 6.36 C
240 16-03-2019 19:55:00 10.4 C 76 % 6.36 C
241 16-03-2019 20:00:00 10.4 C 76 % 6.36 C
242 16-03-2019 20:05:00 10.4 C 76 % 6.36 C
243 16-03-2019 20:10:00 10.4 C 76 % 6.36 C
244 16-03-2019 20:15:00 10.3 C 76 % 6.26 C
245 16-03-2019 20:20:00 10.3 C 75 % 6.07 C
246 16-03-2019 20:25:00 10.4 C 75 % 6.17 C
247 16-03-2019 20:30:00 10.4 C 75 % 6.17 C
248 16-03-2019 20:35:00 10.3 C 75 % 6.07 C
249 16-03-2019 20:40:00 10.3 C 75 % 6.07 C
250 16-03-2019 20:45:00 10.3 C 75 % 6.07 C
Sensor: Nr:Datum:Temp:Feuchte:Taupunkt:
Aussen-T/F 251 16-03-2019 20:50:00 10.2 C 76 % 6.16 C
252 16-03-2019 20:55:00 10.1 C 76 % 6.07 C
253 16-03-2019 21:00:00 10.1 C 77 % 6.26 C
254 16-03-2019 21:05:00 9.9 C 78 % 6.25 C
255 16-03-2019 21:10:00 9.9 C 78 % 6.25 C
256 16-03-2019 21:15:00 10.1 C 78 % 6.44 C
257 16-03-2019 21:20:00 10.1 C 78 % 6.44 C
258 16-03-2019 21:25:00 10.2 C 78 % 6.54 C
259 16-03-2019 21:30:00 10.2 C 78 % 6.54 C
260 16-03-2019 21:35:00 10.3 C 78 % 6.64 C
261 16-03-2019 21:40:00 10.2 C 78 % 6.54 C
262 16-03-2019 21:45:00 10.2 C 78 % 6.54 C
263 16-03-2019 21:50:00 10.1 C 79 % 6.63 C
264 16-03-2019 21:55:00 10 C 79 % 6.53 C
265 16-03-2019 22:00:00 10 C 79 % 6.53 C
266 16-03-2019 22:05:00 10 C 79 % 6.53 C
267 16-03-2019 22:10:00 10.1 C 79 % 6.63 C
268 16-03-2019 22:15:00 10 C 80 % 6.71 C
269 16-03-2019 22:20:00 10 C 79 % 6.53 C
270 16-03-2019 22:25:00 10.1 C 79 % 6.63 C
271 16-03-2019 22:30:00 10.1 C 79 % 6.63 C
272 16-03-2019 22:35:00 10.1 C 79 % 6.63 C
273 16-03-2019 22:40:00 10.1 C 79 % 6.63 C
274 16-03-2019 22:45:00 10.2 C 79 % 6.73 C
275 16-03-2019 22:50:00 10.2 C 79 % 6.73 C
Sensor: Nr:Datum:Temp:Feuchte:Taupunkt:
Aussen-T/F 276 16-03-2019 22:55:00 10.2 C 79 % 6.73 C
277 16-03-2019 23:00:00 10.2 C 79 % 6.73 C
278 16-03-2019 23:05:00 10.1 C 79 % 6.63 C
279 16-03-2019 23:10:00 10.1 C 79 % 6.63 C
280 16-03-2019 23:15:00 10.1 C 79 % 6.63 C
281 16-03-2019 23:20:00 10.1 C 80 % 6.81 C
282 16-03-2019 23:25:00 10 C 80 % 6.71 C
283 16-03-2019 23:30:00 10.1 C 79 % 6.63 C
284 16-03-2019 23:35:00 10.1 C 79 % 6.63 C
285 16-03-2019 23:40:00 10.1 C 79 % 6.63 C
286 16-03-2019 23:45:00 10.1 C 79 % 6.63 C
287 16-03-2019 23:50:00 10.2 C 78 % 6.54 C
288 16-03-2019 23:55:00 10.2 C 78 % 6.54 C
289 17-03-2019 00:00:00 10.2 C 78 % 6.54 C
290 17-03-2019 00:05:00 10.2 C 78 % 6.54 C
291 17-03-2019 00:10:00 10.2 C 78 % 6.54 C
292 17-03-2019 00:15:00 10.2 C 78 % 6.54 C
293 17-03-2019 00:20:00 10.2 C 78 % 6.54 C
294 17-03-2019 00:25:00 10.3 C 78 % 6.64 C
295 17-03-2019 00:30:00 10.3 C 78 % 6.64 C
296 17-03-2019 00:35:00 10.3 C 78 % 6.64 C
297 17-03-2019 00:40:00 10.4 C 78 % 6.74 C
298 17-03-2019 00:45:00 10.4 C 77 % 6.55 C
299 17-03-2019 00:50:00 10.4 C 78 % 6.74 C
300 17-03-2019 00:55:00 10.4 C 77 % 6.55 C
Sensor: Nr:Datum:Temp:Feuchte:Taupunkt:
Aussen-T/F 301 17-03-2019 01:00:00 10.4 C 77 % 6.55 C
302 17-03-2019 01:05:00 10.4 C 77 % 6.55 C
303 17-03-2019 01:10:00 10.4 C 77 % 6.55 C
304 17-03-2019 01:15:00 10.4 C 77 % 6.55 C
305 17-03-2019 01:20:00 10.4 C 77 % 6.55 C
306 17-03-2019 01:25:00 10.5 C 77 % 6.64 C
307 17-03-2019 01:30:00 10.5 C 77 % 6.64 C
308 17-03-2019 01:35:00 10.5 C 77 % 6.64 C
309 17-03-2019 01:40:00 10.4 C 77 % 6.55 C
310 17-03-2019 01:45:00 10.5 C 77 % 6.64 C
311 17-03-2019 01:50:00 10.4 C 77 % 6.55 C
312 17-03-2019 01:55:00 10.3 C 77 % 6.45 C
313 17-03-2019 02:00:00 10.3 C 77 % 6.45 C
314 17-03-2019 02:05:00 10.2 C 77 % 6.35 C
315 17-03-2019 02:10:00 10.2 C 77 % 6.35 C
316 17-03-2019 02:15:00 10.2 C 78 % 6.54 C
317 17-03-2019 02:20:00 10.2 C 78 % 6.54 C
318 17-03-2019 02:25:00 10.2 C 78 % 6.54 C
319 17-03-2019 02:30:00 10.2 C 78 % 6.54 C
320 17-03-2019 02:35:00 10.2 C 78 % 6.54 C
321 17-03-2019 02:40:00 10.2 C 78 % 6.54 C
322 17-03-2019 02:45:00 10.2 C 77 % 6.35 C
323 17-03-2019 02:50:00 10.2 C 78 % 6.54 C
324 17-03-2019 02:55:00 10.2 C 77 % 6.35 C
325 17-03-2019 03:00:00 10.2 C 77 % 6.35 C
Sensor: Nr:Datum:Temp:Feuchte:Taupunkt:
Aussen-T/F 326 17-03-2019 03:05:00 10.2 C 77 % 6.35 C
327 17-03-2019 03:10:00 10.2 C 77 % 6.35 C
328 17-03-2019 03:15:00 10.2 C 77 % 6.35 C
329 17-03-2019 03:20:00 10.2 C 77 % 6.35 C
330 17-03-2019 03:25:00 10.2 C 77 % 6.35 C
331 17-03-2019 03:30:00 10.2 C 77 % 6.35 C
332 17-03-2019 03:35:00 10.2 C 77 % 6.35 C
333 17-03-2019 03:40:00 10.1 C 77 % 6.26 C
334 17-03-2019 03:45:00 10.2 C 77 % 6.35 C
335 17-03-2019 03:50:00 10.2 C 77 % 6.35 C
336 17-03-2019 03:55:00 10.2 C 77 % 6.35 C
337 17-03-2019 04:00:00 10.2 C 77 % 6.35 C
338 17-03-2019 04:05:00 10.1 C 76 % 6.07 C
339 17-03-2019 04:10:00 10.1 C 76 % 6.07 C
340 17-03-2019 04:15:00 10.1 C 76 % 6.07 C
341 17-03-2019 04:20:00 10.1 C 76 % 6.07 C
342 17-03-2019 04:25:00 10.1 C 76 % 6.07 C
343 17-03-2019 04:30:00 10.1 C 76 % 6.07 C
344 17-03-2019 04:35:00 10.1 C 76 % 6.07 C
345 17-03-2019 04:40:00 10.1 C 76 % 6.07 C
346 17-03-2019 04:45:00 10.1 C 76 % 6.07 C
347 17-03-2019 04:50:00 10.1 C 76 % 6.07 C
348 17-03-2019 04:55:00 10.2 C 76 % 6.16 C
349 17-03-2019 05:00:00 10.2 C 76 % 6.16 C
350 17-03-2019 05:05:00 10.2 C 76 % 6.16 C
Sensor: Nr:Datum:Temp:Feuchte:Taupunkt:
Aussen-T/F 351 17-03-2019 05:10:00 10.3 C 75 % 6.07 C
352 17-03-2019 05:15:00 10.3 C 75 % 6.07 C
353 17-03-2019 05:20:00 10.3 C 75 % 6.07 C
354 17-03-2019 05:25:00 10.3 C 75 % 6.07 C
355 17-03-2019 05:30:00 10.3 C 74 % 5.88 C
356 17-03-2019 05:35:00 10.3 C 74 % 5.88 C
357 17-03-2019 05:40:00 10.3 C 74 % 5.88 C
358 17-03-2019 05:45:00 10.3 C 74 % 5.88 C
359 17-03-2019 05:50:00 10.3 C 74 % 5.88 C
360 17-03-2019 05:55:00 10.3 C 75 % 6.07 C
361 17-03-2019 06:00:00 10.2 C 75 % 5.97 C
362 17-03-2019 06:05:00 10.2 C 74 % 5.78 C
363 17-03-2019 06:10:00 10.2 C 74 % 5.78 C
364 17-03-2019 06:15:00 10.2 C 74 % 5.78 C
365 17-03-2019 06:20:00 10.2 C 74 % 5.78 C
366 17-03-2019 06:25:00 10.2 C 74 % 5.78 C
367 17-03-2019 06:30:00 10.2 C 74 % 5.78 C
368 17-03-2019 06:35:00 10.2 C 74 % 5.78 C
369 17-03-2019 06:40:00 10.3 C 74 % 5.88 C
370 17-03-2019 06:45:00 10.3 C 74 % 5.88 C
371 17-03-2019 06:50:00 10.3 C 75 % 6.07 C
372 17-03-2019 06:55:00 10.3 C 75 % 6.07 C
373 17-03-2019 07:00:00 10.3 C 75 % 6.07 C
374 17-03-2019 07:05:00 10.2 C 75 % 5.97 C
375 17-03-2019 07:10:00 10.3 C 76 % 6.26 C
Sensor: Nr:Datum:Temp:Feuchte:Taupunkt:
Aussen-T/F 376 17-03-2019 07:15:00 10.3 C 75 % 6.07 C
377 17-03-2019 07:20:00 10.3 C 76 % 6.26 C
378 17-03-2019 07:25:00 10.3 C 76 % 6.26 C
379 17-03-2019 07:30:00 10.2 C 76 % 6.16 C
380 17-03-2019 07:35:00 10.2 C 76 % 6.16 C
381 17-03-2019 07:40:00 10.2 C 76 % 6.16 C
382 17-03-2019 07:45:00 10.2 C 77 % 6.35 C
383 17-03-2019 07:50:00 10.2 C 77 % 6.35 C
384 17-03-2019 07:55:00 10.2 C 77 % 6.35 C
385 17-03-2019 08:00:00 10.2 C 77 % 6.35 C
386 17-03-2019 08:05:00 10.3 C 77 % 6.45 C
387 17-03-2019 08:10:00 10.3 C 78 % 6.64 C
388 17-03-2019 08:15:00 10.3 C 78 % 6.64 C
389 17-03-2019 08:20:00 10.2 C 78 % 6.54 C
390 17-03-2019 08:25:00 10.2 C 79 % 6.73 C
391 17-03-2019 08:30:00 10.2 C 79 % 6.73 C
392 17-03-2019 08:35:00 10.1 C 80 % 6.81 C
393 17-03-2019 08:40:00 10.1 C 80 % 6.81 C
394 17-03-2019 08:45:00 10.1 C 80 % 6.81 C
395 17-03-2019 08:50:00 10.2 C 80 % 6.91 C
396 17-03-2019 08:55:00 10.2 C 80 % 6.91 C
397 17-03-2019 09:00:00 10.2 C 80 % 6.91 C
398 17-03-2019 09:05:00 10.2 C 80 % 6.91 C
399 17-03-2019 09:10:00 10.2 C 80 % 6.91 C
400 17-03-2019 09:15:00 10.2 C 80 % 6.91 C
Sensor: Nr:Datum:Temp:Feuchte:Taupunkt:
Aussen-T/F 401 17-03-2019 09:20:00 10.3 C 80 % 7.01 C
402 17-03-2019 09:25:00 10.3 C 79 % 6.82 C
403 17-03-2019 09:30:00 10.3 C 79 % 6.82 C
404 17-03-2019 09:35:00 10.3 C 80 % 7.01 C
405 17-03-2019 09:40:00 10.3 C 79 % 6.82 C
406 17-03-2019 09:45:00 10.3 C 79 % 6.82 C
407 17-03-2019 09:50:00 10.3 C 80 % 7.01 C
408 17-03-2019 09:55:00 10.3 C 80 % 7.01 C
409 17-03-2019 10:00:00 10.3 C 80 % 7.01 C
410 17-03-2019 10:05:00 10.2 C 81 % 7.09 C
411 17-03-2019 10:10:00 10.2 C 82 % 7.27 C
412 17-03-2019 10:15:00 10.1 C 82 % 7.17 C
413 17-03-2019 10:20:00 10.1 C 82 % 7.17 C
414 17-03-2019 10:25:00 10.1 C 82 % 7.17 C
415 17-03-2019 10:30:00 9.9 C 82 % 6.98 C
416 17-03-2019 10:35:00 9.8 C 83 % 7.05 C
417 17-03-2019 10:40:00 9.7 C 84 % 7.13 C
418 17-03-2019 10:45:00 9.6 C 84 % 7.03 C
419 17-03-2019 10:50:00 9.5 C 85 % 7.11 C
420 17-03-2019 10:55:00 9.2 C 84 % 6.64 C
421 17-03-2019 11:00:00 8.8 C 84 % 6.25 C
422 17-03-2019 11:05:00 8.3 C 85 % 5.93 C
423 17-03-2019 11:10:00 8.1 C 85 % 5.73 C
424 17-03-2019 11:15:00 7.9 C 85 % 5.54 C
425 17-03-2019 11:20:00 7.8 C 85 % 5.44 C
Sensor: Nr:Datum:Temp:Feuchte:Taupunkt:
Aussen-T/F 426 17-03-2019 11:25:00 7.8 C 85 % 5.44 C
427 17-03-2019 11:30:00 7.9 C 84 % 5.37 C
428 17-03-2019 11:35:00 7.9 C 84 % 5.37 C
429 17-03-2019 11:40:00 7.9 C 83 % 5.2 C
430 17-03-2019 11:45:00 8 C 83 % 5.29 C
431 17-03-2019 11:50:00 8.2 C 83 % 5.49 C
432 17-03-2019 11:55:00 8.3 C 82 % 5.41 C
433 17-03-2019 12:00:00 8.3 C 81 % 5.24 C
434 17-03-2019 12:05:00 8.4 C 81 % 5.33 C
435 17-03-2019 12:10:00 8.6 C 81 % 5.53 C
436 17-03-2019 12:15:00 8.7 C 80 % 5.45 C
437 17-03-2019 12:20:00 8.8 C 79 % 5.36 C
438 17-03-2019 12:25:00 8.9 C 79 % 5.46 C
439 17-03-2019 12:30:00 9 C 78 % 5.38 C
440 17-03-2019 12:35:00 9 C 79 % 5.56 C
441 17-03-2019 12:40:00 9 C 78 % 5.38 C
442 17-03-2019 12:45:00 8.9 C 77 % 5.09 C
443 17-03-2019 12:50:00 8.9 C 77 % 5.09 C
444 17-03-2019 12:55:00 8.9 C 78 % 5.28 C
445 17-03-2019 13:00:00 9.1 C 78 % 5.47 C
446 17-03-2019 13:05:00 9.2 C 77 % 5.38 C
447 17-03-2019 13:10:00 9.4 C 77 % 5.58 C
448 17-03-2019 13:15:00 9.7 C 76 % 5.68 C
449 17-03-2019 13:20:00 9.8 C 76 % 5.78 C
450 17-03-2019 13:25:00 9.8 C 76 % 5.78 C
Sensor: Nr:Datum:Temp:Feuchte:Taupunkt:
Aussen-T/F 451 17-03-2019 13:30:00 9.9 C 76 % 5.87 C
452 17-03-2019 13:35:00 10.1 C 75 % 5.88 C
453 17-03-2019 13:40:00 10.1 C 74 % 5.68 C
454 17-03-2019 13:45:00 10.2 C 75 % 5.97 C
455 17-03-2019 13:50:00 10.2 C 74 % 5.78 C
456 17-03-2019 13:55:00 10.2 C 75 % 5.97 C
457 17-03-2019 14:00:00 10.3 C 73 % 5.68 C
458 17-03-2019 14:05:00 10.6 C 72 % 5.77 C
459 17-03-2019 14:10:00 10.7 C 68 % 5.04 C
460 17-03-2019 14:15:00 10.9 C 65 % 4.59 C
461 17-03-2019 14:20:00 10.7 C 63 % 3.95 C
462 17-03-2019 14:25:00 10.6 C 63 % 3.86 C
463 17-03-2019 14:30:00 10.7 C 67 % 4.83 C
464 17-03-2019 14:35:00 10.8 C 63 % 4.05 C
465 17-03-2019 14:40:00 10.9 C 59 % 3.21 C
466 17-03-2019 14:45:00 10.9 C 60 % 3.45 C
467 17-03-2019 14:50:00 10.8 C 60 % 3.36 C
468 17-03-2019 14:55:00 10.7 C 62 % 3.73 C
469 17-03-2019 15:00:00 10.8 C 63 % 4.05 C
470 17-03-2019 15:05:00 10.9 C 64 % 4.37 C
471 17-03-2019 15:10:00 11.1 C 67 % 5.21 C
472 17-03-2019 15:15:00 11.3 C 66 % 5.19 C
473 17-03-2019 15:20:00 11.4 C 65 % 5.06 C
474 17-03-2019 15:25:00 11.6 C 62 % 4.58 C
475 17-03-2019 15:30:00 11.4 C 61 % 4.16 C
Sensor: Nr:Datum:Temp:Feuchte:Taupunkt:
Aussen-T/F 476 17-03-2019 15:35:00 11.2 C 64 % 4.65 C
477 17-03-2019 15:40:00 10.9 C 65 % 4.59 C
478 17-03-2019 15:45:00 10.7 C 68 % 5.04 C
479 17-03-2019 15:50:00 10.5 C 69 % 5.06 C
480 17-03-2019 15:55:00 10.4 C 71 % 5.38 C
481 17-03-2019 16:00:00 10.3 C 72 % 5.48 C
482 17-03-2019 16:05:00 10.4 C 72 % 5.58 C
483 17-03-2019 16:10:00 10.5 C 69 % 5.06 C
484 17-03-2019 16:15:00 10.5 C 65 % 4.21 C
485 17-03-2019 16:20:00 10.4 C 63 % 3.67 C
486 17-03-2019 16:25:00 10.3 C 61 % 3.12 C
487 17-03-2019 16:30:00 10.2 C 60 % 2.79 C
488 17-03-2019 16:35:00 10 C 61 % 2.84 C
489 17-03-2019 16:40:00 9.8 C 64 % 3.32 C
490 17-03-2019 16:45:00 9.6 C 62 % 2.69 C
491 17-03-2019 16:50:00 9.4 C 63 % 2.72 C
492 17-03-2019 16:55:00 9.2 C 63 % 2.53 C
493 17-03-2019 17:00:00 8.6 C 65 % 2.4 C
494 17-03-2019 17:05:00 8.2 C 68 % 2.66 C
495 17-03-2019 17:10:00 7.9 C 68 % 2.37 C
496 17-03-2019 17:15:00 7.9 C 68 % 2.37 C
497 17-03-2019 17:20:00 7.9 C 68 % 2.37 C
498 17-03-2019 17:25:00 8 C 67 % 2.26 C
499 17-03-2019 17:30:00 8 C 67 % 2.26 C
500 17-03-2019 17:35:00 7.9 C 69 % 2.57 C
Sensor: Nr:Datum:Temp:Feuchte:Taupunkt:
Aussen-T/F 501 17-03-2019 17:40:00 7.8 C 71 % 2.88 C
502 17-03-2019 17:45:00 7.6 C 73 % 3.08 C
503 17-03-2019 17:50:00 7.5 C 74 % 3.17 C
504 17-03-2019 17:55:00 7.4 C 75 % 3.27 C
505 17-03-2019 18:00:00 7.3 C 75 % 3.17 C
506 17-03-2019 18:05:00 7.2 C 76 % 3.26 C
507 17-03-2019 18:10:00 7.2 C 75 % 3.07 C
508 17-03-2019 18:15:00 7.2 C 75 % 3.07 C
509 17-03-2019 18:20:00 7.2 C 75 % 3.07 C
510 17-03-2019 18:25:00 7.3 C 74 % 2.98 C
511 17-03-2019 18:30:00 7.2 C 74 % 2.89 C
512 17-03-2019 18:35:00 7 C 74 % 2.69 C
513 17-03-2019 18:40:00 6.8 C 76 % 2.87 C
514 17-03-2019 18:45:00 6.7 C 77 % 2.96 C
515 17-03-2019 18:50:00 6.6 C 78 % 3.05 C
516 17-03-2019 18:55:00 6.5 C 78 % 2.95 C
517 17-03-2019 19:00:00 6.4 C 79 % 3.03 C
518 17-03-2019 19:05:00 6.4 C 79 % 3.03 C
519 17-03-2019 19:10:00 6.3 C 79 % 2.93 C
520 17-03-2019 19:15:00 6.2 C 80 % 3.01 C
521 17-03-2019 19:20:00 6.1 C 80 % 2.92 C
522 17-03-2019 19:25:00 5.9 C 80 % 2.72 C
523 17-03-2019 19:30:00 5.9 C 80 % 2.72 C
524 17-03-2019 19:35:00 5.8 C 81 % 2.8 C
525 17-03-2019 19:40:00 5.8 C 81 % 2.8 C
Sensor: Nr:Datum:Temp:Feuchte:Taupunkt:
Aussen-T/F 526 17-03-2019 19:45:00 5.9 C 81 % 2.9 C
527 17-03-2019 19:50:00 5.6 C 82 % 2.78 C
528 17-03-2019 19:55:00 5.2 C 85 % 2.89 C
529 17-03-2019 20:00:00 5 C 87 % 3.02 C
530 17-03-2019 20:05:00 4.9 C 88 % 3.08 C
531 17-03-2019 20:10:00 4.7 C 89 % 3.05 C
532 17-03-2019 20:15:00 4.7 C 89 % 3.05 C
533 17-03-2019 20:20:00 4.6 C 89 % 2.95 C
534 17-03-2019 20:25:00 4.6 C 89 % 2.95 C
535 17-03-2019 20:30:00 4.5 C 88 % 2.69 C
536 17-03-2019 20:35:00 4.4 C 89 % 2.75 C
537 17-03-2019 20:40:00 4.3 C 89 % 2.65 C
538 17-03-2019 20:45:00 4.2 C 89 % 2.55 C
539 17-03-2019 20:50:00 4.2 C 90 % 2.71 C
540 17-03-2019 20:55:00 4.1 C 90 % 2.61 C
541 17-03-2019 21:00:00 4.2 C 90 % 2.71 C
542 17-03-2019 21:05:00 4.1 C 90 % 2.61 C
543 17-03-2019 21:10:00 4.1 C 91 % 2.77 C
544 17-03-2019 21:15:00 4.1 C 90 % 2.61 C
545 17-03-2019 21:20:00 4.1 C 91 % 2.77 C
546 17-03-2019 21:25:00 4.1 C 90 % 2.61 C
547 17-03-2019 21:30:00 4.1 C 91 % 2.77 C
548 17-03-2019 21:35:00 4 C 91 % 2.67 C
549 17-03-2019 21:40:00 4 C 90 % 2.51 C
550 17-03-2019 21:45:00 3.9 C 90 % 2.41 C
Sensor: Nr:Datum:Temp:Feuchte:Taupunkt:
Aussen-T/F 551 17-03-2019 21:50:00 3.8 C 90 % 2.31 C
552 17-03-2019 21:55:00 3.8 C 91 % 2.47 C
553 17-03-2019 22:00:00 3.8 C 91 % 2.47 C
554 17-03-2019 22:05:00 3.8 C 91 % 2.47 C
555 17-03-2019 22:10:00 3.8 C 91 % 2.47 C
556 17-03-2019 22:15:00 3.9 C 90 % 2.41 C
557 17-03-2019 22:20:00 3.9 C 90 % 2.41 C
558 17-03-2019 22:25:00 3.9 C 90 % 2.41 C
559 17-03-2019 22:30:00 3.9 C 90 % 2.41 C
560 17-03-2019 22:35:00 3.9 C 90 % 2.41 C
561 17-03-2019 22:40:00 3.9 C 90 % 2.41 C
562 17-03-2019 22:45:00 3.9 C 89 % 2.26 C
563 17-03-2019 22:50:00 3.9 C 88 % 2.1 C
564 17-03-2019 22:55:00 3.9 C 88 % 2.1 C
565 17-03-2019 23:00:00 3.9 C 88 % 2.1 C
566 17-03-2019 23:05:00 3.9 C 88 % 2.1 C
567 17-03-2019 23:10:00 4 C 88 % 2.2 C
568 17-03-2019 23:15:00 4 C 88 % 2.2 C
569 17-03-2019 23:20:00 3.9 C 88 % 2.1 C
570 17-03-2019 23:25:00 3.9 C 88 % 2.1 C
571 17-03-2019 23:30:00 3.9 C 88 % 2.1 C
572 17-03-2019 23:35:00 3.9 C 88 % 2.1 C
573 17-03-2019 23:40:00 3.8 C 88 % 2 C
574 17-03-2019 23:45:00 3.7 C 88 % 1.9 C
575 17-03-2019 23:50:00 3.6 C 88 % 1.8 C
Sensor: Nr:Datum:Temp:Feuchte:Taupunkt:
Aussen-T/F 576 17-03-2019 23:55:00 3.5 C 88 % 1.7 C
577 18-03-2019 00:00:00 3.4 C 89 % 1.76 C
578 18-03-2019 00:05:00 3.3 C 89 % 1.67 C
579 18-03-2019 00:10:00 3.2 C 89 % 1.57 C
580 18-03-2019 00:15:00 3.1 C 89 % 1.47 C
581 18-03-2019 00:20:00 3 C 89 % 1.37 C
582 18-03-2019 00:25:00 2.9 C 90 % 1.43 C
583 18-03-2019 00:30:00 2.8 C 90 % 1.33 C
584 18-03-2019 00:35:00 2.7 C 90 % 1.23 C
585 18-03-2019 00:40:00 2.7 C 91 % 1.38 C
586 18-03-2019 00:45:00 2.7 C 92 % 1.53 C
587 18-03-2019 00:50:00 2.8 C 91 % 1.48 C
588 18-03-2019 00:55:00 2.8 C 91 % 1.48 C
589 18-03-2019 01:00:00 2.7 C 91 % 1.38 C
590 18-03-2019 01:05:00 2.6 C 91 % 1.28 C
591 18-03-2019 01:10:00 2.6 C 92 % 1.43 C
592 18-03-2019 01:15:00 2.6 C 92 % 1.43 C
593 18-03-2019 01:20:00 2.7 C 92 % 1.53 C
594 18-03-2019 01:25:00 2.7 C 92 % 1.53 C
595 18-03-2019 01:30:00 2.6 C 92 % 1.43 C
596 18-03-2019 01:35:00 2.5 C 91 % 1.18 C
597 18-03-2019 01:40:00 2.4 C 91 % 1.08 C
598 18-03-2019 01:45:00 2.3 C 92 % 1.14 C
599 18-03-2019 01:50:00 2.4 C 92 % 1.24 C
600 18-03-2019 01:55:00 2.5 C 92 % 1.34 C
Sensor: Nr:Datum:Temp:Feuchte:Taupunkt:
Aussen-T/F 601 18-03-2019 02:00:00 2.7 C 93 % 1.68 C
602 18-03-2019 02:05:00 2.8 C 93 % 1.78 C
603 18-03-2019 02:10:00 2.9 C 92 % 1.73 C
604 18-03-2019 02:15:00 2.9 C 92 % 1.73 C
605 18-03-2019 02:20:00 2.9 C 92 % 1.73 C
606 18-03-2019 02:25:00 2.9 C 92 % 1.73 C
607 18-03-2019 02:30:00 3.1 C 92 % 1.93 C
608 18-03-2019 02:35:00 3.3 C 91 % 1.98 C
609 18-03-2019 02:40:00 3.6 C 90 % 2.12 C
610 18-03-2019 02:45:00 3.8 C 89 % 2.16 C
611 18-03-2019 02:50:00 3.9 C 88 % 2.1 C
612 18-03-2019 02:55:00 3.9 C 88 % 2.1 C
613 18-03-2019 03:00:00 3.9 C 88 % 2.1 C
614 18-03-2019 03:05:00 3.9 C 88 % 2.1 C
615 18-03-2019 03:10:00 3.8 C 87 % 1.84 C
616 18-03-2019 03:15:00 3.8 C 87 % 1.84 C
617 18-03-2019 03:20:00 3.8 C 88 % 2 C
618 18-03-2019 03:25:00 3.7 C 88 % 1.9 C
619 18-03-2019 03:30:00 3.6 C 88 % 1.8 C
620 18-03-2019 03:35:00 3.4 C 89 % 1.76 C
621 18-03-2019 03:40:00 3.4 C 89 % 1.76 C
622 18-03-2019 03:45:00 3.3 C 89 % 1.67 C
623 18-03-2019 03:50:00 3.4 C 89 % 1.76 C
624 18-03-2019 03:55:00 3.4 C 90 % 1.92 C
625 18-03-2019 04:00:00 3.4 C 89 % 1.76 C
Sensor: Nr:Datum:Temp:Feuchte:Taupunkt:
Aussen-T/F 626 18-03-2019 04:05:00 3.4 C 89 % 1.76 C
627 18-03-2019 04:10:00 3.4 C 90 % 1.92 C
628 18-03-2019 04:15:00 3.4 C 89 % 1.76 C
629 18-03-2019 04:20:00 3.4 C 89 % 1.76 C
630 18-03-2019 04:25:00 3.3 C 89 % 1.67 C
631 18-03-2019 04:30:00 3.2 C 89 % 1.57 C
632 18-03-2019 04:35:00 3.2 C 90 % 1.72 C
633 18-03-2019 04:40:00 3.1 C 90 % 1.62 C
634 18-03-2019 04:45:00 3.1 C 90 % 1.62 C
635 18-03-2019 04:50:00 3.1 C 90 % 1.62 C
636 18-03-2019 04:55:00 3 C 90 % 1.52 C
637 18-03-2019 05:00:00 2.9 C 90 % 1.43 C
638 18-03-2019 05:05:00 2.9 C 90 % 1.43 C
639 18-03-2019 05:10:00 2.9 C 90 % 1.43 C
640 18-03-2019 05:15:00 2.9 C 90 % 1.43 C
641 18-03-2019 05:20:00 3.1 C 90 % 1.62 C
642 18-03-2019 05:25:00 3.1 C 90 % 1.62 C
643 18-03-2019 05:30:00 3.2 C 90 % 1.72 C
644 18-03-2019 05:35:00 3.2 C 89 % 1.57 C
645 18-03-2019 05:40:00 3.2 C 89 % 1.57 C
646 18-03-2019 05:45:00 3.2 C 89 % 1.57 C
647 18-03-2019 05:50:00 3.3 C 89 % 1.67 C
648 18-03-2019 05:55:00 3.4 C 89 % 1.76 C
649 18-03-2019 06:00:00 3.5 C 88 % 1.7 C
650 18-03-2019 06:05:00 3.6 C 88 % 1.8 C
Sensor: Nr:Datum:Temp:Feuchte:Taupunkt:
Aussen-T/F 651 18-03-2019 06:10:00 3.7 C 87 % 1.74 C
652 18-03-2019 06:15:00 3.8 C 87 % 1.84 C
653 18-03-2019 06:20:00 4 C 86 % 1.88 C
654 18-03-2019 06:25:00 4.1 C 86 % 1.97 C
655 18-03-2019 06:30:00 4.2 C 86 % 2.07 C
656 18-03-2019 06:35:00 4.2 C 86 % 2.07 C
657 18-03-2019 06:40:00 4.1 C 86 % 1.97 C
658 18-03-2019 06:45:00 4.1 C 86 % 1.97 C
659 18-03-2019 06:50:00 4.1 C 86 % 1.97 C
660 18-03-2019 06:55:00 4.1 C 86 % 1.97 C
661 18-03-2019 07:00:00 4 C 86 % 1.88 C
662 18-03-2019 07:05:00 3.9 C 86 % 1.78 C
663 18-03-2019 07:10:00 3.9 C 87 % 1.94 C
664 18-03-2019 07:15:00 3.9 C 87 % 1.94 C
665 18-03-2019 07:20:00 3.9 C 88 % 2.1 C
666 18-03-2019 07:25:00 4.1 C 87 % 2.14 C
667 18-03-2019 07:30:00 4.3 C 87 % 2.33 C
668 18-03-2019 07:35:00 4.3 C 87 % 2.33 C
669 18-03-2019 07:40:00 4.4 C 86 % 2.27 C
670 18-03-2019 07:45:00 4.6 C 86 % 2.47 C
671 18-03-2019 07:50:00 4.7 C 85 % 2.4 C
672 18-03-2019 07:55:00 4.7 C 85 % 2.4 C
673 18-03-2019 08:00:00 4.8 C 85 % 2.5 C
674 18-03-2019 08:05:00 4.8 C 85 % 2.5 C
675 18-03-2019 08:10:00 4.8 C 85 % 2.5 C
Sensor: Nr:Datum:Temp:Feuchte:Taupunkt:
Aussen-T/F 676 18-03-2019 08:15:00 4.9 C 85 % 2.6 C
677 18-03-2019 08:20:00 4.9 C 86 % 2.76 C
678 18-03-2019 08:25:00 5 C 86 % 2.86 C
679 18-03-2019 08:30:00 5.1 C 86 % 2.96 C
680 18-03-2019 08:35:00 5.1 C 86 % 2.96 C
681 18-03-2019 08:40:00 5.2 C 86 % 3.05 C
682 18-03-2019 08:45:00 5.3 C 86 % 3.15 C
683 18-03-2019 08:50:00 5.3 C 86 % 3.15 C
684 18-03-2019 08:55:00 5.3 C 87 % 3.32 C
685 18-03-2019 09:00:00 5.2 C 88 % 3.38 C
686 18-03-2019 09:05:00 5.1 C 89 % 3.44 C
687 18-03-2019 09:10:00 5 C 89 % 3.34 C
688 18-03-2019 09:15:00 5 C 90 % 3.5 C
689 18-03-2019 09:20:00 5.1 C 90 % 3.6 C
690 18-03-2019 09:25:00 5.1 C 90 % 3.6 C
691 18-03-2019 09:30:00 5.2 C 91 % 3.85 C
692 18-03-2019 09:35:00 5.1 C 89 % 3.44 C
693 18-03-2019 09:40:00 4.9 C 89 % 3.24 C
694 18-03-2019 09:45:00 4.9 C 90 % 3.4 C
695 18-03-2019 09:50:00 5 C 90 % 3.5 C
696 18-03-2019 09:55:00 5.2 C 90 % 3.7 C
697 18-03-2019 10:00:00 5.3 C 90 % 3.8 C
698 18-03-2019 10:05:00 5.6 C 90 % 4.09 C
699 18-03-2019 10:10:00 5.9 C 89 % 4.23 C
700 18-03-2019 10:15:00 6.2 C 88 % 4.36 C
Sensor: Nr:Datum:Temp:Feuchte:Taupunkt:
Aussen-T/F 701 18-03-2019 10:20:00 6.3 C 87 % 4.3 C
702 18-03-2019 10:25:00 6.4 C 85 % 4.07 C
703 18-03-2019 10:30:00 6.4 C 84 % 3.9 C
704 18-03-2019 10:35:00 6.5 C 84 % 4 C
705 18-03-2019 10:40:00 6.7 C 84 % 4.19 C
706 18-03-2019 10:45:00 6.9 C 84 % 4.39 C
707 18-03-2019 10:50:00 7.1 C 82 % 4.24 C
708 18-03-2019 10:55:00 7.1 C 81 % 4.07 C
709 18-03-2019 11:00:00 7 C 81 % 3.97 C
710 18-03-2019 11:05:00 7 C 82 % 4.14 C
711 18-03-2019 11:10:00 7.2 C 82 % 4.34 C
712 18-03-2019 11:15:00 7.4 C 81 % 4.36 C
713 18-03-2019 11:20:00 7.7 C 80 % 4.47 C
714 18-03-2019 11:25:00 7.7 C 78 % 4.11 C
715 18-03-2019 11:30:00 7.7 C 78 % 4.11 C
716 18-03-2019 11:35:00 7.9 C 77 % 4.12 C
717 18-03-2019 11:40:00 8.1 C 74 % 3.75 C
718 18-03-2019 11:45:00 8.2 C 72 % 3.46 C
719 18-03-2019 11:50:00 8.4 C 72 % 3.65 C
720 18-03-2019 11:55:00 8.6 C 72 % 3.85 C
721 18-03-2019 12:00:00 8.7 C 70 % 3.54 C
722 18-03-2019 12:05:00 8.6 C 68 % 3.04 C
723 18-03-2019 12:10:00 8.5 C 70 % 3.35 C
724 18-03-2019 12:15:00 8.8 C 68 % 3.23 C
725 18-03-2019 12:20:00 9.1 C 68 % 3.52 C
Sensor: Nr:Datum:Temp:Feuchte:Taupunkt:
Aussen-T/F 726 18-03-2019 12:25:00 9.1 C 65 % 2.88 C
727 18-03-2019 12:30:00 8.8 C 66 % 2.81 C
728 18-03-2019 12:35:00 8.6 C 70 % 3.45 C
729 18-03-2019 12:40:00 7.5 C 75 % 3.36 C
730 18-03-2019 12:45:00 6.7 C 79 % 3.32 C
731 18-03-2019 12:50:00 6.3 C 81 % 3.29 C
732 18-03-2019 12:55:00 6.1 C 83 % 3.44 C
733 18-03-2019 13:00:00 6.1 C 85 % 3.77 C
734 18-03-2019 13:05:00 6 C 85 % 3.67 C
735 18-03-2019 13:10:00 6 C 86 % 3.84 C
736 18-03-2019 13:15:00 6.1 C 86 % 3.94 C
737 18-03-2019 13:20:00 6.2 C 86 % 4.04 C
738 18-03-2019 13:25:00 6.4 C 87 % 4.4 C
739 18-03-2019 13:30:00 6.7 C 87 % 4.69 C
740 18-03-2019 13:35:00 6.8 C 85 % 4.46 C
741 18-03-2019 13:40:00 7.1 C 85 % 4.75 C
742 18-03-2019 13:45:00 7.3 C 84 % 4.78 C
743 18-03-2019 13:50:00 7.5 C 82 % 4.63 C
744 18-03-2019 13:55:00 7.8 C 80 % 4.57 C
745 18-03-2019 14:00:00 8.2 C 78 % 4.6 C
746 18-03-2019 14:05:00 8.6 C 78 % 4.99 C
747 18-03-2019 14:10:00 8.7 C 76 % 4.71 C
748 18-03-2019 14:15:00 8.6 C 77 % 4.8 C
749 18-03-2019 14:20:00 8.2 C 72 % 3.46 C
750 18-03-2019 14:25:00 8 C 74 % 3.66 C
Sensor: Nr:Datum:Temp:Feuchte:Taupunkt:
Aussen-T/F 751 18-03-2019 14:30:00 8.2 C 72 % 3.46 C
752 18-03-2019 14:35:00 8.4 C 71 % 3.46 C
753 18-03-2019 14:40:00 8.7 C 69 % 3.34 C
754 18-03-2019 14:45:00 8.8 C 67 % 3.02 C
755 18-03-2019 14:50:00 8.7 C 66 % 2.71 C
756 18-03-2019 14:55:00 8.1 C 73 % 3.56 C
757 18-03-2019 15:00:00 7.3 C 79 % 3.91 C
758 18-03-2019 15:05:00 6.8 C 82 % 3.95 C
759 18-03-2019 15:10:00 6.4 C 85 % 4.07 C
760 18-03-2019 15:15:00 6.3 C 86 % 4.14 C
761 18-03-2019 15:20:00 6.3 C 88 % 4.46 C
762 18-03-2019 15:25:00 6.3 C 86 % 4.14 C
763 18-03-2019 15:30:00 6.5 C 88 % 4.66 C
764 18-03-2019 15:35:00 6.7 C 88 % 4.86 C
765 18-03-2019 15:40:00 6.8 C 88 % 4.96 C
766 18-03-2019 15:45:00 6.9 C 86 % 4.72 C
767 18-03-2019 15:50:00 7.1 C 88 % 5.25 C
768 18-03-2019 15:55:00 7.2 C 87 % 5.19 C
769 18-03-2019 16:00:00 7.3 C 87 % 5.28 C
770 18-03-2019 16:05:00 7.2 C 87 % 5.19 C
771 18-03-2019 16:10:00 7.1 C 87 % 5.09 C
772 18-03-2019 16:15:00 6.8 C 87 % 4.79 C
773 18-03-2019 16:20:00 6.7 C 88 % 4.86 C
774 18-03-2019 16:25:00 6.6 C 88 % 4.76 C
775 18-03-2019 16:30:00 6.6 C 89 % 4.92 C
Sensor: Nr:Datum:Temp:Feuchte:Taupunkt:
Aussen-T/F 776 18-03-2019 16:35:00 6.6 C 89 % 4.92 C
777 18-03-2019 16:40:00 6.7 C 85 % 4.36 C
778 18-03-2019 16:45:00 6.8 C 83 % 4.12 C
779 18-03-2019 16:50:00 7 C 83 % 4.32 C
780 18-03-2019 16:55:00 7.1 C 81 % 4.07 C
781 18-03-2019 17:00:00 7.3 C 82 % 4.44 C
782 18-03-2019 17:05:00 7.7 C 79 % 4.3 C
783 18-03-2019 17:10:00 8.2 C 78 % 4.6 C
784 18-03-2019 17:15:00 8.5 C 75 % 4.33 C
785 18-03-2019 17:20:00 8.5 C 73 % 3.95 C
786 18-03-2019 17:25:00 8.3 C 73 % 3.75 C
787 18-03-2019 17:30:00 8.1 C 74 % 3.75 C
788 18-03-2019 17:35:00 7.9 C 72 % 3.17 C
789 18-03-2019 17:40:00 7.8 C 72 % 3.08 C
790 18-03-2019 17:45:00 7.8 C 72 % 3.08 C
791 18-03-2019 17:50:00 7.7 C 70 % 2.58 C
792 18-03-2019 17:55:00 7.7 C 72 % 2.98 C
793 18-03-2019 18:00:00 7.6 C 70 % 2.49 C
794 18-03-2019 18:05:00 7.5 C 72 % 2.79 C
795 18-03-2019 18:10:00 7.4 C 72 % 2.69 C
796 18-03-2019 18:15:00 7.6 C 75 % 3.46 C
797 18-03-2019 18:20:00 7.7 C 73 % 3.18 C
798 18-03-2019 18:25:00 7.9 C 74 % 3.56 C
799 18-03-2019 18:30:00 7.9 C 75 % 3.75 C
800 18-03-2019 18:35:00 7.8 C 76 % 3.84 C
Sensor: Nr:Datum:Temp:Feuchte:Taupunkt:
Aussen-T/F 801 18-03-2019 18:40:00 7.6 C 77 % 3.83 C
802 18-03-2019 18:45:00 7.3 C 79 % 3.91 C
803 18-03-2019 18:50:00 7 C 80 % 3.79 C
804 18-03-2019 18:55:00 6.6 C 81 % 3.58 C
805 18-03-2019 19:00:00 6.3 C 82 % 3.46 C
806 18-03-2019 19:05:00 5.9 C 82 % 3.07 C
807 18-03-2019 19:10:00 5.6 C 83 % 2.95 C
808 18-03-2019 19:15:00 5.4 C 85 % 3.09 C
809 18-03-2019 19:20:00 5.2 C 85 % 2.89 C
810 18-03-2019 19:25:00 5.1 C 86 % 2.96 C
811 18-03-2019 19:30:00 4.9 C 86 % 2.76 C
812 18-03-2019 19:35:00 4.9 C 87 % 2.92 C
813 18-03-2019 19:40:00 4.9 C 87 % 2.92 C
814 18-03-2019 19:45:00 4.8 C 87 % 2.82 C
815 18-03-2019 19:50:00 4.8 C 87 % 2.82 C
816 18-03-2019 19:55:00 4.7 C 87 % 2.73 C
817 18-03-2019 20:00:00 4.6 C 86 % 2.47 C
818 18-03-2019 20:05:00 4.4 C 86 % 2.27 C
819 18-03-2019 20:10:00 4.3 C 86 % 2.17 C
820 18-03-2019 20:15:00 4.2 C 86 % 2.07 C
821 18-03-2019 20:20:00 4.1 C 85 % 1.81 C
822 18-03-2019 20:25:00 4.1 C 86 % 1.97 C
823 18-03-2019 20:30:00 4 C 86 % 1.88 C
824 18-03-2019 20:35:00 3.9 C 86 % 1.78 C
825 18-03-2019 20:40:00 3.8 C 86 % 1.68 C
Sensor: Nr:Datum:Temp:Feuchte:Taupunkt:
Aussen-T/F 826 18-03-2019 20:45:00 3.7 C 86 % 1.58 C
827 18-03-2019 20:50:00 3.6 C 86 % 1.48 C
828 18-03-2019 20:55:00 3.5 C 87 % 1.55 C
829 18-03-2019 21:00:00 3.4 C 87 % 1.45 C
830 18-03-2019 21:05:00 3.3 C 87 % 1.35 C
831 18-03-2019 21:10:00 3.2 C 87 % 1.25 C
832 18-03-2019 21:15:00 3.2 C 87 % 1.25 C
833 18-03-2019 21:20:00 3.2 C 88 % 1.41 C
834 18-03-2019 21:25:00 3.1 C 88 % 1.31 C
835 18-03-2019 21:30:00 3.1 C 88 % 1.31 C
836 18-03-2019 21:35:00 3.1 C 88 % 1.31 C
837 18-03-2019 21:40:00 3 C 88 % 1.21 C
838 18-03-2019 21:45:00 2.9 C 89 % 1.27 C
839 18-03-2019 21:50:00 2.8 C 89 % 1.17 C
840 18-03-2019 21:55:00 2.8 C 89 % 1.17 C
841 18-03-2019 22:00:00 2.7 C 89 % 1.07 C
842 18-03-2019 22:05:00 2.6 C 89 % 0.97 C
843 18-03-2019 22:10:00 2.4 C 89 % 0.78 C
844 18-03-2019 22:15:00 2.3 C 89 % 0.68 C
845 18-03-2019 22:20:00 2.1 C 89 % 0.48 C
846 18-03-2019 22:25:00 1.9 C 89 % 0.28 C
847 18-03-2019 22:30:00 1.8 C 90 % 0.34 C
848 18-03-2019 22:35:00 1.8 C 90 % 0.34 C
849 18-03-2019 22:40:00 1.8 C 90 % 0.34 C
850 18-03-2019 22:45:00 1.7 C 91 % 0.39 C
Sensor: Nr:Datum:Temp:Feuchte:Taupunkt:
Aussen-T/F 851 18-03-2019 22:50:00 1.7 C 91 % 0.39 C
852 18-03-2019 22:55:00 1.7 C 91 % 0.39 C
853 18-03-2019 23:00:00 1.6 C 91 % 0.29 C
854 18-03-2019 23:05:00 1.6 C 91 % 0.29 C
855 18-03-2019 23:10:00 1.6 C 92 % 0.44 C
856 18-03-2019 23:15:00 1.6 C 92 % 0.44 C
857 18-03-2019 23:20:00 1.6 C 92 % 0.44 C
858 18-03-2019 23:25:00 1.6 C 92 % 0.44 C
859 18-03-2019 23:30:00 1.5 C 92 % 0.35 C
860 18-03-2019 23:35:00 1.4 C 92 % 0.25 C
861 18-03-2019 23:40:00 1.4 C 92 % 0.25 C
862 18-03-2019 23:45:00 1.3 C 92 % 0.15 C
863 18-03-2019 23:50:00 1.3 C 92 % 0.15 C
864 18-03-2019 23:55:00 1.3 C 92 % 0.15 C
865 19-03-2019 00:00:00 1.2 C 92 % 0.05 C
866 19-03-2019 00:05:00 1.1 C 92 % -0.05 C
867 19-03-2019 00:10:00 1.1 C 92 % -0.05 C
868 19-03-2019 00:15:00 1.1 C 93 % 0.1 C
869 19-03-2019 00:20:00 1.1 C 92 % -0.05 C
870 19-03-2019 00:25:00 1.1 C 93 % 0.1 C
871 19-03-2019 00:30:00 1 C 93 % 0 C
872 19-03-2019 00:35:00 0.9 C 92 % -0.25 C
873 19-03-2019 00:40:00 0.8 C 92 % -0.35 C
874 19-03-2019 00:45:00 0.7 C 92 % -0.45 C
875 19-03-2019 00:50:00 0.6 C 92 % -0.55 C
Sensor: Nr:Datum:Temp:Feuchte:Taupunkt:
Aussen-T/F 876 19-03-2019 00:55:00 0.5 C 93 % -0.5 C
877 19-03-2019 01:00:00 0.5 C 93 % -0.5 C
878 19-03-2019 01:05:00 0.5 C 93 % -0.5 C
879 19-03-2019 01:10:00 0.5 C 93 % -0.5 C
880 19-03-2019 01:15:00 0.4 C 93 % -0.6 C
881 19-03-2019 01:20:00 0.4 C 93 % -0.6 C
882 19-03-2019 01:25:00 0.3 C 93 % -0.7 C
883 19-03-2019 01:30:00 0.3 C 93 % -0.7 C
884 19-03-2019 01:35:00 0.3 C 93 % -0.7 C
885 19-03-2019 01:40:00 0.4 C 93 % -0.6 C
886 19-03-2019 01:45:00 0.3 C 93 % -0.7 C
887 19-03-2019 01:50:00 0.2 C 93 % -0.79 C
888 19-03-2019 01:55:00 0.2 C 93 % -0.79 C
889 19-03-2019 02:00:00 0.1 C 93 % -0.89 C
890 19-03-2019 02:05:00 0.1 C 93 % -0.89 C
891 19-03-2019 02:10:00 -0.1 C 93 % -1.09 C
892 19-03-2019 02:15:00 -0.1 C 93 % -1.09 C
893 19-03-2019 02:20:00 -0.1 C 94 % -0.95 C
894 19-03-2019 02:25:00 -0.1 C 94 % -0.95 C
895 19-03-2019 02:30:00 -0.1 C 94 % -0.95 C
896 19-03-2019 02:35:00 0 C 94 % -0.85 C
897 19-03-2019 02:40:00 -0.1 C 94 % -0.95 C
898 19-03-2019 02:45:00 -0.1 C 94 % -0.95 C
899 19-03-2019 02:50:00 -0.1 C 94 % -0.95 C
900 19-03-2019 02:55:00 0.1 C 94 % -0.75 C
Sensor: Nr:Datum:Temp:Feuchte:Taupunkt:
Aussen-T/F 901 19-03-2019 03:00:00 0 C 94 % -0.85 C
902 19-03-2019 03:05:00 -0.1 C 94 % -0.95 C
903 19-03-2019 03:10:00 -0.2 C 94 % -1.05 C
904 19-03-2019 03:15:00 -0.2 C 94 % -1.05 C
905 19-03-2019 03:20:00 -0.2 C 94 % -1.05 C
906 19-03-2019 03:25:00 -0.3 C 94 % -1.15 C
907 19-03-2019 03:30:00 -0.3 C 94 % -1.15 C
908 19-03-2019 03:35:00 -0.4 C 94 % -1.25 C
909 19-03-2019 03:40:00 -0.4 C 94 % -1.25 C
910 19-03-2019 03:45:00 -0.4 C 94 % -1.25 C
911 19-03-2019 03:50:00 -0.5 C 94 % -1.34 C
912 19-03-2019 03:55:00 -0.6 C 94 % -1.44 C
913 19-03-2019 04:00:00 -0.7 C 94 % -1.54 C
914 19-03-2019 04:05:00 -0.7 C 94 % -1.54 C
915 19-03-2019 04:10:00 -0.7 C 94 % -1.54 C
916 19-03-2019 04:15:00 -0.7 C 94 % -1.54 C
917 19-03-2019 04:20:00 -0.6 C 94 % -1.44 C
918 19-03-2019 04:25:00 -0.6 C 94 % -1.44 C
919 19-03-2019 04:30:00 -0.6 C 94 % -1.44 C
920 19-03-2019 04:35:00 -0.7 C 94 % -1.54 C
921 19-03-2019 04:40:00 -0.8 C 94 % -1.64 C
922 19-03-2019 04:45:00 -0.8 C 94 % -1.64 C
923 19-03-2019 04:50:00 -0.8 C 94 % -1.64 C
924 19-03-2019 04:55:00 -0.8 C 94 % -1.64 C
925 19-03-2019 05:00:00 -0.9 C 94 % -1.74 C
Sensor: Nr:Datum:Temp:Feuchte:Taupunkt:
Aussen-T/F 926 19-03-2019 05:05:00 -1 C 94 % -1.84 C
927 19-03-2019 05:10:00 -1 C 94 % -1.84 C
928 19-03-2019 05:15:00 -1.1 C 94 % -1.94 C
929 19-03-2019 05:20:00 -1.1 C 94 % -1.94 C
930 19-03-2019 05:25:00 -1.1 C 94 % -1.94 C
931 19-03-2019 05:30:00 -1.1 C 94 % -1.94 C
932 19-03-2019 05:35:00 -1 C 95 % -1.7 C
933 19-03-2019 05:40:00 -0.9 C 95 % -1.6 C
934 19-03-2019 05:45:00 -0.9 C 95 % -1.6 C
935 19-03-2019 05:50:00 -1.1 C 94 % -1.94 C
936 19-03-2019 05:55:00 -1.2 C 94 % -2.04 C
937 19-03-2019 06:00:00 -1.2 C 94 % -2.04 C
938 19-03-2019 06:05:00 -1.3 C 94 % -2.14 C
939 19-03-2019 06:10:00 -1.3 C 94 % -2.14 C
940 19-03-2019 06:15:00 -1.3 C 95 % -2 C
941 19-03-2019 06:20:00 -1.3 C 95 % -2 C
942 19-03-2019 06:25:00 -1.3 C 94 % -2.14 C
943 19-03-2019 06:30:00 -1.1 C 95 % -1.8 C
944 19-03-2019 06:35:00 -1.1 C 95 % -1.8 C
945 19-03-2019 06:40:00 -1.1 C 95 % -1.8 C
946 19-03-2019 06:45:00 -1.1 C 95 % -1.8 C
947 19-03-2019 06:50:00 -1.2 C 95 % -1.9 C
948 19-03-2019 06:55:00 -1.1 C 95 % -1.8 C
949 19-03-2019 07:00:00 -1 C 95 % -1.7 C
950 19-03-2019 07:05:00 -0.9 C 95 % -1.6 C
Sensor: Nr:Datum:Temp:Feuchte:Taupunkt:
Aussen-T/F 951 19-03-2019 07:10:00 -0.8 C 95 % -1.5 C
952 19-03-2019 07:15:00 -0.7 C 95 % -1.4 C
953 19-03-2019 07:20:00 -0.5 C 95 % -1.2 C
954 19-03-2019 07:25:00 -0.4 C 95 % -1.1 C
955 19-03-2019 07:30:00 -0.3 C 96 % -0.86 C
956 19-03-2019 07:35:00 -0.2 C 95 % -0.9 C
957 19-03-2019 07:40:00 -0.1 C 95 % -0.8 C
958 19-03-2019 07:45:00 0.1 C 96 % -0.46 C
959 19-03-2019 07:50:00 0.1 C 95 % -0.6 C
960 19-03-2019 07:55:00 0.2 C 95 % -0.5 C
961 19-03-2019 08:00:00 0.2 C 95 % -0.5 C
962 19-03-2019 08:05:00 0.1 C 95 % -0.6 C
963 19-03-2019 08:10:00 0.1 C 95 % -0.6 C
964 19-03-2019 08:15:00 -0.1 C 95 % -0.8 C
965 19-03-2019 08:20:00 -0.2 C 95 % -0.9 C
966 19-03-2019 08:25:00 -0.2 C 95 % -0.9 C
967 19-03-2019 08:30:00 -0.2 C 95 % -0.9 C
968 19-03-2019 08:35:00 -0.2 C 95 % -0.9 C
969 19-03-2019 08:40:00 -0.2 C 95 % -0.9 C
970 19-03-2019 08:45:00 -0.1 C 95 % -0.8 C
971 19-03-2019 08:50:00 0.1 C 95 % -0.6 C
972 19-03-2019 08:55:00 0.2 C 95 % -0.5 C
973 19-03-2019 09:00:00 0.2 C 95 % -0.5 C
974 19-03-2019 09:05:00 0.3 C 95 % -0.4 C
975 19-03-2019 09:10:00 0.4 C 95 % -0.31 C
Sensor: Nr:Datum:Temp:Feuchte:Taupunkt:
Aussen-T/F 976 19-03-2019 09:15:00 0.5 C 95 % -0.21 C
977 19-03-2019 09:20:00 0.6 C 95 % -0.11 C
978 19-03-2019 09:25:00 0.6 C 95 % -0.11 C
979 19-03-2019 09:30:00 0.7 C 95 % -0.01 C
980 19-03-2019 09:35:00 0.7 C 95 % -0.01 C
981 19-03-2019 09:40:00 0.8 C 95 % 0.09 C
982 19-03-2019 09:45:00 0.9 C 95 % 0.19 C
983 19-03-2019 09:50:00 1.1 C 95 % 0.39 C
984 19-03-2019 09:55:00 1.3 C 96 % 0.73 C
985 19-03-2019 10:00:00 1.5 C 95 % 0.79 C
986 19-03-2019 10:05:00 1.7 C 95 % 0.99 C
987 19-03-2019 10:10:00 1.8 C 95 % 1.09 C
988 19-03-2019 10:15:00 1.9 C 95 % 1.19 C
989 19-03-2019 10:20:00 2.2 C 95 % 1.48 C
990 19-03-2019 10:25:00 2.3 C 95 % 1.58 C
991 19-03-2019 10:30:00 2.5 C 95 % 1.78 C
992 19-03-2019 10:35:00 2.6 C 94 % 1.73 C
993 19-03-2019 10:40:00 2.7 C 94 % 1.83 C
994 19-03-2019 10:45:00 2.8 C 94 % 1.93 C
995 19-03-2019 10:50:00 3.1 C 94 % 2.23 C
996 19-03-2019 10:55:00 3.3 C 94 % 2.43 C
997 19-03-2019 11:00:00 3.7 C 94 % 2.83 C
998 19-03-2019 11:05:00 3.8 C 94 % 2.93 C
999 19-03-2019 11:10:00 4.1 C 94 % 3.22 C
1000 19-03-2019 11:15:00 4.3 C 94 % 3.42 C
Sensor: Nr:Datum:Temp:Feuchte:Taupunkt:
Aussen-T/F 1001 19-03-2019 11:20:00 4.6 C 92 % 3.42 C
1002 19-03-2019 11:25:00 4.9 C 91 % 3.56 C
1003 19-03-2019 11:30:00 5.3 C 88 % 3.48 C
1004 19-03-2019 11:35:00 5.6 C 81 % 2.6 C
1005 19-03-2019 11:40:00 5.9 C 80 % 2.72 C
1006 19-03-2019 11:45:00 6.3 C 79 % 2.93 C
1007 19-03-2019 11:50:00 6.4 C 76 % 2.49 C
1008 19-03-2019 11:55:00 6.6 C 73 % 2.12 C
1009 19-03-2019 12:00:00 6.7 C 73 % 2.21 C
1010 19-03-2019 12:05:00 6.8 C 72 % 2.12 C
1011 19-03-2019 12:10:00 6.9 C 72 % 2.21 C
1012 19-03-2019 12:15:00 7.1 C 72 % 2.4 C
1013 19-03-2019 12:20:00 7.1 C 69 % 1.81 C
1014 19-03-2019 12:25:00 7.2 C 69 % 1.9 C
1015 19-03-2019 12:30:00 7.4 C 68 % 1.89 C
1016 19-03-2019 12:35:00 7.5 C 66 % 1.57 C
1017 19-03-2019 12:40:00 7.6 C 65 % 1.45 C
1018 19-03-2019 12:45:00 7.6 C 65 % 1.45 C
1019 19-03-2019 12:50:00 7.7 C 67 % 1.97 C
1020 19-03-2019 12:55:00 7.9 C 66 % 1.95 C
1021 19-03-2019 13:00:00 8.2 C 64 % 1.81 C
1022 19-03-2019 13:05:00 8.3 C 62 % 1.46 C
1023 19-03-2019 13:10:00 8.5 C 61 % 1.42 C
1024 19-03-2019 13:15:00 8.7 C 61 % 1.61 C
1025 19-03-2019 13:20:00 8.8 C 59 % 1.24 C
Sensor: Nr:Datum:Temp:Feuchte:Taupunkt:
Aussen-T/F 1026 19-03-2019 13:25:00 9 C 57 % 0.95 C
1027 19-03-2019 13:30:00 9.1 C 57 % 1.04 C
1028 19-03-2019 13:35:00 9.1 C 56 % 0.8 C
1029 19-03-2019 13:40:00 9.2 C 57 % 1.14 C
1030 19-03-2019 13:45:00 9.3 C 56 % 0.99 C
1031 19-03-2019 13:50:00 9.4 C 55 % 0.83 C
1032 19-03-2019 13:55:00 9.6 C 57 % 1.51 C
1033 19-03-2019 14:00:00 9.8 C 57 % 1.7 C
1034 19-03-2019 14:05:00 9.8 C 57 % 1.7 C
1035 19-03-2019 14:10:00 9.8 C 58 % 1.94 C
1036 19-03-2019 14:15:00 9.9 C 56 % 1.55 C
1037 19-03-2019 14:20:00 9.9 C 57 % 1.79 C
1038 19-03-2019 14:25:00 10 C 56 % 1.64 C
1039 19-03-2019 14:30:00 10.1 C 57 % 1.98 C
1040 19-03-2019 14:35:00 10.2 C 58 % 2.32 C
1041 19-03-2019 14:40:00 10.2 C 55 % 1.58 C
1042 19-03-2019 14:45:00 10.1 C 55 % 1.48 C
1043 19-03-2019 14:50:00 10 C 55 % 1.39 C
1044 19-03-2019 14:55:00 9.9 C 57 % 1.79 C
1045 19-03-2019 15:00:00 9.9 C 59 % 2.27 C
1046 19-03-2019 15:05:00 9.9 C 57 % 1.79 C
1047 19-03-2019 15:10:00 9.9 C 55 % 1.3 C
1048 19-03-2019 15:15:00 9.9 C 57 % 1.79 C
1049 19-03-2019 15:20:00 9.9 C 53 % 0.78 C
1050 19-03-2019 15:25:00 9.9 C 53 % 0.78 C
Sensor: Nr:Datum:Temp:Feuchte:Taupunkt:
Aussen-T/F 1051 19-03-2019 15:30:00 10.1 C 51 % 0.44 C
1052 19-03-2019 15:35:00 10.3 C 52 % 0.89 C
1053 19-03-2019 15:40:00 10.4 C 51 % 0.71 C
1054 19-03-2019 15:45:00 10.5 C 50 % 0.53 C
1055 19-03-2019 15:50:00 10.5 C 51 % 0.81 C
1056 19-03-2019 15:55:00 10.6 C 50 % 0.62 C
1057 19-03-2019 16:00:00 10.7 C 50 % 0.72 C
1058 19-03-2019 16:05:00 10.8 C 50 % 0.81 C
1059 19-03-2019 16:10:00 10.9 C 50 % 0.9 C
1060 19-03-2019 16:15:00 11.1 C 52 % 1.63 C
1061 19-03-2019 16:20:00 11.2 C 49 % 0.9 C
1062 19-03-2019 16:25:00 11.3 C 53 % 2.08 C
1063 19-03-2019 16:30:00 11.7 C 51 % 1.91 C
1064 19-03-2019 16:35:00 12 C 47 % 1.05 C
1065 19-03-2019 16:40:00 12.1 C 46 % 0.85 C
1066 19-03-2019 16:45:00 12.1 C 46 % 0.85 C
1067 19-03-2019 16:50:00 12.2 C 44 % 0.32 C
1068 19-03-2019 16:55:00 12.1 C 44 % 0.23 C
1069 19-03-2019 17:00:00 11.9 C 43 % -0.27 C
1070 19-03-2019 17:05:00 11.8 C 45 % 0.27 C
1071 19-03-2019 17:10:00 11.9 C 44 % 0.05 C
1072 19-03-2019 17:15:00 12.1 C 47 % 1.14 C
1073 19-03-2019 17:20:00 12.2 C 46 % 0.94 C
1074 19-03-2019 17:25:00 12.3 C 44 % 0.41 C
1075 19-03-2019 17:30:00 12.3 C 45 % 0.72 C
Sensor: Nr:Datum:Temp:Feuchte:Taupunkt:
Aussen-T/F 1076 19-03-2019 17:35:00 12.2 C 45 % 0.63 C
1077 19-03-2019 17:40:00 11.9 C 45 % 0.36 C
1078 19-03-2019 17:45:00 11.8 C 47 % 0.87 C
1079 19-03-2019 17:50:00 11.9 C 45 % 0.36 C
1080 19-03-2019 17:55:00 11.8 C 48 % 1.16 C
1081 19-03-2019 18:00:00 11.8 C 47 % 0.87 C
1082 19-03-2019 18:05:00 11.7 C 53 % 2.45 C
1083 19-03-2019 18:10:00 11.6 C 56 % 3.13 C
1084 19-03-2019 18:15:00 11.4 C 56 % 2.95 C
1085 19-03-2019 18:20:00 11 C 54 % 2.06 C
1086 19-03-2019 18:25:00 10.3 C 57 % 2.17 C
1087 19-03-2019 18:30:00 9.5 C 60 % 2.13 C
1088 19-03-2019 18:35:00 8.8 C 64 % 2.38 C
1089 19-03-2019 18:40:00 8.2 C 67 % 2.45 C
1090 19-03-2019 18:45:00 7.6 C 70 % 2.49 C
1091 19-03-2019 18:50:00 7.1 C 72 % 2.4 C
1092 19-03-2019 18:55:00 6.8 C 73 % 2.31 C
1093 19-03-2019 19:00:00 6.5 C 73 % 2.02 C
1094 19-03-2019 19:05:00 6.2 C 74 % 1.92 C
1095 19-03-2019 19:10:00 6.1 C 75 % 2.01 C
1096 19-03-2019 19:15:00 5.9 C 76 % 2 C
1097 19-03-2019 19:20:00 5.7 C 77 % 1.99 C
1098 19-03-2019 19:25:00 5.6 C 78 % 2.07 C
1099 19-03-2019 19:30:00 5.4 C 78 % 1.88 C
1100 19-03-2019 19:35:00 5.3 C 79 % 1.96 C
Sensor: Nr:Datum:Temp:Feuchte:Taupunkt:
Aussen-T/F 1101 19-03-2019 19:40:00 5.2 C 79 % 1.86 C
1102 19-03-2019 19:45:00 5.1 C 79 % 1.77 C
1103 19-03-2019 19:50:00 5.1 C 79 % 1.77 C
1104 19-03-2019 19:55:00 5.1 C 79 % 1.77 C
1105 19-03-2019 20:00:00 5 C 79 % 1.67 C
1106 19-03-2019 20:05:00 4.8 C 79 % 1.47 C
1107 19-03-2019 20:10:00 4.8 C 80 % 1.65 C
1108 19-03-2019 20:15:00 4.7 C 80 % 1.55 C
1109 19-03-2019 20:20:00 4.6 C 81 % 1.63 C
1110 19-03-2019 20:25:00 4.4 C 81 % 1.43 C
1111 19-03-2019 20:30:00 4.3 C 82 % 1.51 C
1112 19-03-2019 20:35:00 4.2 C 82 % 1.41 C
1113 19-03-2019 20:40:00 4.2 C 83 % 1.58 C
1114 19-03-2019 20:45:00 4.1 C 84 % 1.65 C
1115 19-03-2019 20:50:00 3.9 C 83 % 1.28 C
1116 19-03-2019 20:55:00 3.8 C 84 % 1.35 C
1117 19-03-2019 21:00:00 3.7 C 85 % 1.42 C
1118 19-03-2019 21:05:00 3.6 C 85 % 1.32 C
1119 19-03-2019 21:10:00 3.6 C 85 % 1.32 C
1120 19-03-2019 21:15:00 3.4 C 85 % 1.12 C
1121 19-03-2019 21:20:00 3.3 C 85 % 1.03 C
1122 19-03-2019 21:25:00 3.3 C 85 % 1.03 C
1123 19-03-2019 21:30:00 3.1 C 85 % 0.83 C
1124 19-03-2019 21:35:00 2.9 C 85 % 0.63 C
1125 19-03-2019 21:40:00 2.8 C 85 % 0.54 C
Sensor: Nr:Datum:Temp:Feuchte:Taupunkt:
Aussen-T/F 1126 19-03-2019 21:45:00 2.6 C 84 % 0.18 C
1127 19-03-2019 21:50:00 2.5 C 85 % 0.24 C
1128 19-03-2019 21:55:00 2.4 C 86 % 0.3 C
1129 19-03-2019 22:00:00 2.4 C 86 % 0.3 C
1130 19-03-2019 22:05:00 2.3 C 86 % 0.21 C
1131 19-03-2019 22:10:00 2.2 C 86 % 0.11 C
1132 19-03-2019 22:15:00 2.1 C 86 % 0.01 C
1133 19-03-2019 22:20:00 2.1 C 87 % 0.17 C
1134 19-03-2019 22:25:00 1.9 C 87 % -0.03 C
1135 19-03-2019 22:30:00 1.8 C 87 % -0.13 C
1136 19-03-2019 22:35:00 1.9 C 87 % -0.03 C
1137 19-03-2019 22:40:00 1.9 C 88 % 0.13 C
1138 19-03-2019 22:45:00 1.9 C 88 % 0.13 C
1139 19-03-2019 22:50:00 1.9 C 88 % 0.13 C
1140 19-03-2019 22:55:00 1.9 C 88 % 0.13 C
1141 19-03-2019 23:00:00 1.8 C 88 % 0.03 C
1142 19-03-2019 23:05:00 1.8 C 88 % 0.03 C
1143 19-03-2019 23:10:00 1.7 C 88 % -0.07 C
1144 19-03-2019 23:15:00 1.7 C 88 % -0.07 C
1145 19-03-2019 23:20:00 1.8 C 88 % 0.03 C
1146 19-03-2019 23:25:00 1.9 C 88 % 0.13 C
1147 19-03-2019 23:30:00 1.8 C 87 % -0.13 C
1148 19-03-2019 23:35:00 1.7 C 87 % -0.23 C
1149 19-03-2019 23:40:00 1.7 C 87 % -0.23 C
1150 19-03-2019 23:45:00 1.6 C 88 % -0.17 C
Sensor: Nr:Datum:Temp:Feuchte:Taupunkt:
Aussen-T/F 1151 19-03-2019 23:50:00 1.4 C 88 % -0.36 C
1152 19-03-2019 23:55:00 1.3 C 88 % -0.46 C
1153 20-03-2019 00:00:00 1.2 C 88 % -0.56 C
1154 20-03-2019 00:05:00 1.2 C 89 % -0.41 C
1155 20-03-2019 00:10:00 1.2 C 89 % -0.41 C
1156 20-03-2019 00:15:00 1.1 C 89 % -0.51 C
1157 20-03-2019 00:20:00 0.9 C 88 % -0.86 C
1158 20-03-2019 00:25:00 0.8 C 89 % -0.8 C
1159 20-03-2019 00:30:00 0.7 C 89 % -0.9 C
1160 20-03-2019 00:35:00 0.6 C 89 % -1 C
1161 20-03-2019 00:40:00 0.6 C 90 % -0.85 C
1162 20-03-2019 00:45:00 0.5 C 90 % -0.95 C
1163 20-03-2019 00:50:00 0.4 C 90 % -1.04 C
1164 20-03-2019 00:55:00 0.4 C 90 % -1.04 C
1165 20-03-2019 01:00:00 0.4 C 90 % -1.04 C
1166 20-03-2019 01:05:00 0.4 C 91 % -0.89 C
1167 20-03-2019 01:10:00 0.5 C 91 % -0.79 C
1168 20-03-2019 01:15:00 0.5 C 91 % -0.79 C
1169 20-03-2019 01:20:00 0.4 C 91 % -0.89 C
1170 20-03-2019 01:25:00 0.4 C 91 % -0.89 C
1171 20-03-2019 01:30:00 0.4 C 91 % -0.89 C
1172 20-03-2019 01:35:00 0.4 C 91 % -0.89 C
1173 20-03-2019 01:40:00 0.3 C 91 % -0.99 C
1174 20-03-2019 01:45:00 0.3 C 91 % -0.99 C
1175 20-03-2019 01:50:00 0.2 C 91 % -1.09 C
Sensor: Nr:Datum:Temp:Feuchte:Taupunkt:
Aussen-T/F 1176 20-03-2019 01:55:00 0.1 C 90 % -1.34 C
1177 20-03-2019 02:00:00 -0.1 C 91 % -1.39 C
1178 20-03-2019 02:05:00 -0.1 C 91 % -1.39 C
1179 20-03-2019 02:10:00 -0.1 C 91 % -1.39 C
1180 20-03-2019 02:15:00 0 C 92 % -1.14 C
1181 20-03-2019 02:20:00 -0.1 C 91 % -1.39 C
1182 20-03-2019 02:25:00 -0.2 C 91 % -1.49 C
1183 20-03-2019 02:30:00 -0.2 C 91 % -1.49 C
1184 20-03-2019 02:35:00 -0.3 C 91 % -1.59 C
1185 20-03-2019 02:40:00 -0.3 C 92 % -1.44 C
1186 20-03-2019 02:45:00 -0.2 C 92 % -1.34 C
1187 20-03-2019 02:50:00 -0.2 C 92 % -1.34 C
1188 20-03-2019 02:55:00 -0.2 C 92 % -1.34 C
1189 20-03-2019 03:00:00 -0.3 C 92 % -1.44 C
1190 20-03-2019 03:05:00 -0.4 C 92 % -1.54 C
1191 20-03-2019 03:10:00 -0.4 C 92 % -1.54 C
1192 20-03-2019 03:15:00 -0.4 C 92 % -1.54 C
1193 20-03-2019 03:20:00 -0.4 C 92 % -1.54 C
1194 20-03-2019 03:25:00 -0.5 C 92 % -1.64 C
1195 20-03-2019 03:30:00 -0.6 C 92 % -1.74 C
1196 20-03-2019 03:35:00 -0.7 C 92 % -1.83 C
1197 20-03-2019 03:40:00 -0.7 C 92 % -1.83 C
1198 20-03-2019 03:45:00 -0.7 C 92 % -1.83 C
1199 20-03-2019 03:50:00 -0.7 C 92 % -1.83 C
1200 20-03-2019 03:55:00 -0.8 C 92 % -1.93 C
Sensor: Nr:Datum:Temp:Feuchte:Taupunkt:
Aussen-T/F 1201 20-03-2019 04:00:00 -0.8 C 92 % -1.93 C
1202 20-03-2019 04:05:00 -0.8 C 92 % -1.93 C
1203 20-03-2019 04:10:00 -0.9 C 92 % -2.03 C
1204 20-03-2019 04:15:00 -0.9 C 93 % -1.89 C
1205 20-03-2019 04:20:00 -0.9 C 93 % -1.89 C
1206 20-03-2019 04:25:00 -0.9 C 93 % -1.89 C
1207 20-03-2019 04:30:00 -1 C 93 % -1.99 C
1208 20-03-2019 04:35:00 -1 C 93 % -1.99 C
1209 20-03-2019 04:40:00 -1 C 93 % -1.99 C
1210 20-03-2019 04:45:00 -0.9 C 93 % -1.89 C
1211 20-03-2019 04:50:00 -0.9 C 93 % -1.89 C
1212 20-03-2019 04:55:00 -0.9 C 93 % -1.89 C
1213 20-03-2019 05:00:00 -0.9 C 93 % -1.89 C
1214 20-03-2019 05:05:00 -1 C 93 % -1.99 C
1215 20-03-2019 05:10:00 -1 C 93 % -1.99 C
1216 20-03-2019 05:15:00 -1.1 C 93 % -2.09 C
1217 20-03-2019 05:20:00 -1.1 C 93 % -2.09 C
1218 20-03-2019 05:25:00 -1.2 C 93 % -2.18 C
1219 20-03-2019 05:30:00 -1.2 C 93 % -2.18 C
1220 20-03-2019 05:35:00 -1.2 C 93 % -2.18 C
1221 20-03-2019 05:40:00 -1.1 C 94 % -1.94 C
1222 20-03-2019 05:45:00 -1.1 C 93 % -2.09 C
1223 20-03-2019 05:50:00 -1.2 C 93 % -2.18 C
1224 20-03-2019 05:55:00 -1.2 C 93 % -2.18 C
1225 20-03-2019 06:00:00 -1.3 C 93 % -2.28 C
Sensor: Nr:Datum:Temp:Feuchte:Taupunkt:
Aussen-T/F 1226 20-03-2019 06:05:00 -1.3 C 93 % -2.28 C
1227 20-03-2019 06:10:00 -1.3 C 93 % -2.28 C
1228 20-03-2019 06:15:00 -1.3 C 94 % -2.14 C
1229 20-03-2019 06:20:00 -1.2 C 94 % -2.04 C
1230 20-03-2019 06:25:00 -1.1 C 94 % -1.94 C
1231 20-03-2019 06:30:00 -1.1 C 94 % -1.94 C
1232 20-03-2019 06:35:00 -1.1 C 94 % -1.94 C
1233 20-03-2019 06:40:00 -1.2 C 94 % -2.04 C
1234 20-03-2019 06:45:00 -1.2 C 94 % -2.04 C
1235 20-03-2019 06:50:00 -1.3 C 94 % -2.14 C
1236 20-03-2019 06:55:00 -1.3 C 94 % -2.14 C
1237 20-03-2019 07:00:00 -1.2 C 94 % -2.04 C
1238 20-03-2019 07:05:00 -1.2 C 94 % -2.04 C
1239 20-03-2019 07:10:00 -1.2 C 94 % -2.04 C
1240 20-03-2019 07:15:00 -1.2 C 94 % -2.04 C
1241 20-03-2019 07:20:00 -1.1 C 94 % -1.94 C
1242 20-03-2019 07:25:00 -1.1 C 94 % -1.94 C
1243 20-03-2019 07:30:00 -1.1 C 94 % -1.94 C
1244 20-03-2019 07:35:00 -1 C 94 % -1.84 C
1245 20-03-2019 07:40:00 -1.1 C 94 % -1.94 C
1246 20-03-2019 07:45:00 -1 C 94 % -1.84 C
1247 20-03-2019 07:50:00 -0.9 C 94 % -1.74 C
1248 20-03-2019 07:55:00 -0.9 C 94 % -1.74 C
1249 20-03-2019 08:00:00 -0.9 C 94 % -1.74 C
1250 20-03-2019 08:05:00 -0.9 C 94 % -1.74 C
Sensor: Nr:Datum:Temp:Feuchte:Taupunkt:
Aussen-T/F 1251 20-03-2019 08:10:00 -0.9 C 94 % -1.74 C
1252 20-03-2019 08:15:00 -0.9 C 94 % -1.74 C
1253 20-03-2019 08:20:00 -0.8 C 94 % -1.64 C
1254 20-03-2019 08:25:00 -0.8 C 94 % -1.64 C
1255 20-03-2019 08:30:00 -0.7 C 95 % -1.4 C
1256 20-03-2019 08:35:00 -0.6 C 95 % -1.3 C
1257 20-03-2019 08:40:00 -0.6 C 95 % -1.3 C
1258 20-03-2019 08:45:00 -0.4 C 95 % -1.1 C
1259 20-03-2019 08:50:00 -0.3 C 95 % -1 C
1260 20-03-2019 08:55:00 -0.3 C 95 % -1 C
1261 20-03-2019 09:00:00 -0.2 C 95 % -0.9 C
1262 20-03-2019 09:05:00 -0.1 C 95 % -0.8 C
1263 20-03-2019 09:10:00 0.1 C 95 % -0.6 C
1264 20-03-2019 09:15:00 0.2 C 95 % -0.5 C
1265 20-03-2019 09:20:00 0.3 C 95 % -0.4 C
1266 20-03-2019 09:25:00 0.4 C 95 % -0.31 C
1267 20-03-2019 09:30:00 0.6 C 95 % -0.11 C
1268 20-03-2019 09:35:00 0.7 C 95 % -0.01 C
1269 20-03-2019 09:40:00 0.8 C 95 % 0.09 C
1270 20-03-2019 09:45:00 1.1 C 95 % 0.39 C
1271 20-03-2019 09:50:00 1.3 C 95 % 0.59 C
1272 20-03-2019 09:55:00 1.7 C 95 % 0.99 C
1273 20-03-2019 10:00:00 2.1 C 95 % 1.38 C
1274 20-03-2019 10:05:00 2.6 C 95 % 1.88 C
1275 20-03-2019 10:10:00 3.1 C 94 % 2.23 C
Sensor: Nr:Datum:Temp:Feuchte:Taupunkt:
Aussen-T/F 1276 20-03-2019 10:15:00 3.4 C 94 % 2.53 C
1277 20-03-2019 10:20:00 3.8 C 93 % 2.77 C
1278 20-03-2019 10:25:00 4.1 C 92 % 2.92 C
1279 20-03-2019 10:30:00 4.3 C 90 % 2.81 C
1280 20-03-2019 10:35:00 4.7 C 89 % 3.05 C
1281 20-03-2019 10:40:00 5.1 C 87 % 3.12 C
1282 20-03-2019 10:45:00 5.6 C 86 % 3.45 C
1283 20-03-2019 10:50:00 6 C 83 % 3.34 C
1284 20-03-2019 10:55:00 6.4 C 81 % 3.38 C
1285 20-03-2019 11:00:00 6.8 C 78 % 3.24 C
1286 20-03-2019 11:05:00 7.1 C 78 % 3.53 C
1287 20-03-2019 11:10:00 7.4 C 77 % 3.64 C
1288 20-03-2019 11:15:00 7.8 C 76 % 3.84 C
1289 20-03-2019 11:20:00 8.2 C 73 % 3.66 C
1290 20-03-2019 11:25:00 8.7 C 71 % 3.74 C
1291 20-03-2019 11:30:00 9.2 C 69 % 3.82 C
1292 20-03-2019 11:35:00 9.6 C 67 % 3.78 C
1293 20-03-2019 11:40:00 10 C 64 % 3.51 C
1294 20-03-2019 11:45:00 10.3 C 61 % 3.12 C
1295 20-03-2019 11:50:00 10.6 C 59 % 2.93 C
1296 20-03-2019 11:55:00 10.8 C 59 % 3.12 C
1297 20-03-2019 12:00:00 11 C 59 % 3.31 C
1298 20-03-2019 12:05:00 11.1 C 58 % 3.16 C
1299 20-03-2019 12:10:00 11.2 C 58 % 3.25 C
1300 20-03-2019 12:15:00 11.3 C 57 % 3.1 C
Sensor: Nr:Datum:Temp:Feuchte:Taupunkt:
Aussen-T/F 1301 20-03-2019 12:20:00 11.4 C 58 % 3.44 C
1302 20-03-2019 12:25:00 11.6 C 58 % 3.63 C
1303 20-03-2019 12:30:00 11.8 C 56 % 3.32 C
1304 20-03-2019 12:35:00 11.8 C 56 % 3.32 C
1305 20-03-2019 12:40:00 12 C 56 % 3.51 C
1306 20-03-2019 12:45:00 12.1 C 53 % 2.82 C
1307 20-03-2019 12:50:00 12.1 C 54 % 3.09 C
1308 20-03-2019 12:55:00 12.2 C 56 % 3.69 C
1309 20-03-2019 13:00:00 12.3 C 54 % 3.27 C
1310 20-03-2019 13:05:00 12.6 C 54 % 3.55 C
1311 20-03-2019 13:10:00 12.8 C 55 % 4 C
1312 20-03-2019 13:15:00 13 C 51 % 3.11 C
1313 20-03-2019 13:20:00 13.2 C 49 % 2.73 C
1314 20-03-2019 13:25:00 13.2 C 50 % 3.02 C
1315 20-03-2019 13:30:00 13.2 C 46 % 1.85 C
1316 20-03-2019 13:35:00 13.3 C 44 % 1.32 C
1317 20-03-2019 13:40:00 13.4 C 46 % 2.03 C
1318 20-03-2019 13:45:00 13.6 C 45 % 1.91 C
1319 20-03-2019 13:50:00 13.6 C 43 % 1.27 C
1320 20-03-2019 13:55:00 13.7 C 43 % 1.36 C
1321 20-03-2019 14:00:00 13.8 C 43 % 1.45 C
1322 20-03-2019 14:05:00 13.8 C 47 % 2.7 C
1323 20-03-2019 14:10:00 13.8 C 48 % 2.99 C
1324 20-03-2019 14:15:00 13.8 C 45 % 2.09 C
1325 20-03-2019 14:20:00 13.8 C 47 % 2.7 C
Sensor: Nr:Datum:Temp:Feuchte:Taupunkt:
Aussen-T/F 1326 20-03-2019 14:25:00 13.8 C 47 % 2.7 C
1327 20-03-2019 14:30:00 13.8 C 46 % 2.4 C
1328 20-03-2019 14:35:00 13.8 C 47 % 2.7 C
1329 20-03-2019 14:40:00 13.8 C 46 % 2.4 C
1330 20-03-2019 14:45:00 13.7 C 48 % 2.9 C
1331 20-03-2019 14:50:00 13.6 C 46 % 2.21 C
1332 20-03-2019 14:55:00 13.6 C 47 % 2.51 C
1333 20-03-2019 15:00:00 13.5 C 48 % 2.72 C
1334 20-03-2019 15:05:00 13.6 C 47 % 2.51 C
1335 20-03-2019 15:10:00 13.6 C 48 % 2.81 C
1336 20-03-2019 15:15:00 13.6 C 48 % 2.81 C
1337 20-03-2019 15:20:00 13.6 C 47 % 2.51 C
1338 20-03-2019 15:25:00 13.6 C 47 % 2.51 C
1339 20-03-2019 15:30:00 13.6 C 48 % 2.81 C
1340 20-03-2019 15:35:00 13.6 C 47 % 2.51 C
1341 20-03-2019 15:40:00 13.7 C 48 % 2.9 C
1342 20-03-2019 15:45:00 13.7 C 49 % 3.19 C
1343 20-03-2019 15:50:00 13.8 C 47 % 2.7 C
1344 20-03-2019 15:55:00 13.8 C 47 % 2.7 C
1345 20-03-2019 16:00:00 13.8 C 48 % 2.99 C
1346 20-03-2019 16:05:00 13.8 C 47 % 2.7 C
1347 20-03-2019 16:10:00 13.9 C 48 % 3.08 C
1348 20-03-2019 16:15:00 14 C 49 % 3.47 C
1349 20-03-2019 16:20:00 14 C 48 % 3.18 C
1350 20-03-2019 16:25:00 14.1 C 49 % 3.56 C
Sensor: Nr:Datum:Temp:Feuchte:Taupunkt:
Aussen-T/F 1351 20-03-2019 16:30:00 14.1 C 49 % 3.56 C
1352 20-03-2019 16:35:00 14.3 C 49 % 3.74 C
1353 20-03-2019 16:40:00 14.4 C 48 % 3.54 C
1354 20-03-2019 16:45:00 14.4 C 48 % 3.54 C
1355 20-03-2019 16:50:00 14.3 C 47 % 3.15 C
1356 20-03-2019 16:55:00 14.3 C 49 % 3.74 C
1357 20-03-2019 17:00:00 14.6 C 49 % 4.02 C
1358 20-03-2019 17:05:00 14.9 C 49 % 4.29 C
1359 20-03-2019 17:10:00 15 C 46 % 3.49 C
1360 20-03-2019 17:15:00 14.9 C 46 % 3.4 C
1361 20-03-2019 17:20:00 14.8 C 46 % 3.31 C
1362 20-03-2019 17:25:00 14.7 C 47 % 3.52 C
1363 20-03-2019 17:30:00 14.7 C 47 % 3.52 C
1364 20-03-2019 17:35:00 14.8 C 48 % 3.91 C
1365 20-03-2019 17:40:00 14.8 C 54 % 5.59 C
1366 20-03-2019 17:45:00 14.9 C 53 % 5.42 C
1367 20-03-2019 17:50:00 15 C 54 % 5.78 C
1368 20-03-2019 17:55:00 14.9 C 55 % 5.95 C
1369 20-03-2019 18:00:00 14.7 C 56 % 6.02 C
1370 20-03-2019 18:05:00 14.4 C 57 % 6 C
1371 20-03-2019 18:10:00 13.7 C 58 % 5.6 C
1372 20-03-2019 18:15:00 13.1 C 59 % 5.28 C
1373 20-03-2019 18:20:00 12.6 C 61 % 5.29 C
1374 20-03-2019 18:25:00 12.1 C 64 % 5.51 C
1375 20-03-2019 18:30:00 11.5 C 65 % 5.16 C
Sensor: Nr:Datum:Temp:Feuchte:Taupunkt:
Aussen-T/F 1376 20-03-2019 18:35:00 10.9 C 66 % 4.81 C
1377 20-03-2019 18:40:00 10.4 C 67 % 4.55 C
1378 20-03-2019 18:45:00 10.1 C 68 % 4.47 C
1379 20-03-2019 18:50:00 9.7 C 69 % 4.3 C
1380 20-03-2019 18:55:00 9.4 C 70 % 4.21 C
1381 20-03-2019 19:00:00 9.3 C 71 % 4.32 C
1382 20-03-2019 19:05:00 9.1 C 71 % 4.13 C
1383 20-03-2019 19:10:00 9 C 72 % 4.23 C
1384 20-03-2019 19:15:00 8.8 C 72 % 4.04 C
1385 20-03-2019 19:20:00 8.6 C 73 % 4.04 C
1386 20-03-2019 19:25:00 8.5 C 73 % 3.95 C
1387 20-03-2019 19:30:00 8.4 C 73 % 3.85 C
1388 20-03-2019 19:35:00 8.3 C 74 % 3.95 C
1389 20-03-2019 19:40:00 8.2 C 75 % 4.04 C
1390 20-03-2019 19:45:00 8.1 C 75 % 3.94 C
1391 20-03-2019 19:50:00 7.9 C 75 % 3.75 C
1392 20-03-2019 19:55:00 7.8 C 76 % 3.84 C
1393 20-03-2019 20:00:00 7.7 C 77 % 3.93 C
1394 20-03-2019 20:05:00 7.5 C 78 % 3.92 C
1395 20-03-2019 20:10:00 7.3 C 78 % 3.73 C
1396 20-03-2019 20:15:00 7.2 C 78 % 3.63 C
1397 20-03-2019 20:20:00 7.1 C 78 % 3.53 C
1398 20-03-2019 20:25:00 7 C 79 % 3.61 C
1399 20-03-2019 20:30:00 6.8 C 79 % 3.42 C
1400 20-03-2019 20:35:00 6.6 C 79 % 3.23 C
Sensor: Nr:Datum:Temp:Feuchte:Taupunkt:
Aussen-T/F 1401 20-03-2019 20:40:00 6.4 C 80 % 3.21 C
1402 20-03-2019 20:45:00 6.3 C 81 % 3.29 C
1403 20-03-2019 20:50:00 6.2 C 82 % 3.36 C
1404 20-03-2019 20:55:00 6.1 C 82 % 3.26 C
1405 20-03-2019 21:00:00 6 C 82 % 3.17 C
1406 20-03-2019 21:05:00 5.8 C 83 % 3.14 C
1407 20-03-2019 21:10:00 5.7 C 84 % 3.21 C
1408 20-03-2019 21:15:00 5.5 C 83 % 2.85 C
1409 20-03-2019 21:20:00 5.4 C 83 % 2.75 C
1410 20-03-2019 21:25:00 5.4 C 83 % 2.75 C
1411 20-03-2019 21:30:00 5.4 C 83 % 2.75 C
1412 20-03-2019 21:35:00 5.3 C 83 % 2.65 C
1413 20-03-2019 21:40:00 5.3 C 84 % 2.82 C
1414 20-03-2019 21:45:00 5.2 C 85 % 2.89 C
1415 20-03-2019 21:50:00 5.1 C 85 % 2.79 C
1416 20-03-2019 21:55:00 5.1 C 86 % 2.96 C
1417 20-03-2019 22:00:00 5 C 85 % 2.69 C
1418 20-03-2019 22:05:00 4.9 C 85 % 2.6 C
1419 20-03-2019 22:10:00 4.8 C 85 % 2.5 C
1420 20-03-2019 22:15:00 4.8 C 85 % 2.5 C
1421 20-03-2019 22:20:00 4.8 C 86 % 2.66 C
1422 20-03-2019 22:25:00 4.8 C 86 % 2.66 C
1423 20-03-2019 22:30:00 4.8 C 86 % 2.66 C
1424 20-03-2019 22:35:00 4.7 C 85 % 2.4 C
1425 20-03-2019 22:40:00 4.6 C 86 % 2.47 C
Sensor: Nr:Datum:Temp:Feuchte:Taupunkt:
Aussen-T/F 1426 20-03-2019 22:45:00 4.6 C 86 % 2.47 C
1427 20-03-2019 22:50:00 4.6 C 86 % 2.47 C
1428 20-03-2019 22:55:00 4.3 C 85 % 2.01 C
1429 20-03-2019 23:00:00 4.2 C 86 % 2.07 C
1430 20-03-2019 23:05:00 4.1 C 86 % 1.97 C
1431 20-03-2019 23:10:00 3.9 C 87 % 1.94 C
1432 20-03-2019 23:15:00 3.9 C 87 % 1.94 C
1433 20-03-2019 23:20:00 3.8 C 87 % 1.84 C
1434 20-03-2019 23:25:00 3.8 C 88 % 2 C
1435 20-03-2019 23:30:00 3.8 C 88 % 2 C
1436 20-03-2019 23:35:00 3.8 C 88 % 2 C
1437 20-03-2019 23:40:00 3.7 C 88 % 1.9 C
1438 20-03-2019 23:45:00 3.7 C 88 % 1.9 C
1439 20-03-2019 23:50:00 3.6 C 88 % 1.8 C
1440 20-03-2019 23:55:00 3.5 C 88 % 1.7 C
1441 21-03-2019 00:00:00 3.4 C 88 % 1.61 C
1442 21-03-2019 00:05:00 3.5 C 89 % 1.86 C
1443 21-03-2019 00:10:00 3.5 C 89 % 1.86 C
1444 21-03-2019 00:15:00 3.4 C 88 % 1.61 C
1445 21-03-2019 00:20:00 3.3 C 88 % 1.51 C
1446 21-03-2019 00:25:00 3.3 C 88 % 1.51 C
1447 21-03-2019 00:30:00 3.3 C 89 % 1.67 C
1448 21-03-2019 00:35:00 3.3 C 89 % 1.67 C
1449 21-03-2019 00:40:00 3.2 C 89 % 1.57 C
1450 21-03-2019 00:45:00 3.2 C 89 % 1.57 C
Sensor: Nr:Datum:Temp:Feuchte:Taupunkt:
Aussen-T/F 1451 21-03-2019 00:50:00 3.2 C 89 % 1.57 C
1452 21-03-2019 00:55:00 3.2 C 89 % 1.57 C
1453 21-03-2019 01:00:00 3.1 C 88 % 1.31 C
1454 21-03-2019 01:05:00 2.9 C 88 % 1.11 C
1455 21-03-2019 01:10:00 2.8 C 89 % 1.17 C
1456 21-03-2019 01:15:00 2.7 C 88 % 0.92 C
1457 21-03-2019 01:20:00 2.6 C 89 % 0.97 C
1458 21-03-2019 01:25:00 2.6 C 89 % 0.97 C
1459 21-03-2019 01:30:00 2.4 C 89 % 0.78 C
1460 21-03-2019 01:35:00 2.4 C 90 % 0.93 C
1461 21-03-2019 01:40:00 2.3 C 89 % 0.68 C
1462 21-03-2019 01:45:00 2.3 C 90 % 0.83 C
1463 21-03-2019 01:50:00 2.3 C 90 % 0.83 C
1464 21-03-2019 01:55:00 2.2 C 90 % 0.73 C
1465 21-03-2019 02:00:00 2 C 90 % 0.54 C
1466 21-03-2019 02:05:00 1.9 C 90 % 0.44 C
1467 21-03-2019 02:10:00 1.8 C 90 % 0.34 C
1468 21-03-2019 02:15:00 1.8 C 91 % 0.49 C
1469 21-03-2019 02:20:00 1.8 C 91 % 0.49 C
1470 21-03-2019 02:25:00 1.8 C 91 % 0.49 C
1471 21-03-2019 02:30:00 1.8 C 91 % 0.49 C
1472 21-03-2019 02:35:00 1.9 C 92 % 0.74 C
1473 21-03-2019 02:40:00 1.9 C 92 % 0.74 C
1474 21-03-2019 02:45:00 1.8 C 91 % 0.49 C
1475 21-03-2019 02:50:00 1.7 C 91 % 0.39 C
Sensor: Nr:Datum:Temp:Feuchte:Taupunkt:
Aussen-T/F 1476 21-03-2019 02:55:00 1.6 C 91 % 0.29 C
1477 21-03-2019 03:00:00 1.6 C 91 % 0.29 C
1478 21-03-2019 03:05:00 1.5 C 91 % 0.19 C
1479 21-03-2019 03:10:00 1.5 C 92 % 0.35 C
1480 21-03-2019 03:15:00 1.4 C 92 % 0.25 C
1481 21-03-2019 03:20:00 1.4 C 92 % 0.25 C
1482 21-03-2019 03:25:00 1.3 C 92 % 0.15 C
1483 21-03-2019 03:30:00 1.2 C 92 % 0.05 C
1484 21-03-2019 03:35:00 1.2 C 92 % 0.05 C
1485 21-03-2019 03:40:00 1.2 C 92 % 0.05 C
1486 21-03-2019 03:45:00 1.2 C 92 % 0.05 C
1487 21-03-2019 03:50:00 1.1 C 92 % -0.05 C
1488 21-03-2019 03:55:00 1.1 C 92 % -0.05 C
1489 21-03-2019 04:00:00 1.1 C 93 % 0.1 C
1490 21-03-2019 04:05:00 1 C 93 % 0 C
1491 21-03-2019 04:10:00 0.9 C 92 % -0.25 C
1492 21-03-2019 04:15:00 0.9 C 93 % -0.1 C
1493 21-03-2019 04:20:00 0.9 C 93 % -0.1 C
1494 21-03-2019 04:25:00 1 C 93 % 0 C
1495 21-03-2019 04:30:00 1.1 C 93 % 0.1 C
1496 21-03-2019 04:35:00 1.2 C 93 % 0.2 C
1497 21-03-2019 04:40:00 1.2 C 93 % 0.2 C
1498 21-03-2019 04:45:00 1.1 C 93 % 0.1 C
1499 21-03-2019 04:50:00 0.8 C 92 % -0.35 C
1500 21-03-2019 04:55:00 0.7 C 93 % -0.3 C
Sensor: Nr:Datum:Temp:Feuchte:Taupunkt:
Aussen-T/F 1501 21-03-2019 05:00:00 0.7 C 93 % -0.3 C
1502 21-03-2019 05:05:00 0.7 C 93 % -0.3 C
1503 21-03-2019 05:10:00 0.6 C 93 % -0.4 C
1504 21-03-2019 05:15:00 0.6 C 93 % -0.4 C
1505 21-03-2019 05:20:00 0.7 C 94 % -0.15 C
1506 21-03-2019 05:25:00 0.7 C 94 % -0.15 C
1507 21-03-2019 05:30:00 0.8 C 94 % -0.05 C
1508 21-03-2019 05:35:00 0.7 C 94 % -0.15 C
1509 21-03-2019 05:40:00 0.6 C 93 % -0.4 C
1510 21-03-2019 05:45:00 0.5 C 93 % -0.5 C
1511 21-03-2019 05:50:00 0.4 C 93 % -0.6 C
1512 21-03-2019 05:55:00 0.4 C 93 % -0.6 C
1513 21-03-2019 06:00:00 0.3 C 93 % -0.7 C
1514 21-03-2019 06:05:00 0.3 C 94 % -0.55 C
1515 21-03-2019 06:10:00 0.3 C 94 % -0.55 C
1516 21-03-2019 06:15:00 0.5 C 94 % -0.35 C
1517 21-03-2019 06:20:00 0.5 C 94 % -0.35 C
1518 21-03-2019 06:25:00 0.4 C 94 % -0.45 C
1519 21-03-2019 06:30:00 0.4 C 94 % -0.45 C
1520 21-03-2019 06:35:00 0.3 C 94 % -0.55 C
1521 21-03-2019 06:40:00 0.3 C 94 % -0.55 C
1522 21-03-2019 06:45:00 0.2 C 94 % -0.65 C
1523 21-03-2019 06:50:00 0.2 C 94 % -0.65 C
1524 21-03-2019 06:55:00 0.3 C 94 % -0.55 C
1525 21-03-2019 07:00:00 0.3 C 94 % -0.55 C
Sensor: Nr:Datum:Temp:Feuchte:Taupunkt:
Aussen-T/F 1526 21-03-2019 07:05:00 0.3 C 94 % -0.55 C
1527 21-03-2019 07:10:00 0.3 C 94 % -0.55 C
1528 21-03-2019 07:15:00 0.3 C 94 % -0.55 C
1529 21-03-2019 07:20:00 0.4 C 94 % -0.45 C
1530 21-03-2019 07:25:00 0.7 C 95 % -0.01 C
1531 21-03-2019 07:30:00 0.8 C 95 % 0.09 C
1532 21-03-2019 07:35:00 0.8 C 95 % 0.09 C
1533 21-03-2019 07:40:00 0.8 C 95 % 0.09 C
1534 21-03-2019 07:45:00 0.8 C 94 % -0.05 C
1535 21-03-2019 07:50:00 0.8 C 94 % -0.05 C
1536 21-03-2019 07:55:00 0.9 C 94 % 0.05 C
1537 21-03-2019 08:00:00 0.9 C 94 % 0.05 C
1538 21-03-2019 08:05:00 0.9 C 95 % 0.19 C
1539 21-03-2019 08:10:00 1 C 95 % 0.29 C
1540 21-03-2019 08:15:00 1.1 C 95 % 0.39 C
1541 21-03-2019 08:20:00 1.1 C 95 % 0.39 C
1542 21-03-2019 08:25:00 1.2 C 95 % 0.49 C
1543 21-03-2019 08:30:00 1.3 C 95 % 0.59 C
1544 21-03-2019 08:35:00 1.3 C 95 % 0.59 C
1545 21-03-2019 08:40:00 1.4 C 95 % 0.69 C
1546 21-03-2019 08:45:00 1.4 C 95 % 0.69 C
1547 21-03-2019 08:50:00 1.6 C 95 % 0.89 C
1548 21-03-2019 08:55:00 1.7 C 95 % 0.99 C
1549 21-03-2019 09:00:00 1.8 C 95 % 1.09 C
1550 21-03-2019 09:05:00 1.8 C 95 % 1.09 C
Sensor: Nr:Datum:Temp:Feuchte:Taupunkt:
Aussen-T/F 1551 21-03-2019 09:10:00 1.9 C 95 % 1.19 C
1552 21-03-2019 09:15:00 2.1 C 95 % 1.38 C
1553 21-03-2019 09:20:00 2.2 C 95 % 1.48 C
1554 21-03-2019 09:25:00 2.3 C 95 % 1.58 C
1555 21-03-2019 09:30:00 2.5 C 95 % 1.78 C
1556 21-03-2019 09:35:00 2.6 C 95 % 1.88 C
1557 21-03-2019 09:40:00 2.8 C 95 % 2.08 C
1558 21-03-2019 09:45:00 3.1 C 95 % 2.38 C
1559 21-03-2019 09:50:00 3.3 C 95 % 2.58 C
1560 21-03-2019 09:55:00 3.7 C 95 % 2.98 C
1561 21-03-2019 10:00:00 4 C 95 % 3.27 C
1562 21-03-2019 10:05:00 4.3 C 95 % 3.57 C
1563 21-03-2019 10:10:00 4.6 C 94 % 3.72 C
1564 21-03-2019 10:15:00 4.8 C 93 % 3.77 C
1565 21-03-2019 10:20:00 5.1 C 92 % 3.91 C
1566 21-03-2019 10:25:00 5.4 C 91 % 4.05 C
1567 21-03-2019 10:30:00 5.7 C 90 % 4.19 C
1568 21-03-2019 10:35:00 5.9 C 89 % 4.23 C
1569 21-03-2019 10:40:00 6.2 C 88 % 4.36 C
1570 21-03-2019 10:45:00 6.5 C 87 % 4.5 C
1571 21-03-2019 10:50:00 6.8 C 86 % 4.63 C
1572 21-03-2019 10:55:00 7.2 C 85 % 4.85 C
1573 21-03-2019 11:00:00 7.4 C 85 % 5.05 C
1574 21-03-2019 11:05:00 7.7 C 84 % 5.17 C
1575 21-03-2019 11:10:00 8.1 C 82 % 5.22 C
Sensor: Nr:Datum:Temp:Feuchte:Taupunkt:
Aussen-T/F 1576 21-03-2019 11:15:00 8.5 C 82 % 5.61 C
1577 21-03-2019 11:20:00 8.8 C 79 % 5.36 C
1578 21-03-2019 11:25:00 9.2 C 80 % 5.94 C
1579 21-03-2019 11:30:00 9.4 C 75 % 5.2 C
1580 21-03-2019 11:35:00 9.7 C 74 % 5.3 C
1581 21-03-2019 11:40:00 10.1 C 70 % 4.89 C
1582 21-03-2019 11:45:00 10.4 C 69 % 4.97 C
1583 21-03-2019 11:50:00 10.8 C 65 % 4.49 C
1584 21-03-2019 11:55:00 11.2 C 62 % 4.2 C
1585 21-03-2019 12:00:00 11.6 C 61 % 4.35 C
1586 21-03-2019 12:05:00 11.9 C 60 % 4.39 C
1587 21-03-2019 12:10:00 12.1 C 57 % 3.85 C
1588 21-03-2019 12:15:00 12.4 C 57 % 4.13 C
1589 21-03-2019 12:20:00 12.7 C 56 % 4.16 C
1590 21-03-2019 12:25:00 13 C 56 % 4.44 C
1591 21-03-2019 12:30:00 13.2 C 54 % 4.11 C
1592 21-03-2019 12:35:00 13.4 C 56 % 4.81 C
1593 21-03-2019 12:40:00 13.6 C 48 % 2.81 C
1594 21-03-2019 12:45:00 13.8 C 50 % 3.57 C
1595 21-03-2019 12:50:00 14 C 46 % 2.58 C
1596 21-03-2019 12:55:00 14.2 C 46 % 2.76 C
1597 21-03-2019 13:00:00 14.4 C 47 % 3.25 C
1598 21-03-2019 13:05:00 14.8 C 44 % 2.68 C
1599 21-03-2019 13:10:00 15.1 C 45 % 3.27 C
1600 21-03-2019 13:15:00 15.2 C 44 % 3.04 C
Sensor: Nr:Datum:Temp:Feuchte:Taupunkt:
Aussen-T/F 1601 21-03-2019 13:20:00 15.3 C 46 % 3.76 C
1602 21-03-2019 13:25:00 15.4 C 43 % 2.9 C
1603 21-03-2019 13:30:00 15.4 C 43 % 2.9 C
1604 21-03-2019 13:35:00 15.6 C 43 % 3.08 C
1605 21-03-2019 13:40:00 15.8 C 41 % 2.59 C
1606 21-03-2019 13:45:00 15.9 C 43 % 3.35 C
1607 21-03-2019 13:50:00 16.1 C 42 % 3.2 C
1608 21-03-2019 13:55:00 16.2 C 41 % 2.95 C
1609 21-03-2019 14:00:00 16.2 C 39 % 2.25 C
1610 21-03-2019 14:05:00 16.3 C 39 % 2.34 C
1611 21-03-2019 14:10:00 16.3 C 39 % 2.34 C
1612 21-03-2019 14:15:00 16.3 C 41 % 3.04 C
1613 21-03-2019 14:20:00 16.3 C 40 % 2.69 C
1614 21-03-2019 14:25:00 16.3 C 38 % 1.97 C
1615 21-03-2019 14:30:00 16.2 C 39 % 2.25 C
1616 21-03-2019 14:35:00 16.3 C 39 % 2.34 C
1617 21-03-2019 14:40:00 16.2 C 39 % 2.25 C
1618 21-03-2019 14:45:00 16.2 C 39 % 2.25 C
1619 21-03-2019 14:50:00 16.1 C 41 % 2.86 C
1620 21-03-2019 14:55:00 16.1 C 40 % 2.51 C
1621 21-03-2019 15:00:00 16.1 C 39 % 2.16 C
1622 21-03-2019 15:05:00 16.2 C 39 % 2.25 C
1623 21-03-2019 15:10:00 16.3 C 40 % 2.69 C
1624 21-03-2019 15:15:00 16.3 C 39 % 2.34 C
1625 21-03-2019 15:20:00 16.3 C 40 % 2.69 C
Sensor: Nr:Datum:Temp:Feuchte:Taupunkt:
Aussen-T/F 1626 21-03-2019 15:25:00 16.3 C 39 % 2.34 C
1627 21-03-2019 15:30:00 16.4 C 39 % 2.43 C
1628 21-03-2019 15:35:00 16.6 C 39 % 2.6 C
1629 21-03-2019 15:40:00 16.6 C 39 % 2.6 C
1630 21-03-2019 15:45:00 16.6 C 38 % 2.24 C
1631 21-03-2019 15:50:00 16.7 C 38 % 2.33 C
1632 21-03-2019 15:55:00 16.8 C 39 % 2.78 C
1633 21-03-2019 16:00:00 16.9 C 38 % 2.51 C
1634 21-03-2019 16:05:00 17.2 C 39 % 3.14 C
1635 21-03-2019 16:10:00 17.3 C 38 % 2.86 C
1636 21-03-2019 16:15:00 17.3 C 39 % 3.23 C
1637 21-03-2019 16:20:00 17.4 C 38 % 2.95 C
1638 21-03-2019 16:25:00 17.6 C 38 % 3.13 C
1639 21-03-2019 16:30:00 17.7 C 37 % 2.84 C
1640 21-03-2019 16:35:00 17.8 C 37 % 2.93 C
1641 21-03-2019 16:40:00 17.9 C 37 % 3.02 C
1642 21-03-2019 16:45:00 18.1 C 38 % 3.57 C
1643 21-03-2019 16:50:00 18.1 C 37 % 3.2 C
1644 21-03-2019 16:55:00 18.2 C 37 % 3.29 C
1645 21-03-2019 17:00:00 18.2 C 36 % 2.9 C
1646 21-03-2019 17:05:00 18.2 C 36 % 2.9 C
1647 21-03-2019 17:10:00 18.2 C 36 % 2.9 C
1648 21-03-2019 17:15:00 18.3 C 35 % 2.59 C
1649 21-03-2019 17:20:00 18.2 C 37 % 3.29 C
1650 21-03-2019 17:25:00 18.1 C 36 % 2.81 C
Sensor: Nr:Datum:Temp:Feuchte:Taupunkt:
Aussen-T/F 1651 21-03-2019 17:30:00 18 C 37 % 3.11 C
1652 21-03-2019 17:35:00 17.9 C 37 % 3.02 C
1653 21-03-2019 17:40:00 17.9 C 38 % 3.4 C
1654 21-03-2019 17:45:00 17.8 C 42 % 4.73 C
1655 21-03-2019 17:50:00 17.8 C 44 % 5.4 C
1656 21-03-2019 17:55:00 17.6 C 42 % 4.55 C
1657 21-03-2019 18:00:00 17.4 C 46 % 5.67 C
1658 21-03-2019 18:05:00 17.1 C 47 % 5.71 C
1659 21-03-2019 18:10:00 16.6 C 48 % 5.56 C
1660 21-03-2019 18:15:00 16 C 50 % 5.59 C
1661 21-03-2019 18:20:00 15.3 C 51 % 5.23 C
1662 21-03-2019 18:25:00 14.8 C 52 % 5.05 C
1663 21-03-2019 18:30:00 14.2 C 54 % 5.04 C
1664 21-03-2019 18:35:00 13.7 C 55 % 4.83 C
1665 21-03-2019 18:40:00 13.3 C 56 % 4.72 C
1666 21-03-2019 18:45:00 12.9 C 57 % 4.6 C
1667 21-03-2019 18:50:00 12.6 C 57 % 4.32 C
1668 21-03-2019 18:55:00 12.3 C 59 % 4.53 C
1669 21-03-2019 19:00:00 12.1 C 59 % 4.34 C
1670 21-03-2019 19:05:00 11.9 C 60 % 4.39 C
1671 21-03-2019 19:10:00 11.7 C 61 % 4.44 C
1672 21-03-2019 19:15:00 11.4 C 62 % 4.39 C
1673 21-03-2019 19:20:00 11.2 C 63 % 4.43 C
1674 21-03-2019 19:25:00 10.9 C 64 % 4.37 C
1675 21-03-2019 19:30:00 10.8 C 66 % 4.71 C
Sensor: Nr:Datum:Temp:Feuchte:Taupunkt:
Aussen-T/F 1676 21-03-2019 19:35:00 10.6 C 66 % 4.52 C
1677 21-03-2019 19:40:00 10.4 C 66 % 4.33 C
1678 21-03-2019 19:45:00 10.3 C 67 % 4.45 C
1679 21-03-2019 19:50:00 10.2 C 68 % 4.57 C
1680 21-03-2019 19:55:00 10.1 C 69 % 4.68 C
1681 21-03-2019 20:00:00 9.8 C 69 % 4.39 C
1682 21-03-2019 20:05:00 9.7 C 70 % 4.5 C
1683 21-03-2019 20:10:00 9.6 C 70 % 4.41 C
1684 21-03-2019 20:15:00 9.4 C 72 % 4.62 C
1685 21-03-2019 20:20:00 9.3 C 72 % 4.52 C
1686 21-03-2019 20:25:00 9.2 C 72 % 4.42 C
1687 21-03-2019 20:30:00 9.2 C 72 % 4.42 C
1688 21-03-2019 20:35:00 9.1 C 72 % 4.33 C
1689 21-03-2019 20:40:00 9 C 73 % 4.43 C
1690 21-03-2019 20:45:00 8.8 C 72 % 4.04 C
1691 21-03-2019 20:50:00 8.8 C 73 % 4.24 C
1692 21-03-2019 20:55:00 8.6 C 74 % 4.24 C
1693 21-03-2019 21:00:00 8.4 C 74 % 4.04 C
1694 21-03-2019 21:05:00 8.3 C 74 % 3.95 C
1695 21-03-2019 21:10:00 8.2 C 74 % 3.85 C
1696 21-03-2019 21:15:00 8.1 C 74 % 3.75 C
1697 21-03-2019 21:20:00 7.8 C 73 % 3.27 C
1698 21-03-2019 21:25:00 7.7 C 74 % 3.37 C
1699 21-03-2019 21:30:00 7.6 C 73 % 3.08 C
1700 21-03-2019 21:35:00 7.6 C 73 % 3.08 C
Sensor: Nr:Datum:Temp:Feuchte:Taupunkt:
Aussen-T/F 1701 21-03-2019 21:40:00 7.3 C 75 % 3.17 C
1702 21-03-2019 21:45:00 7.2 C 77 % 3.45 C
1703 21-03-2019 21:50:00 6.9 C 78 % 3.34 C
1704 21-03-2019 21:55:00 6.7 C 79 % 3.32 C
1705 21-03-2019 22:00:00 6.5 C 78 % 2.95 C
1706 21-03-2019 22:05:00 6.5 C 78 % 2.95 C
1707 21-03-2019 22:10:00 6.6 C 78 % 3.05 C
1708 21-03-2019 22:15:00 6.6 C 76 % 2.68 C
1709 21-03-2019 22:20:00 6.6 C 76 % 2.68 C
1710 21-03-2019 22:25:00 6.4 C 77 % 2.67 C
1711 21-03-2019 22:30:00 6.1 C 78 % 2.56 C
1712 21-03-2019 22:35:00 5.8 C 79 % 2.45 C
1713 21-03-2019 22:40:00 5.7 C 81 % 2.7 C
1714 21-03-2019 22:45:00 5.7 C 81 % 2.7 C
1715 21-03-2019 22:50:00 5.7 C 81 % 2.7 C
1716 21-03-2019 22:55:00 5.7 C 81 % 2.7 C
1717 21-03-2019 23:00:00 5.6 C 81 % 2.6 C
1718 21-03-2019 23:05:00 5.6 C 81 % 2.6 C
1719 21-03-2019 23:10:00 5.6 C 81 % 2.6 C
1720 21-03-2019 23:15:00 5.4 C 81 % 2.41 C
1721 21-03-2019 23:20:00 5.4 C 81 % 2.41 C
1722 21-03-2019 23:25:00 5.3 C 82 % 2.48 C
1723 21-03-2019 23:30:00 5.2 C 82 % 2.39 C
1724 21-03-2019 23:35:00 5.1 C 83 % 2.46 C
1725 21-03-2019 23:40:00 5.1 C 83 % 2.46 C
Sensor: Nr:Datum:Temp:Feuchte:Taupunkt:
Aussen-T/F 1726 21-03-2019 23:45:00 5 C 83 % 2.36 C
1727 21-03-2019 23:50:00 5 C 83 % 2.36 C
1728 21-03-2019 23:55:00 4.9 C 83 % 2.26 C
1729 22-03-2019 00:00:00 4.8 C 83 % 2.16 C
1730 22-03-2019 00:05:00 4.7 C 84 % 2.23 C
1731 22-03-2019 00:10:00 4.7 C 84 % 2.23 C
1732 22-03-2019 00:15:00 4.7 C 84 % 2.23 C
1733 22-03-2019 00:20:00 4.6 C 84 % 2.14 C
1734 22-03-2019 00:25:00 4.4 C 85 % 2.11 C
1735 22-03-2019 00:30:00 4.3 C 85 % 2.01 C
1736 22-03-2019 00:35:00 4.3 C 85 % 2.01 C
1737 22-03-2019 00:40:00 4.2 C 85 % 1.91 C
1738 22-03-2019 00:45:00 4.1 C 86 % 1.97 C
1739 22-03-2019 00:50:00 4.2 C 86 % 2.07 C
1740 22-03-2019 00:55:00 4.1 C 86 % 1.97 C
1741 22-03-2019 01:00:00 4 C 86 % 1.88 C
1742 22-03-2019 01:05:00 4 C 86 % 1.88 C
1743 22-03-2019 01:10:00 3.9 C 86 % 1.78 C
1744 22-03-2019 01:15:00 3.8 C 86 % 1.68 C
1745 22-03-2019 01:20:00 3.7 C 87 % 1.74 C
1746 22-03-2019 01:25:00 3.6 C 88 % 1.8 C
1747 22-03-2019 01:30:00 3.7 C 88 % 1.9 C
1748 22-03-2019 01:35:00 3.6 C 88 % 1.8 C
1749 22-03-2019 01:40:00 3.6 C 88 % 1.8 C
1750 22-03-2019 01:45:00 3.6 C 88 % 1.8 C
Sensor: Nr:Datum:Temp:Feuchte:Taupunkt:
Aussen-T/F 1751 22-03-2019 01:50:00 3.4 C 88 % 1.61 C
1752 22-03-2019 01:55:00 3.4 C 88 % 1.61 C
1753 22-03-2019 02:00:00 3.4 C 88 % 1.61 C
1754 22-03-2019 02:05:00 3.4 C 88 % 1.61 C
1755 22-03-2019 02:10:00 3.3 C 88 % 1.51 C
1756 22-03-2019 02:15:00 3.2 C 88 % 1.41 C
1757 22-03-2019 02:20:00 3.2 C 88 % 1.41 C
1758 22-03-2019 02:25:00 3.1 C 88 % 1.31 C
1759 22-03-2019 02:30:00 3 C 88 % 1.21 C
1760 22-03-2019 02:35:00 2.9 C 88 % 1.11 C
1761 22-03-2019 02:40:00 2.8 C 89 % 1.17 C
1762 22-03-2019 02:45:00 2.7 C 89 % 1.07 C
1763 22-03-2019 02:50:00 2.7 C 89 % 1.07 C
1764 22-03-2019 02:55:00 2.7 C 90 % 1.23 C
1765 22-03-2019 03:00:00 2.7 C 90 % 1.23 C
1766 22-03-2019 03:05:00 2.6 C 89 % 0.97 C
1767 22-03-2019 03:10:00 2.4 C 89 % 0.78 C
1768 22-03-2019 03:15:00 2.3 C 89 % 0.68 C
1769 22-03-2019 03:20:00 2.2 C 90 % 0.73 C
1770 22-03-2019 03:25:00 2.2 C 91 % 0.89 C
1771 22-03-2019 03:30:00 2.3 C 91 % 0.99 C
1772 22-03-2019 03:35:00 2.2 C 90 % 0.73 C
1773 22-03-2019 03:40:00 2.1 C 90 % 0.64 C
1774 22-03-2019 03:45:00 1.9 C 90 % 0.44 C
1775 22-03-2019 03:50:00 1.8 C 91 % 0.49 C
Sensor: Nr:Datum:Temp:Feuchte:Taupunkt:
Aussen-T/F 1776 22-03-2019 03:55:00 1.8 C 91 % 0.49 C
1777 22-03-2019 04:00:00 1.9 C 92 % 0.74 C
1778 22-03-2019 04:05:00 1.9 C 91 % 0.59 C
1779 22-03-2019 04:10:00 1.9 C 92 % 0.74 C
1780 22-03-2019 04:15:00 1.8 C 91 % 0.49 C
1781 22-03-2019 04:20:00 1.8 C 92 % 0.64 C
1782 22-03-2019 04:25:00 1.7 C 92 % 0.54 C
1783 22-03-2019 04:30:00 1.7 C 92 % 0.54 C
1784 22-03-2019 04:35:00 1.7 C 92 % 0.54 C
1785 22-03-2019 04:40:00 1.6 C 92 % 0.44 C
1786 22-03-2019 04:45:00 1.6 C 92 % 0.44 C
1787 22-03-2019 04:50:00 1.6 C 93 % 0.59 C
1788 22-03-2019 04:55:00 1.7 C 93 % 0.69 C
1789 22-03-2019 05:00:00 1.7 C 93 % 0.69 C
1790 22-03-2019 05:05:00 1.8 C 93 % 0.79 C
1791 22-03-2019 05:10:00 1.7 C 92 % 0.54 C
1792 22-03-2019 05:15:00 1.6 C 93 % 0.59 C
1793 22-03-2019 05:20:00 1.7 C 93 % 0.69 C
1794 22-03-2019 05:25:00 1.6 C 93 % 0.59 C
1795 22-03-2019 05:30:00 1.6 C 93 % 0.59 C
1796 22-03-2019 05:35:00 1.5 C 93 % 0.49 C
1797 22-03-2019 05:40:00 1.4 C 93 % 0.4 C
1798 22-03-2019 05:45:00 1.3 C 93 % 0.3 C
1799 22-03-2019 05:50:00 1.3 C 93 % 0.3 C
1800 22-03-2019 05:55:00 1.2 C 93 % 0.2 C
Sensor: Nr:Datum:Temp:Feuchte:Taupunkt:
Aussen-T/F 1801 22-03-2019 06:00:00 1.3 C 93 % 0.3 C
1802 22-03-2019 06:05:00 1.3 C 93 % 0.3 C
1803 22-03-2019 06:10:00 1.3 C 93 % 0.3 C
1804 22-03-2019 06:15:00 1.3 C 93 % 0.3 C
1805 22-03-2019 06:20:00 1.2 C 93 % 0.2 C
1806 22-03-2019 06:25:00 1.1 C 93 % 0.1 C
1807 22-03-2019 06:30:00 1 C 93 % 0 C
1808 22-03-2019 06:35:00 0.8 C 93 % -0.2 C
1809 22-03-2019 06:40:00 0.8 C 93 % -0.2 C
1810 22-03-2019 06:45:00 0.8 C 93 % -0.2 C
1811 22-03-2019 06:50:00 0.9 C 94 % 0.05 C
1812 22-03-2019 06:55:00 1 C 94 % 0.15 C
1813 22-03-2019 07:00:00 1.2 C 94 % 0.34 C
1814 22-03-2019 07:05:00 1.2 C 94 % 0.34 C
1815 22-03-2019 07:10:00 1.2 C 94 % 0.34 C
1816 22-03-2019 07:15:00 1.2 C 94 % 0.34 C
1817 22-03-2019 07:20:00 1.3 C 94 % 0.44 C
1818 22-03-2019 07:25:00 1.3 C 94 % 0.44 C
1819 22-03-2019 07:30:00 1.2 C 94 % 0.34 C
1820 22-03-2019 07:35:00 1.2 C 94 % 0.34 C
1821 22-03-2019 07:40:00 1.2 C 94 % 0.34 C
1822 22-03-2019 07:45:00 1.3 C 94 % 0.44 C
1823 22-03-2019 07:50:00 1.3 C 94 % 0.44 C
1824 22-03-2019 07:55:00 1.3 C 94 % 0.44 C
1825 22-03-2019 08:00:00 1.4 C 94 % 0.54 C
Sensor: Nr:Datum:Temp:Feuchte:Taupunkt:
Aussen-T/F 1826 22-03-2019 08:05:00 1.5 C 95 % 0.79 C
1827 22-03-2019 08:10:00 1.7 C 95 % 0.99 C
1828 22-03-2019 08:15:00 1.7 C 95 % 0.99 C
1829 22-03-2019 08:20:00 1.8 C 95 % 1.09 C
1830 22-03-2019 08:25:00 1.9 C 95 % 1.19 C
1831 22-03-2019 08:30:00 1.9 C 95 % 1.19 C
1832 22-03-2019 08:35:00 2.1 C 95 % 1.38 C
1833 22-03-2019 08:40:00 2.2 C 95 % 1.48 C
1834 22-03-2019 08:45:00 2.3 C 95 % 1.58 C
1835 22-03-2019 08:50:00 2.4 C 95 % 1.68 C
1836 22-03-2019 08:55:00 2.6 C 95 % 1.88 C
1837 22-03-2019 09:00:00 2.7 C 95 % 1.98 C
1838 22-03-2019 09:05:00 2.8 C 95 % 2.08 C
1839 22-03-2019 09:10:00 2.9 C 95 % 2.18 C
1840 22-03-2019 09:15:00 3.1 C 95 % 2.38 C
1841 22-03-2019 09:20:00 3.3 C 95 % 2.58 C
1842 22-03-2019 09:25:00 3.5 C 96 % 2.92 C
1843 22-03-2019 09:30:00 3.7 C 95 % 2.98 C
1844 22-03-2019 09:35:00 3.9 C 96 % 3.32 C
1845 22-03-2019 09:40:00 4.2 C 96 % 3.62 C
1846 22-03-2019 09:45:00 4.5 C 95 % 3.77 C
1847 22-03-2019 09:50:00 4.8 C 96 % 4.22 C
1848 22-03-2019 09:55:00 5.1 C 95 % 4.37 C
1849 22-03-2019 10:00:00 5.4 C 94 % 4.51 C
1850 22-03-2019 10:05:00 5.7 C 94 % 4.81 C
Sensor: Nr:Datum:Temp:Feuchte:Taupunkt:
Aussen-T/F 1851 22-03-2019 10:10:00 6 C 93 % 4.96 C
1852 22-03-2019 10:15:00 6.3 C 92 % 5.1 C
1853 22-03-2019 10:20:00 6.5 C 92 % 5.3 C
1854 22-03-2019 10:25:00 6.8 C 91 % 5.44 C
1855 22-03-2019 10:30:00 7.1 C 90 % 5.57 C
1856 22-03-2019 10:35:00 7.4 C 90 % 5.87 C
1857 22-03-2019 10:40:00 7.8 C 89 % 6.1 C
1858 22-03-2019 10:45:00 8.2 C 88 % 6.33 C
1859 22-03-2019 10:50:00 8.6 C 86 % 6.39 C
1860 22-03-2019 10:55:00 9 C 83 % 6.27 C
1861 22-03-2019 11:00:00 9.4 C 82 % 6.49 C
1862 22-03-2019 11:05:00 9.8 C 81 % 6.7 C
1863 22-03-2019 11:10:00 10.3 C 78 % 6.64 C
1864 22-03-2019 11:15:00 10.9 C 75 % 6.65 C
1865 22-03-2019 11:20:00 11.3 C 74 % 6.84 C
1866 22-03-2019 11:25:00 11.7 C 72 % 6.83 C
1867 22-03-2019 11:30:00 12.1 C 71 % 7.01 C
1868 22-03-2019 11:35:00 12.4 C 70 % 7.09 C
1869 22-03-2019 11:40:00 12.7 C 70 % 7.38 C
1870 22-03-2019 11:45:00 13 C 68 % 7.24 C
1871 22-03-2019 11:50:00 13.3 C 68 % 7.53 C
1872 22-03-2019 11:55:00 13.6 C 66 % 7.38 C
1873 22-03-2019 12:00:00 13.9 C 62 % 6.75 C
1874 22-03-2019 12:05:00 14.3 C 62 % 7.13 C
1875 22-03-2019 12:10:00 14.6 C 60 % 6.93 C
Sensor: Nr:Datum:Temp:Feuchte:Taupunkt:
Aussen-T/F 1876 22-03-2019 12:15:00 14.9 C 55 % 5.95 C
1877 22-03-2019 12:20:00 15.2 C 54 % 5.96 C
1878 22-03-2019 12:25:00 15.6 C 53 % 6.06 C
1879 22-03-2019 12:30:00 15.9 C 50 % 5.5 C
1880 22-03-2019 12:35:00 16.2 C 52 % 6.34 C
1881 22-03-2019 12:40:00 16.4 C 50 % 5.96 C
1882 22-03-2019 12:45:00 16.8 C 47 % 5.44 C
1883 22-03-2019 12:50:00 16.9 C 46 % 5.22 C
1884 22-03-2019 12:55:00 17.1 C 46 % 5.4 C
1885 22-03-2019 13:00:00 17.3 C 45 % 5.27 C
1886 22-03-2019 13:05:00 17.6 C 43 % 4.89 C
1887 22-03-2019 13:10:00 17.8 C 44 % 5.4 C
1888 22-03-2019 13:15:00 17.9 C 43 % 5.16 C
1889 22-03-2019 13:20:00 17.9 C 45 % 5.81 C
1890 22-03-2019 13:25:00 18 C 42 % 4.91 C
1891 22-03-2019 13:30:00 18.1 C 41 % 4.66 C
1892 22-03-2019 13:35:00 18.2 C 42 % 5.09 C
1893 22-03-2019 13:40:00 18.3 C 39 % 4.12 C
1894 22-03-2019 13:45:00 18.4 C 39 % 4.21 C
1895 22-03-2019 13:50:00 18.8 C 40 % 4.93 C
1896 22-03-2019 13:55:00 19.1 C 39 % 4.84 C
1897 22-03-2019 14:00:00 19.2 C 38 % 4.55 C
1898 22-03-2019 14:05:00 19.3 C 36 % 3.87 C
1899 22-03-2019 14:10:00 19.4 C 37 % 4.35 C
1900 22-03-2019 14:15:00 19.3 C 36 % 3.87 C
Sensor: Nr:Datum:Temp:Feuchte:Taupunkt:
Aussen-T/F 1901 22-03-2019 14:20:00 19.2 C 38 % 4.55 C
1902 22-03-2019 14:25:00 19.2 C 35 % 3.38 C
1903 22-03-2019 14:30:00 19.3 C 35 % 3.47 C
1904 22-03-2019 14:35:00 19.3 C 35 % 3.47 C
1905 22-03-2019 14:40:00 19.3 C 36 % 3.87 C
1906 22-03-2019 14:45:00 19.3 C 35 % 3.47 C
1907 22-03-2019 14:50:00 19.4 C 36 % 3.96 C
1908 22-03-2019 14:55:00 19.3 C 35 % 3.47 C
1909 22-03-2019 15:00:00 19.4 C 35 % 3.56 C
1910 22-03-2019 15:05:00 19.4 C 34 % 3.15 C
1911 22-03-2019 15:10:00 19.5 C 37 % 4.44 C
1912 22-03-2019 15:15:00 19.3 C 39 % 5.01 C
1913 22-03-2019 15:20:00 19.3 C 40 % 5.38 C
1914 22-03-2019 15:25:00 19.2 C 39 % 4.92 C
1915 22-03-2019 15:30:00 19.2 C 40 % 5.29 C
1916 22-03-2019 15:35:00 19.1 C 40 % 5.2 C
1917 22-03-2019 15:40:00 19.2 C 40 % 5.29 C
1918 22-03-2019 15:45:00 19.2 C 41 % 5.64 C
1919 22-03-2019 15:50:00 19.2 C 40 % 5.29 C
1920 22-03-2019 15:55:00 19.2 C 39 % 4.92 C
1921 22-03-2019 16:00:00 19.2 C 40 % 5.29 C
1922 22-03-2019 16:05:00 19.3 C 39 % 5.01 C
1923 22-03-2019 16:10:00 19.3 C 40 % 5.38 C
1924 22-03-2019 16:15:00 19.3 C 39 % 5.01 C
1925 22-03-2019 16:20:00 19.3 C 39 % 5.01 C
Sensor: Nr:Datum:Temp:Feuchte:Taupunkt:
Aussen-T/F 1926 22-03-2019 16:25:00 19.5 C 38 % 4.82 C
1927 22-03-2019 16:30:00 19.7 C 38 % 5 C
1928 22-03-2019 16:35:00 19.9 C 38 % 5.18 C
1929 22-03-2019 16:40:00 20.3 C 37 % 5.15 C
1930 22-03-2019 16:45:00 20.6 C 36 % 5.02 C
1931 22-03-2019 16:50:00 20.8 C 34 % 4.38 C
1932 22-03-2019 16:55:00 20.8 C 35 % 4.79 C
1933 22-03-2019 17:00:00 21.1 C 36 % 5.46 C
1934 22-03-2019 17:05:00 21.3 C 34 % 4.82 C
1935 22-03-2019 17:10:00 21.3 C 34 % 4.82 C
1936 22-03-2019 17:15:00 21.3 C 35 % 5.23 C
1937 22-03-2019 17:20:00 21.3 C 35 % 5.23 C
1938 22-03-2019 17:25:00 21.2 C 33 % 4.3 C
1939 22-03-2019 17:30:00 20.9 C 32 % 3.61 C
1940 22-03-2019 17:35:00 20.8 C 37 % 5.59 C
1941 22-03-2019 17:40:00 20.7 C 33 % 3.87 C
1942 22-03-2019 17:45:00 20.7 C 39 % 6.26 C
1943 22-03-2019 17:50:00 20.6 C 37 % 5.41 C
1944 22-03-2019 17:55:00 20.3 C 40 % 6.27 C
1945 22-03-2019 18:00:00 19.9 C 43 % 6.96 C
1946 22-03-2019 18:05:00 19.4 C 44 % 6.84 C
1947 22-03-2019 18:10:00 18.9 C 44 % 6.39 C
1948 22-03-2019 18:15:00 18.4 C 46 % 6.58 C
1949 22-03-2019 18:20:00 17.7 C 47 % 6.26 C
1950 22-03-2019 18:25:00 17 C 49 % 6.22 C
Sensor: Nr:Datum:Temp:Feuchte:Taupunkt:
Aussen-T/F 1951 22-03-2019 18:30:00 16.4 C 51 % 6.25 C
1952 22-03-2019 18:35:00 15.7 C 53 % 6.16 C
1953 22-03-2019 18:40:00 14.9 C 55 % 5.95 C
1954 22-03-2019 18:45:00 14.4 C 57 % 6 C
1955 22-03-2019 18:50:00 14 C 58 % 5.88 C
1956 22-03-2019 18:55:00 13.7 C 60 % 6.09 C
1957 22-03-2019 19:00:00 13.3 C 61 % 5.95 C
1958 22-03-2019 19:05:00 13.1 C 61 % 5.76 C
1959 22-03-2019 19:10:00 12.7 C 62 % 5.62 C
1960 22-03-2019 19:15:00 12.6 C 62 % 5.52 C
1961 22-03-2019 19:20:00 12.3 C 63 % 5.47 C
1962 22-03-2019 19:25:00 12.2 C 63 % 5.37 C
1963 22-03-2019 19:30:00 12.1 C 64 % 5.51 C
1964 22-03-2019 19:35:00 11.9 C 64 % 5.32 C
1965 22-03-2019 19:40:00 11.8 C 65 % 5.44 C
1966 22-03-2019 19:45:00 11.7 C 65 % 5.35 C
1967 22-03-2019 19:50:00 11.6 C 66 % 5.47 C
1968 22-03-2019 19:55:00 11.4 C 66 % 5.28 C
1969 22-03-2019 20:00:00 11.3 C 67 % 5.4 C
1970 22-03-2019 20:05:00 11.2 C 67 % 5.31 C
1971 22-03-2019 20:10:00 11.1 C 67 % 5.21 C
1972 22-03-2019 20:15:00 11 C 67 % 5.12 C
1973 22-03-2019 20:20:00 10.9 C 68 % 5.23 C
1974 22-03-2019 20:25:00 10.9 C 68 % 5.23 C
1975 22-03-2019 20:30:00 10.8 C 68 % 5.14 C
Sensor: Nr:Datum:Temp:Feuchte:Taupunkt:
Aussen-T/F 1976 22-03-2019 20:35:00 10.8 C 68 % 5.14 C
1977 22-03-2019 20:40:00 10.7 C 69 % 5.25 C
1978 22-03-2019 20:45:00 10.5 C 69 % 5.06 C
1979 22-03-2019 20:50:00 10.4 C 69 % 4.97 C
1980 22-03-2019 20:55:00 10.3 C 70 % 5.08 C
1981 22-03-2019 21:00:00 10.1 C 70 % 4.89 C
1982 22-03-2019 21:05:00 9.9 C 70 % 4.69 C
1983 22-03-2019 21:10:00 9.7 C 71 % 4.7 C
1984 22-03-2019 21:15:00 9.5 C 73 % 4.91 C
1985 22-03-2019 21:20:00 9.3 C 73 % 4.72 C
1986 22-03-2019 21:25:00 9.1 C 73 % 4.52 C
1987 22-03-2019 21:30:00 8.9 C 74 % 4.53 C
1988 22-03-2019 21:35:00 8.8 C 74 % 4.43 C
1989 22-03-2019 21:40:00 8.7 C 74 % 4.33 C
1990 22-03-2019 21:45:00 8.6 C 74 % 4.24 C
1991 22-03-2019 21:50:00 8.4 C 73 % 3.85 C
1992 22-03-2019 21:55:00 8.2 C 74 % 3.85 C
1993 22-03-2019 22:00:00 8.2 C 75 % 4.04 C
1994 22-03-2019 22:05:00 8.1 C 74 % 3.75 C
1995 22-03-2019 22:10:00 7.8 C 76 % 3.84 C
1996 22-03-2019 22:15:00 7.7 C 78 % 4.11 C
1997 22-03-2019 22:20:00 7.6 C 79 % 4.2 C
1998 22-03-2019 22:25:00 7.6 C 79 % 4.2 C
1999 22-03-2019 22:30:00 7.6 C 80 % 4.38 C
2000 22-03-2019 22:35:00 7.7 C 80 % 4.47 C
Sensor: Nr:Datum:Temp:Feuchte:Taupunkt:
Aussen-T/F 2001 22-03-2019 22:40:00 7.8 C 79 % 4.39 C
2002 22-03-2019 22:45:00 7.8 C 79 % 4.39 C
2003 22-03-2019 22:50:00 7.7 C 78 % 4.11 C
2004 22-03-2019 22:55:00 7.7 C 78 % 4.11 C
2005 22-03-2019 23:00:00 7.4 C 78 % 3.82 C
2006 22-03-2019 23:05:00 7.2 C 79 % 3.81 C
2007 22-03-2019 23:10:00 6.9 C 80 % 3.7 C
2008 22-03-2019 23:15:00 6.8 C 80 % 3.6 C
2009 22-03-2019 23:20:00 6.7 C 80 % 3.5 C
2010 22-03-2019 23:25:00 6.6 C 80 % 3.4 C
2011 22-03-2019 23:30:00 6.5 C 81 % 3.48 C
2012 22-03-2019 23:35:00 6.5 C 81 % 3.48 C
2013 22-03-2019 23:40:00 6.6 C 81 % 3.58 C
2014 22-03-2019 23:45:00 6.4 C 80 % 3.21 C
2015 22-03-2019 23:50:00 6.3 C 81 % 3.29 C
2016 22-03-2019 23:55:00 6.1 C 82 % 3.26 C
2017 23-03-2019 00:00:00 6.1 C 82 % 3.26 C
2018 23-03-2019 00:05:00 6 C 82 % 3.17 C
2019 23-03-2019 00:10:00 5.8 C 82 % 2.97 C
2020 23-03-2019 00:15:00 5.7 C 83 % 3.04 C
2021 23-03-2019 00:20:00 5.7 C 83 % 3.04 C
2022 23-03-2019 00:25:00 5.6 C 82 % 2.78 C
2023 23-03-2019 00:30:00 5.5 C 82 % 2.68 C
2024 23-03-2019 00:35:00 5.3 C 83 % 2.65 C
2025 23-03-2019 00:40:00 5.2 C 84 % 2.72 C
Sensor: Nr:Datum:Temp:Feuchte:Taupunkt:
Aussen-T/F 2026 23-03-2019 00:45:00 5.1 C 84 % 2.63 C
2027 23-03-2019 00:50:00 5.1 C 85 % 2.79 C
2028 23-03-2019 00:55:00 4.9 C 84 % 2.43 C
2029 23-03-2019 01:00:00 4.8 C 85 % 2.5 C
2030 23-03-2019 01:05:00 4.8 C 85 % 2.5 C
2031 23-03-2019 01:10:00 4.9 C 86 % 2.76 C
2032 23-03-2019 01:15:00 5.1 C 86 % 2.96 C
2033 23-03-2019 01:20:00 5.2 C 85 % 2.89 C
2034 23-03-2019 01:25:00 5 C 85 % 2.69 C
2035 23-03-2019 01:30:00 4.8 C 85 % 2.5 C
2036 23-03-2019 01:35:00 4.7 C 85 % 2.4 C
2037 23-03-2019 01:40:00 4.6 C 85 % 2.3 C
2038 23-03-2019 01:45:00 4.4 C 86 % 2.27 C
2039 23-03-2019 01:50:00 4.3 C 86 % 2.17 C
2040 23-03-2019 01:55:00 4.3 C 87 % 2.33 C
2041 23-03-2019 02:00:00 4.2 C 87 % 2.23 C
2042 23-03-2019 02:05:00 4.2 C 87 % 2.23 C
2043 23-03-2019 02:10:00 4.1 C 87 % 2.14 C
2044 23-03-2019 02:15:00 4.1 C 88 % 2.3 C
2045 23-03-2019 02:20:00 4 C 88 % 2.2 C
2046 23-03-2019 02:25:00 3.9 C 88 % 2.1 C
2047 23-03-2019 02:30:00 3.9 C 89 % 2.26 C
2048 23-03-2019 02:35:00 3.9 C 89 % 2.26 C
2049 23-03-2019 02:40:00 3.9 C 88 % 2.1 C
2050 23-03-2019 02:45:00 4 C 89 % 2.36 C
Sensor: Nr:Datum:Temp:Feuchte:Taupunkt:
Aussen-T/F 2051 23-03-2019 02:50:00 4.2 C 89 % 2.55 C
2052 23-03-2019 02:55:00 4.2 C 89 % 2.55 C
2053 23-03-2019 03:00:00 4.2 C 89 % 2.55 C
2054 23-03-2019 03:05:00 4.1 C 88 % 2.3 C
2055 23-03-2019 03:10:00 4 C 88 % 2.2 C
2056 23-03-2019 03:15:00 4 C 89 % 2.36 C
2057 23-03-2019 03:20:00 3.8 C 88 % 2 C
2058 23-03-2019 03:25:00 3.7 C 88 % 1.9 C
2059 23-03-2019 03:30:00 3.6 C 89 % 1.96 C
2060 23-03-2019 03:35:00 3.5 C 89 % 1.86 C
2061 23-03-2019 03:40:00 3.3 C 89 % 1.67 C
2062 23-03-2019 03:45:00 3.3 C 90 % 1.82 C
2063 23-03-2019 03:50:00 3.4 C 90 % 1.92 C
2064 23-03-2019 03:55:00 3.4 C 90 % 1.92 C
2065 23-03-2019 04:00:00 3.4 C 90 % 1.92 C
2066 23-03-2019 04:05:00 3.4 C 90 % 1.92 C
2067 23-03-2019 04:10:00 3.4 C 90 % 1.92 C
2068 23-03-2019 04:15:00 3.3 C 90 % 1.82 C
2069 23-03-2019 04:20:00 3.3 C 90 % 1.82 C
2070 23-03-2019 04:25:00 3.4 C 90 % 1.92 C
2071 23-03-2019 04:30:00 3.5 C 91 % 2.17 C
2072 23-03-2019 04:35:00 3.6 C 91 % 2.27 C
2073 23-03-2019 04:40:00 3.6 C 90 % 2.12 C
2074 23-03-2019 04:45:00 3.5 C 89 % 1.86 C
2075 23-03-2019 04:50:00 3.4 C 90 % 1.92 C
Sensor: Nr:Datum:Temp:Feuchte:Taupunkt:
Aussen-T/F 2076 23-03-2019 04:55:00 3.3 C 90 % 1.82 C
2077 23-03-2019 05:00:00 3.5 C 91 % 2.17 C
2078 23-03-2019 05:05:00 3.6 C 90 % 2.12 C
2079 23-03-2019 05:10:00 3.5 C 90 % 2.02 C
2080 23-03-2019 05:15:00 3.3 C 89 % 1.67 C
2081 23-03-2019 05:20:00 3.3 C 90 % 1.82 C
2082 23-03-2019 05:25:00 3.3 C 90 % 1.82 C
2083 23-03-2019 05:30:00 3.4 C 90 % 1.92 C
2084 23-03-2019 05:35:00 3.4 C 90 % 1.92 C
2085 23-03-2019 05:40:00 3.3 C 90 % 1.82 C
2086 23-03-2019 05:45:00 3.1 C 89 % 1.47 C
2087 23-03-2019 05:50:00 2.9 C 89 % 1.27 C
2088 23-03-2019 05:55:00 2.8 C 90 % 1.33 C
2089 23-03-2019 06:00:00 2.7 C 90 % 1.23 C
2090 23-03-2019 06:05:00 2.6 C 90 % 1.13 C
2091 23-03-2019 06:10:00 2.4 C 90 % 0.93 C
2092 23-03-2019 06:15:00 2.4 C 91 % 1.08 C
2093 23-03-2019 06:20:00 2.4 C 91 % 1.08 C
2094 23-03-2019 06:25:00 2.4 C 91 % 1.08 C
2095 23-03-2019 06:30:00 2.4 C 92 % 1.24 C
2096 23-03-2019 06:35:00 2.6 C 92 % 1.43 C
2097 23-03-2019 06:40:00 2.6 C 92 % 1.43 C
2098 23-03-2019 06:45:00 2.7 C 92 % 1.53 C
2099 23-03-2019 06:50:00 2.6 C 92 % 1.43 C
2100 23-03-2019 06:55:00 2.5 C 91 % 1.18 C
Sensor: Nr:Datum:Temp:Feuchte:Taupunkt:
Aussen-T/F 2101 23-03-2019 07:00:00 2.4 C 92 % 1.24 C
2102 23-03-2019 07:05:00 2.4 C 92 % 1.24 C
2103 23-03-2019 07:10:00 2.5 C 92 % 1.34 C
2104 23-03-2019 07:15:00 2.7 C 93 % 1.68 C
2105 23-03-2019 07:20:00 3.5 C 95 % 2.78 C
2106 23-03-2019 07:25:00 4.2 C 96 % 3.62 C
2107 23-03-2019 07:30:00 4.7 C 96 % 4.12 C
2108 23-03-2019 07:35:00 4.9 C 95 % 4.17 C
2109 23-03-2019 07:40:00 5 C 95 % 4.27 C
2110 23-03-2019 07:45:00 5.2 C 95 % 4.47 C
2111 23-03-2019 07:50:00 5.6 C 95 % 4.86 C
2112 23-03-2019 07:55:00 5.7 C 95 % 4.96 C
2113 23-03-2019 08:00:00 5.9 C 95 % 5.16 C
2114 23-03-2019 08:05:00 6 C 95 % 5.26 C
2115 23-03-2019 08:10:00 6.1 C 95 % 5.36 C
2116 23-03-2019 08:15:00 6.1 C 95 % 5.36 C
2117 23-03-2019 08:20:00 6.2 C 95 % 5.46 C
2118 23-03-2019 08:25:00 6.2 C 95 % 5.46 C
2119 23-03-2019 08:30:00 6.3 C 95 % 5.56 C
2120 23-03-2019 08:35:00 6.3 C 95 % 5.56 C
2121 23-03-2019 08:40:00 6.3 C 95 % 5.56 C
2122 23-03-2019 08:45:00 6.4 C 95 % 5.66 C
2123 23-03-2019 08:50:00 6.3 C 95 % 5.56 C
2124 23-03-2019 08:55:00 6.4 C 95 % 5.66 C
2125 23-03-2019 09:00:00 6.4 C 95 % 5.66 C
Sensor: Nr:Datum:Temp:Feuchte:Taupunkt:
Aussen-T/F 2126 23-03-2019 09:05:00 6.5 C 95 % 5.76 C
2127 23-03-2019 09:10:00 6.5 C 95 % 5.76 C
2128 23-03-2019 09:15:00 6.6 C 95 % 5.86 C
2129 23-03-2019 09:20:00 6.6 C 94 % 5.71 C
2130 23-03-2019 09:25:00 6.6 C 94 % 5.71 C
2131 23-03-2019 09:30:00 6.6 C 94 % 5.71 C
2132 23-03-2019 09:35:00 6.7 C 94 % 5.8 C
2133 23-03-2019 09:40:00 6.7 C 94 % 5.8 C
2134 23-03-2019 09:45:00 6.7 C 94 % 5.8 C
2135 23-03-2019 09:50:00 6.8 C 94 % 5.9 C
2136 23-03-2019 09:55:00 6.9 C 94 % 6 C
2137 23-03-2019 10:00:00 7 C 94 % 6.1 C
2138 23-03-2019 10:05:00 7.1 C 94 % 6.2 C
2139 23-03-2019 10:10:00 7.1 C 94 % 6.2 C
2140 23-03-2019 10:15:00 7.1 C 94 % 6.2 C
2141 23-03-2019 10:20:00 7.2 C 94 % 6.3 C
2142 23-03-2019 10:25:00 7.2 C 94 % 6.3 C
2143 23-03-2019 10:30:00 7.2 C 94 % 6.3 C
2144 23-03-2019 10:35:00 7.2 C 94 % 6.3 C
2145 23-03-2019 10:40:00 7.2 C 94 % 6.3 C
2146 23-03-2019 10:45:00 7.3 C 93 % 6.25 C
2147 23-03-2019 10:50:00 7.3 C 93 % 6.25 C
2148 23-03-2019 10:55:00 7.3 C 93 % 6.25 C
2149 23-03-2019 11:00:00 7.3 C 93 % 6.25 C
2150 23-03-2019 11:05:00 7.3 C 93 % 6.25 C
Sensor: Nr:Datum:Temp:Feuchte:Taupunkt:
Aussen-T/F 2151 23-03-2019 11:10:00 7.3 C 93 % 6.25 C
2152 23-03-2019 11:15:00 7.4 C 93 % 6.34 C
2153 23-03-2019 11:20:00 7.4 C 93 % 6.34 C
2154 23-03-2019 11:25:00 7.5 C 93 % 6.44 C
2155 23-03-2019 11:30:00 7.6 C 93 % 6.54 C
2156 23-03-2019 11:35:00 7.6 C 92 % 6.39 C
2157 23-03-2019 11:40:00 7.7 C 92 % 6.48 C
2158 23-03-2019 11:45:00 7.7 C 92 % 6.48 C
2159 23-03-2019 11:50:00 7.8 C 92 % 6.58 C
2160 23-03-2019 11:55:00 7.8 C 92 % 6.58 C
2161 23-03-2019 12:00:00 7.8 C 92 % 6.58 C
2162 23-03-2019 12:05:00 7.9 C 91 % 6.52 C
2163 23-03-2019 12:10:00 7.9 C 91 % 6.52 C
2164 23-03-2019 12:15:00 8 C 91 % 6.62 C
2165 23-03-2019 12:20:00 8.1 C 90 % 6.56 C
2166 23-03-2019 12:25:00 8.1 C 90 % 6.56 C
2167 23-03-2019 12:30:00 8.2 C 90 % 6.66 C
2168 23-03-2019 12:35:00 8.2 C 89 % 6.5 C
2169 23-03-2019 12:40:00 8.3 C 89 % 6.6 C
2170 23-03-2019 12:45:00 8.3 C 89 % 6.6 C
2171 23-03-2019 12:50:00 8.3 C 89 % 6.6 C
2172 23-03-2019 12:55:00 8.4 C 89 % 6.7 C
2173 23-03-2019 13:00:00 8.4 C 88 % 6.53 C
2174 23-03-2019 13:05:00 8.5 C 88 % 6.63 C
2175 23-03-2019 13:10:00 8.6 C 88 % 6.73 C
Sensor: Nr:Datum:Temp:Feuchte:Taupunkt:
Aussen-T/F 2176 23-03-2019 13:15:00 8.6 C 87 % 6.56 C
2177 23-03-2019 13:20:00 8.7 C 86 % 6.49 C
2178 23-03-2019 13:25:00 8.7 C 87 % 6.66 C
2179 23-03-2019 13:30:00 8.8 C 87 % 6.76 C
2180 23-03-2019 13:35:00 8.9 C 86 % 6.69 C
2181 23-03-2019 13:40:00 8.9 C 85 % 6.52 C
2182 23-03-2019 13:45:00 9 C 85 % 6.62 C
2183 23-03-2019 13:50:00 9.1 C 85 % 6.72 C
2184 23-03-2019 13:55:00 9.1 C 84 % 6.54 C
2185 23-03-2019 14:00:00 9.2 C 83 % 6.47 C
2186 23-03-2019 14:05:00 9.3 C 83 % 6.57 C
2187 23-03-2019 14:10:00 9.3 C 83 % 6.57 C
2188 23-03-2019 14:15:00 9.3 C 82 % 6.39 C
2189 23-03-2019 14:20:00 9.3 C 82 % 6.39 C
2190 23-03-2019 14:25:00 9.4 C 82 % 6.49 C
2191 23-03-2019 14:30:00 9.4 C 82 % 6.49 C
2192 23-03-2019 14:35:00 9.4 C 81 % 6.31 C
2193 23-03-2019 14:40:00 9.6 C 81 % 6.5 C
2194 23-03-2019 14:45:00 9.7 C 80 % 6.42 C
2195 23-03-2019 14:50:00 9.7 C 79 % 6.24 C
2196 23-03-2019 14:55:00 9.8 C 79 % 6.34 C
2197 23-03-2019 15:00:00 9.8 C 80 % 6.52 C
2198 23-03-2019 15:05:00 9.9 C 79 % 6.43 C
2199 23-03-2019 15:10:00 9.9 C 79 % 6.43 C
2200 23-03-2019 15:15:00 9.9 C 78 % 6.25 C
Sensor: Nr:Datum:Temp:Feuchte:Taupunkt:
Aussen-T/F 2201 23-03-2019 15:20:00 9.9 C 77 % 6.06 C
2202 23-03-2019 15:25:00 10.1 C 78 % 6.44 C
2203 23-03-2019 15:30:00 10.1 C 77 % 6.26 C
2204 23-03-2019 15:35:00 10.2 C 77 % 6.35 C
2205 23-03-2019 15:40:00 10.3 C 76 % 6.26 C
2206 23-03-2019 15:45:00 10.3 C 76 % 6.26 C
2207 23-03-2019 15:50:00 10.3 C 77 % 6.45 C
2208 23-03-2019 15:55:00 10.3 C 76 % 6.26 C
2209 23-03-2019 16:00:00 10.3 C 75 % 6.07 C
2210 23-03-2019 16:05:00 10.3 C 75 % 6.07 C
2211 23-03-2019 16:10:00 10.3 C 75 % 6.07 C
2212 23-03-2019 16:15:00 10.4 C 75 % 6.17 C
2213 23-03-2019 16:20:00 10.3 C 75 % 6.07 C
2214 23-03-2019 16:25:00 10.4 C 75 % 6.17 C
2215 23-03-2019 16:30:00 10.4 C 75 % 6.17 C
2216 23-03-2019 16:35:00 10.5 C 75 % 6.26 C
2217 23-03-2019 16:40:00 10.5 C 74 % 6.07 C
2218 23-03-2019 16:45:00 10.6 C 74 % 6.17 C
2219 23-03-2019 16:50:00 10.6 C 74 % 6.17 C
2220 23-03-2019 16:55:00 10.5 C 74 % 6.07 C
2221 23-03-2019 17:00:00 10.5 C 74 % 6.07 C
2222 23-03-2019 17:05:00 10.5 C 75 % 6.26 C
2223 23-03-2019 17:10:00 10.6 C 74 % 6.17 C
2224 23-03-2019 17:15:00 10.7 C 74 % 6.26 C
2225 23-03-2019 17:20:00 10.7 C 73 % 6.07 C
Sensor: Nr:Datum:Temp:Feuchte:Taupunkt:
Aussen-T/F 2226 23-03-2019 17:25:00 10.6 C 74 % 6.17 C
2227 23-03-2019 17:30:00 10.6 C 74 % 6.17 C
2228 23-03-2019 17:35:00 10.4 C 74 % 5.97 C
2229 23-03-2019 17:40:00 10.3 C 74 % 5.88 C
2230 23-03-2019 17:45:00 10.1 C 74 % 5.68 C
2231 23-03-2019 17:50:00 10.1 C 75 % 5.88 C
2232 23-03-2019 17:55:00 10 C 75 % 5.78 C
2233 23-03-2019 18:00:00 10.1 C 75 % 5.88 C
2234 23-03-2019 18:05:00 10 C 75 % 5.78 C
2235 23-03-2019 18:10:00 10 C 75 % 5.78 C
2236 23-03-2019 18:15:00 9.9 C 75 % 5.68 C
2237 23-03-2019 18:20:00 9.7 C 76 % 5.68 C
2238 23-03-2019 18:25:00 9.6 C 76 % 5.58 C
2239 23-03-2019 18:30:00 9.3 C 77 % 5.48 C
2240 23-03-2019 18:35:00 8.9 C 78 % 5.28 C
2241 23-03-2019 18:40:00 8.6 C 79 % 5.17 C
2242 23-03-2019 18:45:00 8.2 C 80 % 4.96 C
2243 23-03-2019 18:50:00 8 C 81 % 4.94 C
2244 23-03-2019 18:55:00 7.8 C 82 % 4.92 C
2245 23-03-2019 19:00:00 7.6 C 82 % 4.73 C
2246 23-03-2019 19:05:00 7.4 C 83 % 4.71 C
2247 23-03-2019 19:10:00 7.2 C 84 % 4.68 C
2248 23-03-2019 19:15:00 7.1 C 84 % 4.58 C
2249 23-03-2019 19:20:00 6.9 C 85 % 4.56 C
2250 23-03-2019 19:25:00 6.8 C 85 % 4.46 C
Sensor: Nr:Datum:Temp:Feuchte:Taupunkt:
Aussen-T/F 2251 23-03-2019 19:30:00 6.7 C 85 % 4.36 C
2252 23-03-2019 19:35:00 6.6 C 86 % 4.43 C
2253 23-03-2019 19:40:00 6.5 C 86 % 4.33 C
2254 23-03-2019 19:45:00 6.4 C 87 % 4.4 C
2255 23-03-2019 19:50:00 6.3 C 87 % 4.3 C
2256 23-03-2019 19:55:00 6.2 C 87 % 4.2 C
2257 23-03-2019 20:00:00 6.1 C 87 % 4.1 C
2258 23-03-2019 20:05:00 5.9 C 87 % 3.91 C
2259 23-03-2019 20:10:00 5.7 C 88 % 3.87 C
2260 23-03-2019 20:15:00 5.7 C 89 % 4.03 C
2261 23-03-2019 20:20:00 5.6 C 88 % 3.77 C
2262 23-03-2019 20:25:00 5.3 C 88 % 3.48 C
2263 23-03-2019 20:30:00 5.2 C 89 % 3.54 C
2264 23-03-2019 20:35:00 5.1 C 89 % 3.44 C
2265 23-03-2019 20:40:00 5.1 C 90 % 3.6 C
2266 23-03-2019 20:45:00 5.1 C 90 % 3.6 C
2267 23-03-2019 20:50:00 5 C 90 % 3.5 C
2268 23-03-2019 20:55:00 4.8 C 90 % 3.3 C
2269 23-03-2019 21:00:00 4.7 C 90 % 3.2 C
2270 23-03-2019 21:05:00 4.6 C 90 % 3.1 C
2271 23-03-2019 21:10:00 4.5 C 91 % 3.16 C
2272 23-03-2019 21:15:00 4.5 C 91 % 3.16 C
2273 23-03-2019 21:20:00 4.5 C 92 % 3.32 C
2274 23-03-2019 21:25:00 4.4 C 92 % 3.22 C
2275 23-03-2019 21:30:00 4.3 C 91 % 2.96 C
Sensor: Nr:Datum:Temp:Feuchte:Taupunkt:
Aussen-T/F 2276 23-03-2019 21:35:00 4.2 C 91 % 2.87 C
2277 23-03-2019 21:40:00 4.1 C 91 % 2.77 C
2278 23-03-2019 21:45:00 4.1 C 92 % 2.92 C
2279 23-03-2019 21:50:00 4.1 C 92 % 2.92 C
2280 23-03-2019 21:55:00 4 C 92 % 2.82 C
2281 23-03-2019 22:00:00 3.9 C 92 % 2.72 C
2282 23-03-2019 22:05:00 3.9 C 92 % 2.72 C
2283 23-03-2019 22:10:00 3.9 C 93 % 2.87 C
2284 23-03-2019 22:15:00 3.8 C 93 % 2.77 C
2285 23-03-2019 22:20:00 3.6 C 92 % 2.42 C
2286 23-03-2019 22:25:00 3.6 C 93 % 2.58 C
2287 23-03-2019 22:30:00 3.4 C 93 % 2.38 C
2288 23-03-2019 22:35:00 3.3 C 93 % 2.28 C
2289 23-03-2019 22:40:00 3.3 C 93 % 2.28 C
2290 23-03-2019 22:45:00 3.3 C 93 % 2.28 C
2291 23-03-2019 22:50:00 3.3 C 94 % 2.43 C
2292 23-03-2019 22:55:00 3.4 C 94 % 2.53 C
2293 23-03-2019 23:00:00 3.3 C 94 % 2.43 C
2294 23-03-2019 23:05:00 3.3 C 94 % 2.43 C
2295 23-03-2019 23:10:00 3.2 C 94 % 2.33 C
2296 23-03-2019 23:15:00 3.2 C 94 % 2.33 C
2297 23-03-2019 23:20:00 3.2 C 94 % 2.33 C
2298 23-03-2019 23:25:00 3.2 C 94 % 2.33 C
2299 23-03-2019 23:30:00 3.1 C 94 % 2.23 C
2300 23-03-2019 23:35:00 3.1 C 94 % 2.23 C
Sensor: Nr:Datum:Temp:Feuchte:Taupunkt:
Aussen-T/F 2301 23-03-2019 23:40:00 2.9 C 94 % 2.03 C
2302 23-03-2019 23:45:00 2.8 C 94 % 1.93 C
2303 23-03-2019 23:50:00 2.8 C 94 % 1.93 C
2304 23-03-2019 23:55:00 2.8 C 94 % 1.93 C
2305 24-03-2019 00:00:00 2.7 C 94 % 1.83 C
2306 24-03-2019 00:05:00 2.6 C 94 % 1.73 C
2307 24-03-2019 00:10:00 2.4 C 94 % 1.54 C
2308 24-03-2019 00:15:00 2.3 C 94 % 1.44 C
2309 24-03-2019 00:20:00 2.4 C 94 % 1.54 C
2310 24-03-2019 00:25:00 2.3 C 94 % 1.44 C
2311 24-03-2019 00:30:00 2.3 C 94 % 1.44 C
2312 24-03-2019 00:35:00 2.2 C 94 % 1.34 C
2313 24-03-2019 00:40:00 2.2 C 95 % 1.48 C
2314 24-03-2019 00:45:00 2.4 C 95 % 1.68 C
2315 24-03-2019 00:50:00 2.6 C 95 % 1.88 C
2316 24-03-2019 00:55:00 2.4 C 95 % 1.68 C
2317 24-03-2019 01:00:00 2.4 C 95 % 1.68 C
2318 24-03-2019 01:05:00 2.3 C 95 % 1.58 C
2319 24-03-2019 01:10:00 2.2 C 95 % 1.48 C
2320 24-03-2019 01:15:00 2.1 C 94 % 1.24 C
2321 24-03-2019 01:20:00 1.9 C 94 % 1.04 C
2322 24-03-2019 01:25:00 1.8 C 95 % 1.09 C
2323 24-03-2019 01:30:00 1.8 C 95 % 1.09 C
2324 24-03-2019 01:35:00 1.7 C 95 % 0.99 C
2325 24-03-2019 01:40:00 1.6 C 95 % 0.89 C
Sensor: Nr:Datum:Temp:Feuchte:Taupunkt:
Aussen-T/F 2326 24-03-2019 01:45:00 1.7 C 95 % 0.99 C
2327 24-03-2019 01:50:00 1.7 C 95 % 0.99 C
2328 24-03-2019 01:55:00 1.6 C 95 % 0.89 C
2329 24-03-2019 02:00:00 1.4 C 95 % 0.69 C
2330 24-03-2019 02:05:00 1.5 C 95 % 0.79 C
2331 24-03-2019 02:10:00 1.6 C 95 % 0.89 C
2332 24-03-2019 02:15:00 1.7 C 95 % 0.99 C
2333 24-03-2019 02:20:00 1.7 C 95 % 0.99 C
2334 24-03-2019 02:25:00 1.5 C 95 % 0.79 C
2335 24-03-2019 02:30:00 1.4 C 95 % 0.69 C
2336 24-03-2019 02:35:00 1.3 C 95 % 0.59 C
2337 24-03-2019 02:40:00 1.2 C 95 % 0.49 C
2338 24-03-2019 02:45:00 1.3 C 95 % 0.59 C
2339 24-03-2019 02:50:00 1.3 C 95 % 0.59 C
2340 24-03-2019 02:55:00 1.2 C 95 % 0.49 C
2341 24-03-2019 03:00:00 1.1 C 95 % 0.39 C
2342 24-03-2019 03:05:00 1.2 C 95 % 0.49 C
2343 24-03-2019 03:10:00 1.2 C 95 % 0.49 C
2344 24-03-2019 03:15:00 1.1 C 95 % 0.39 C
2345 24-03-2019 03:20:00 1 C 95 % 0.29 C
2346 24-03-2019 03:25:00 1 C 95 % 0.29 C
2347 24-03-2019 03:30:00 0.9 C 95 % 0.19 C
2348 24-03-2019 03:35:00 1 C 95 % 0.29 C
2349 24-03-2019 03:40:00 0.9 C 95 % 0.19 C
2350 24-03-2019 03:45:00 0.8 C 95 % 0.09 C
Sensor: Nr:Datum:Temp:Feuchte:Taupunkt:
Aussen-T/F 2351 24-03-2019 03:50:00 0.7 C 95 % -0.01 C
2352 24-03-2019 03:55:00 0.7 C 95 % -0.01 C
2353 24-03-2019 04:00:00 0.6 C 95 % -0.11 C
2354 24-03-2019 04:05:00 0.6 C 95 % -0.11 C
2355 24-03-2019 04:10:00 0.6 C 96 % 0.04 C
2356 24-03-2019 04:15:00 0.7 C 96 % 0.14 C
2357 24-03-2019 04:20:00 0.8 C 96 % 0.24 C
2358 24-03-2019 04:25:00 0.9 C 96 % 0.34 C
2359 24-03-2019 04:30:00 0.9 C 96 % 0.34 C
2360 24-03-2019 04:35:00 0.9 C 96 % 0.34 C
2361 24-03-2019 04:40:00 1 C 96 % 0.44 C
2362 24-03-2019 04:45:00 1.1 C 96 % 0.54 C
2363 24-03-2019 04:50:00 1.2 C 96 % 0.63 C
2364 24-03-2019 04:55:00 1.4 C 96 % 0.83 C
2365 24-03-2019 05:00:00 1.5 C 96 % 0.93 C
2366 24-03-2019 05:05:00 1.6 C 96 % 1.03 C
2367 24-03-2019 05:10:00 1.6 C 96 % 1.03 C
2368 24-03-2019 05:15:00 1.7 C 96 % 1.13 C
2369 24-03-2019 05:20:00 1.8 C 96 % 1.23 C
2370 24-03-2019 05:25:00 1.8 C 96 % 1.23 C
2371 24-03-2019 05:30:00 1.9 C 96 % 1.33 C
2372 24-03-2019 05:35:00 1.9 C 96 % 1.33 C
2373 24-03-2019 07:05:00 2.6 C 96 % 2.03 C
2374 24-03-2019 07:10:00 2.6 C 96 % 2.03 C
2375 24-03-2019 07:15:00 2.7 C 96 % 2.13 C
Sensor: Nr:Datum:Temp:Feuchte:Taupunkt:
Aussen-T/F 2376 24-03-2019 07:20:00 2.7 C 96 % 2.13 C
2377 24-03-2019 07:25:00 2.7 C 96 % 2.13 C
2378 24-03-2019 07:30:00 2.7 C 96 % 2.13 C
2379 24-03-2019 07:35:00 2.8 C 96 % 2.23 C
2380 24-03-2019 07:40:00 2.8 C 96 % 2.23 C
2381 24-03-2019 07:45:00 2.9 C 96 % 2.33 C
2382 24-03-2019 07:50:00 3 C 96 % 2.43 C
2383 24-03-2019 07:55:00 3.1 C 96 % 2.53 C
2384 24-03-2019 08:00:00 3.2 C 97 % 2.77 C
2385 24-03-2019 08:05:00 3.3 C 97 % 2.87 C
2386 24-03-2019 08:10:00 3.3 C 96 % 2.72 C
2387 24-03-2019 08:15:00 3.4 C 97 % 2.97 C
2388 24-03-2019 08:20:00 3.5 C 97 % 3.07 C
2389 24-03-2019 08:25:00 3.6 C 97 % 3.17 C
2390 24-03-2019 08:30:00 3.6 C 96 % 3.02 C
2391 24-03-2019 08:35:00 3.7 C 96 % 3.12 C
2392 24-03-2019 08:40:00 3.9 C 97 % 3.47 C
2393 24-03-2019 08:45:00 4.1 C 97 % 3.67 C
2394 24-03-2019 08:50:00 4.2 C 97 % 3.77 C
2395 24-03-2019 08:55:00 4.2 C 97 % 3.77 C
2396 24-03-2019 09:00:00 4.3 C 96 % 3.72 C
2397 24-03-2019 09:05:00 4.3 C 96 % 3.72 C
2398 24-03-2019 09:10:00 4.5 C 96 % 3.92 C
2399 24-03-2019 09:15:00 4.6 C 96 % 4.02 C
2400 24-03-2019 09:20:00 4.7 C 96 % 4.12 C
Sensor: Nr:Datum:Temp:Feuchte:Taupunkt:
Aussen-T/F 2401 24-03-2019 09:25:00 4.8 C 96 % 4.22 C
2402 24-03-2019 09:30:00 4.8 C 96 % 4.22 C
2403 24-03-2019 09:35:00 4.9 C 96 % 4.32 C
2404 24-03-2019 09:40:00 5.1 C 95 % 4.37 C
2405 24-03-2019 09:45:00 5.2 C 95 % 4.47 C
2406 24-03-2019 09:50:00 5.4 C 95 % 4.66 C
2407 24-03-2019 09:55:00 5.6 C 95 % 4.86 C
2408 24-03-2019 10:00:00 5.7 C 95 % 4.96 C
2409 24-03-2019 10:05:00 5.9 C 95 % 5.16 C
2410 24-03-2019 10:10:00 6.2 C 95 % 5.46 C
2411 24-03-2019 10:15:00 6.3 C 94 % 5.41 C
2412 24-03-2019 10:20:00 6.5 C 93 % 5.45 C
2413 24-03-2019 10:25:00 6.8 C 93 % 5.75 C
2414 24-03-2019 10:30:00 6.9 C 92 % 5.69 C
2415 24-03-2019 10:35:00 7.2 C 92 % 5.99 C
2416 24-03-2019 10:40:00 7.4 C 91 % 6.03 C
2417 24-03-2019 10:45:00 7.7 C 90 % 6.17 C
2418 24-03-2019 10:50:00 7.8 C 90 % 6.27 C
2419 24-03-2019 10:55:00 8.1 C 89 % 6.4 C
2420 24-03-2019 11:00:00 8.3 C 89 % 6.6 C
2421 24-03-2019 11:05:00 8.7 C 89 % 6.99 C
2422 24-03-2019 11:10:00 8.9 C 88 % 7.02 C
2423 24-03-2019 11:15:00 9.1 C 87 % 7.05 C
2424 24-03-2019 11:20:00 9.2 C 86 % 6.98 C
2425 24-03-2019 11:25:00 9.4 C 86 % 7.18 C
Sensor: Nr:Datum:Temp:Feuchte:Taupunkt:
Aussen-T/F 2426 24-03-2019 11:30:00 9.6 C 85 % 7.21 C
2427 24-03-2019 11:35:00 9.7 C 85 % 7.3 C
2428 24-03-2019 11:40:00 10 C 84 % 7.43 C
2429 24-03-2019 11:45:00 10.3 C 83 % 7.54 C
2430 24-03-2019 11:50:00 10.5 C 81 % 7.38 C
2431 24-03-2019 11:55:00 10.8 C 82 % 7.85 C
2432 24-03-2019 12:00:00 11.2 C 80 % 7.88 C
2433 24-03-2019 12:05:00 11.3 C 79 % 7.8 C
2434 24-03-2019 12:10:00 11.4 C 79 % 7.89 C
2435 24-03-2019 12:15:00 11.6 C 78 % 7.9 C
2436 24-03-2019 12:20:00 11.7 C 77 % 7.81 C
2437 24-03-2019 12:25:00 11.8 C 76 % 7.71 C
2438 24-03-2019 12:30:00 11.9 C 76 % 7.81 C
2439 24-03-2019 12:35:00 12.1 C 76 % 8 C
2440 24-03-2019 12:40:00 12.1 C 76 % 8 C
2441 24-03-2019 12:45:00 12.1 C 74 % 7.61 C
2442 24-03-2019 12:50:00 12 C 75 % 7.71 C
2443 24-03-2019 12:55:00 11.7 C 77 % 7.81 C
2444 24-03-2019 13:00:00 11.4 C 78 % 7.71 C
2445 24-03-2019 13:05:00 11.2 C 79 % 7.7 C
2446 24-03-2019 13:10:00 11 C 81 % 7.87 C
2447 24-03-2019 13:15:00 10.9 C 81 % 7.77 C
2448 24-03-2019 13:20:00 10.8 C 82 % 7.85 C
2449 24-03-2019 13:25:00 10.7 C 82 % 7.76 C
2450 24-03-2019 13:30:00 10.7 C 81 % 7.58 C
Sensor: Nr:Datum:Temp:Feuchte:Taupunkt:
Aussen-T/F 2451 24-03-2019 13:35:00 10.7 C 82 % 7.76 C
2452 24-03-2019 13:40:00 10.7 C 82 % 7.76 C
2453 24-03-2019 13:45:00 10.8 C 82 % 7.85 C
2454 24-03-2019 13:50:00 10.8 C 83 % 8.03 C
2455 24-03-2019 13:55:00 10.9 C 82 % 7.95 C
2456 24-03-2019 14:00:00 10.7 C 82 % 7.76 C
2457 24-03-2019 14:05:00 10.6 C 83 % 7.84 C
2458 24-03-2019 14:10:00 10.5 C 84 % 7.91 C
2459 24-03-2019 14:15:00 10.6 C 84 % 8.01 C
2460 24-03-2019 14:20:00 10.6 C 84 % 8.01 C
2461 24-03-2019 14:25:00 10.6 C 82 % 7.66 C
2462 24-03-2019 14:30:00 10.6 C 83 % 7.84 C
2463 24-03-2019 14:35:00 10.7 C 83 % 7.93 C
2464 24-03-2019 14:40:00 10.7 C 82 % 7.76 C
2465 24-03-2019 14:45:00 10.7 C 82 % 7.76 C
2466 24-03-2019 14:50:00 10.7 C 81 % 7.58 C
2467 24-03-2019 14:55:00 10.7 C 81 % 7.58 C
2468 24-03-2019 15:00:00 10.7 C 81 % 7.58 C
2469 24-03-2019 15:05:00 10.7 C 81 % 7.58 C
2470 24-03-2019 15:10:00 10.7 C 80 % 7.4 C
2471 24-03-2019 15:15:00 10.8 C 80 % 7.49 C
2472 24-03-2019 15:20:00 10.8 C 79 % 7.31 C
2473 24-03-2019 15:25:00 10.9 C 79 % 7.41 C
2474 24-03-2019 15:30:00 11.1 C 78 % 7.41 C
2475 24-03-2019 15:35:00 11.2 C 78 % 7.51 C
Sensor: Nr:Datum:Temp:Feuchte:Taupunkt:
Aussen-T/F 2476 24-03-2019 15:40:00 11.4 C 77 % 7.52 C
2477 24-03-2019 15:45:00 11.6 C 76 % 7.52 C
2478 24-03-2019 15:50:00 11.6 C 74 % 7.13 C
2479 24-03-2019 15:55:00 11.6 C 76 % 7.52 C
2480 24-03-2019 16:00:00 11.6 C 75 % 7.33 C
2481 24-03-2019 16:05:00 11.8 C 75 % 7.52 C
2482 24-03-2019 16:10:00 12 C 75 % 7.71 C
2483 24-03-2019 16:15:00 12.2 C 74 % 7.71 C
2484 24-03-2019 16:20:00 12.3 C 72 % 7.4 C
2485 24-03-2019 16:25:00 12.1 C 72 % 7.21 C
2486 24-03-2019 16:30:00 12.1 C 72 % 7.21 C
2487 24-03-2019 16:35:00 12.2 C 71 % 7.1 C
2488 24-03-2019 16:40:00 12.2 C 70 % 6.9 C
2489 24-03-2019 16:45:00 12.1 C 69 % 6.59 C
2490 24-03-2019 16:50:00 12 C 67 % 6.07 C
2491 24-03-2019 16:55:00 11.8 C 68 % 6.09 C
2492 24-03-2019 17:00:00 11.7 C 68 % 6 C
2493 24-03-2019 17:05:00 11.8 C 69 % 6.31 C
2494 24-03-2019 17:10:00 11.9 C 68 % 6.19 C
2495 24-03-2019 17:15:00 12.1 C 67 % 6.17 C
2496 24-03-2019 17:20:00 12.3 C 66 % 6.14 C
2497 24-03-2019 17:25:00 12.5 C 65 % 6.11 C
2498 24-03-2019 17:30:00 12.6 C 64 % 5.98 C
2499 24-03-2019 17:35:00 12.6 C 64 % 5.98 C
2500 24-03-2019 17:40:00 12.6 C 64 % 5.98 C
Sensor: Nr:Datum:Temp:Feuchte:Taupunkt:
Aussen-T/F 2501 24-03-2019 17:45:00 12.5 C 62 % 5.43 C
2502 24-03-2019 17:50:00 12.4 C 62 % 5.33 C
2503 24-03-2019 17:55:00 12.4 C 61 % 5.1 C
2504 24-03-2019 18:00:00 12.2 C 61 % 4.91 C
2505 24-03-2019 18:05:00 12.1 C 61 % 4.82 C
2506 24-03-2019 18:10:00 11.9 C 62 % 4.86 C
2507 24-03-2019 18:15:00 11.9 C 62 % 4.86 C
2508 24-03-2019 18:20:00 11.8 C 63 % 5 C
2509 24-03-2019 18:25:00 11.7 C 62 % 4.67 C
2510 24-03-2019 18:30:00 11.4 C 62 % 4.39 C
2511 24-03-2019 18:35:00 11.1 C 62 % 4.11 C
2512 24-03-2019 18:40:00 10.8 C 63 % 4.05 C
2513 24-03-2019 18:45:00 10.5 C 63 % 3.77 C
2514 24-03-2019 18:50:00 10.3 C 64 % 3.8 C
2515 24-03-2019 18:55:00 10 C 64 % 3.51 C
2516 24-03-2019 19:00:00 9.8 C 64 % 3.32 C
2517 24-03-2019 19:05:00 9.6 C 65 % 3.35 C
2518 24-03-2019 19:10:00 9.4 C 65 % 3.16 C
2519 24-03-2019 19:15:00 9.3 C 64 % 2.85 C
2520 24-03-2019 19:20:00 9.2 C 65 % 2.97 C
2521 24-03-2019 19:25:00 8.9 C 65 % 2.69 C
2522 24-03-2019 19:30:00 8.8 C 66 % 2.81 C
2523 24-03-2019 19:35:00 8.8 C 66 % 2.81 C
2524 24-03-2019 19:40:00 8.9 C 65 % 2.69 C
2525 24-03-2019 19:45:00 8.8 C 64 % 2.38 C
Sensor: Nr:Datum:Temp:Feuchte:Taupunkt:
Aussen-T/F 2526 24-03-2019 19:50:00 8.8 C 66 % 2.81 C
2527 24-03-2019 19:55:00 8.6 C 66 % 2.62 C
2528 24-03-2019 20:00:00 8.2 C 67 % 2.45 C
2529 24-03-2019 20:05:00 7.9 C 69 % 2.57 C
2530 24-03-2019 20:10:00 7.7 C 69 % 2.38 C
2531 24-03-2019 20:15:00 7.5 C 69 % 2.19 C
2532 24-03-2019 20:20:00 7.3 C 70 % 2.2 C
2533 24-03-2019 20:25:00 7.2 C 70 % 2.11 C
2534 24-03-2019 20:30:00 7.1 C 71 % 2.21 C
2535 24-03-2019 20:35:00 6.9 C 72 % 2.21 C
2536 24-03-2019 20:40:00 6.7 C 73 % 2.21 C
2537 24-03-2019 20:45:00 6.7 C 73 % 2.21 C
2538 24-03-2019 20:50:00 6.6 C 73 % 2.12 C
2539 24-03-2019 20:55:00 6.4 C 74 % 2.11 C
2540 24-03-2019 21:00:00 6.3 C 74 % 2.02 C
2541 24-03-2019 21:05:00 6.2 C 74 % 1.92 C
2542 24-03-2019 21:10:00 6 C 74 % 1.73 C
2543 24-03-2019 21:15:00 5.8 C 75 % 1.72 C
2544 24-03-2019 21:20:00 5.8 C 76 % 1.91 C
2545 24-03-2019 21:25:00 5.6 C 77 % 1.89 C
2546 24-03-2019 21:30:00 5.4 C 77 % 1.7 C
2547 24-03-2019 21:35:00 5.4 C 77 % 1.7 C
2548 24-03-2019 21:40:00 5.3 C 78 % 1.78 C
2549 24-03-2019 21:45:00 5.3 C 78 % 1.78 C
2550 24-03-2019 21:50:00 5.1 C 78 % 1.59 C
Sensor: Nr:Datum:Temp:Feuchte:Taupunkt:
Aussen-T/F 2551 24-03-2019 21:55:00 4.9 C 78 % 1.39 C
2552 24-03-2019 22:00:00 4.8 C 79 % 1.47 C
2553 24-03-2019 22:05:00 4.7 C 80 % 1.55 C
2554 24-03-2019 22:10:00 4.6 C 80 % 1.46 C
2555 24-03-2019 22:15:00 4.5 C 80 % 1.36 C
2556 24-03-2019 22:20:00 4.3 C 80 % 1.16 C
2557 24-03-2019 22:25:00 4.2 C 81 % 1.24 C
2558 24-03-2019 22:30:00 4.1 C 81 % 1.14 C
2559 24-03-2019 22:35:00 4.1 C 81 % 1.14 C
2560 24-03-2019 22:40:00 4 C 81 % 1.04 C
2561 24-03-2019 22:45:00 3.9 C 82 % 1.12 C
2562 24-03-2019 22:50:00 3.8 C 82 % 1.02 C
2563 24-03-2019 22:55:00 3.8 C 82 % 1.02 C
2564 24-03-2019 23:00:00 3.7 C 82 % 0.92 C
2565 24-03-2019 23:05:00 3.7 C 83 % 1.09 C
2566 24-03-2019 23:10:00 3.7 C 83 % 1.09 C
2567 24-03-2019 23:15:00 3.6 C 83 % 0.99 C
2568 24-03-2019 23:20:00 3.6 C 83 % 0.99 C
2569 24-03-2019 23:25:00 3.6 C 83 % 0.99 C
2570 24-03-2019 23:30:00 3.6 C 83 % 0.99 C
2571 24-03-2019 23:35:00 3.5 C 83 % 0.89 C
2572 24-03-2019 23:40:00 3.4 C 82 % 0.63 C
2573 24-03-2019 23:45:00 3.4 C 83 % 0.79 C
2574 24-03-2019 23:50:00 3.5 C 83 % 0.89 C
2575 24-03-2019 23:55:00 3.5 C 82 % 0.72 C
Sensor: Nr:Datum:Temp:Feuchte:Taupunkt:
Aussen-T/F 2576 25-03-2019 00:00:00 3.6 C 82 % 0.82 C
2577 25-03-2019 00:05:00 3.6 C 82 % 0.82 C
2578 25-03-2019 00:10:00 3.6 C 82 % 0.82 C
2579 25-03-2019 00:15:00 3.5 C 82 % 0.72 C
2580 25-03-2019 00:20:00 3.6 C 82 % 0.82 C
2581 25-03-2019 00:25:00 3.6 C 82 % 0.82 C
2582 25-03-2019 00:30:00 3.6 C 82 % 0.82 C
2583 25-03-2019 00:35:00 3.4 C 82 % 0.63 C
2584 25-03-2019 00:40:00 3.2 C 82 % 0.43 C
2585 25-03-2019 00:45:00 3 C 83 % 0.4 C
2586 25-03-2019 00:50:00 2.8 C 84 % 0.37 C
2587 25-03-2019 00:55:00 2.7 C 85 % 0.44 C
2588 25-03-2019 01:00:00 2.7 C 85 % 0.44 C
2589 25-03-2019 01:05:00 2.6 C 85 % 0.34 C
2590 25-03-2019 01:10:00 2.4 C 85 % 0.14 C
2591 25-03-2019 01:15:00 2.2 C 85 % -0.05 C
2592 25-03-2019 01:20:00 1.9 C 85 % -0.35 C
2593 25-03-2019 01:25:00 1.8 C 86 % -0.29 C
2594 25-03-2019 01:30:00 1.7 C 86 % -0.38 C
2595 25-03-2019 01:35:00 1.6 C 87 % -0.32 C
2596 25-03-2019 01:40:00 1.4 C 87 % -0.52 C
2597 25-03-2019 01:45:00 1.4 C 88 % -0.36 C
2598 25-03-2019 01:50:00 1.4 C 89 % -0.21 C
2599 25-03-2019 01:55:00 1.4 C 89 % -0.21 C
2600 25-03-2019 02:00:00 1.4 C 89 % -0.21 C
Sensor: Nr:Datum:Temp:Feuchte:Taupunkt:
Aussen-T/F 2601 25-03-2019 02:05:00 1.6 C 89 % -0.01 C
2602 25-03-2019 02:10:00 1.6 C 89 % -0.01 C
2603 25-03-2019 02:15:00 1.7 C 89 % 0.09 C
2604 25-03-2019 02:20:00 1.8 C 89 % 0.19 C
2605 25-03-2019 02:25:00 1.9 C 89 % 0.28 C
2606 25-03-2019 02:30:00 1.9 C 89 % 0.28 C
2607 25-03-2019 02:35:00 2 C 89 % 0.38 C
2608 25-03-2019 02:40:00 2.1 C 89 % 0.48 C
2609 25-03-2019 02:45:00 2.2 C 89 % 0.58 C
2610 25-03-2019 02:50:00 2.2 C 89 % 0.58 C
2611 25-03-2019 02:55:00 2.3 C 88 % 0.52 C
2612 25-03-2019 03:00:00 2.2 C 88 % 0.42 C
2613 25-03-2019 03:05:00 2.2 C 88 % 0.42 C
2614 25-03-2019 03:10:00 2.2 C 88 % 0.42 C
2615 25-03-2019 03:15:00 2.3 C 88 % 0.52 C
2616 25-03-2019 03:20:00 2.3 C 88 % 0.52 C
2617 25-03-2019 03:25:00 2.3 C 88 % 0.52 C
2618 25-03-2019 03:30:00 2.2 C 88 % 0.42 C
2619 25-03-2019 03:35:00 2.3 C 88 % 0.52 C
2620 25-03-2019 03:40:00 2.3 C 88 % 0.52 C
2621 25-03-2019 03:45:00 2.4 C 88 % 0.62 C
2622 25-03-2019 03:50:00 2.4 C 88 % 0.62 C
2623 25-03-2019 03:55:00 2.4 C 88 % 0.62 C
2624 25-03-2019 04:00:00 2.4 C 87 % 0.46 C
2625 25-03-2019 04:05:00 2.4 C 87 % 0.46 C
Sensor: Nr:Datum:Temp:Feuchte:Taupunkt:
Aussen-T/F 2626 25-03-2019 04:10:00 2.4 C 87 % 0.46 C
2627 25-03-2019 04:15:00 2.4 C 88 % 0.62 C
2628 25-03-2019 04:20:00 2.6 C 88 % 0.82 C
2629 25-03-2019 04:25:00 2.7 C 88 % 0.92 C
2630 25-03-2019 04:30:00 2.9 C 87 % 0.96 C
2631 25-03-2019 04:35:00 3.1 C 86 % 0.99 C
2632 25-03-2019 04:40:00 3.3 C 85 % 1.03 C
2633 25-03-2019 04:45:00 3.4 C 84 % 0.96 C
2634 25-03-2019 04:50:00 3.3 C 83 % 0.7 C
2635 25-03-2019 04:55:00 3.4 C 83 % 0.79 C
2636 25-03-2019 05:00:00 3.4 C 83 % 0.79 C
2637 25-03-2019 05:05:00 3.5 C 83 % 0.89 C
2638 25-03-2019 05:10:00 3.6 C 83 % 0.99 C
2639 25-03-2019 05:15:00 3.6 C 83 % 0.99 C
2640 25-03-2019 05:20:00 3.7 C 83 % 1.09 C
2641 25-03-2019 05:25:00 3.8 C 82 % 1.02 C
2642 25-03-2019 05:30:00 3.9 C 81 % 0.95 C
2643 25-03-2019 05:35:00 3.8 C 82 % 1.02 C
2644 25-03-2019 05:40:00 3.7 C 82 % 0.92 C
2645 25-03-2019 05:45:00 3.7 C 82 % 0.92 C
2646 25-03-2019 05:50:00 3.7 C 82 % 0.92 C
2647 25-03-2019 05:55:00 3.7 C 83 % 1.09 C
2648 25-03-2019 06:00:00 3.7 C 83 % 1.09 C
2649 25-03-2019 06:05:00 3.7 C 83 % 1.09 C
2650 25-03-2019 06:10:00 3.7 C 83 % 1.09 C
Sensor: Nr:Datum:Temp:Feuchte:Taupunkt:
Aussen-T/F 2651 25-03-2019 06:15:00 3.7 C 83 % 1.09 C
2652 25-03-2019 06:20:00 3.7 C 83 % 1.09 C
2653 25-03-2019 06:25:00 3.7 C 83 % 1.09 C
2654 25-03-2019 06:30:00 3.7 C 83 % 1.09 C
2655 25-03-2019 06:35:00 3.8 C 83 % 1.19 C
2656 25-03-2019 06:40:00 3.8 C 83 % 1.19 C
2657 25-03-2019 06:45:00 3.8 C 83 % 1.19 C
2658 25-03-2019 06:50:00 3.8 C 83 % 1.19 C
2659 25-03-2019 06:55:00 3.8 C 84 % 1.35 C
2660 25-03-2019 07:00:00 3.9 C 84 % 1.45 C
2661 25-03-2019 07:05:00 4 C 84 % 1.55 C
2662 25-03-2019 07:10:00 4.2 C 84 % 1.74 C
2663 25-03-2019 07:15:00 4.4 C 84 % 1.94 C
2664 25-03-2019 07:20:00 4.6 C 84 % 2.14 C
2665 25-03-2019 07:25:00 4.7 C 84 % 2.23 C
2666 25-03-2019 07:30:00 4.6 C 84 % 2.14 C
2667 25-03-2019 07:35:00 4.5 C 85 % 2.2 C
2668 25-03-2019 07:40:00 4.5 C 86 % 2.37 C
2669 25-03-2019 07:45:00 4.4 C 86 % 2.27 C
2670 25-03-2019 07:50:00 4.4 C 87 % 2.43 C
2671 25-03-2019 07:55:00 4.4 C 86 % 2.27 C
2672 25-03-2019 08:00:00 4.3 C 87 % 2.33 C
2673 25-03-2019 08:05:00 4.3 C 89 % 2.65 C
2674 25-03-2019 08:10:00 4.3 C 90 % 2.81 C
2675 25-03-2019 08:15:00 4.3 C 90 % 2.81 C
Sensor: Nr:Datum:Temp:Feuchte:Taupunkt:
Aussen-T/F 2676 25-03-2019 08:20:00 4.3 C 91 % 2.96 C
2677 25-03-2019 08:25:00 4.4 C 92 % 3.22 C
2678 25-03-2019 08:30:00 4.6 C 92 % 3.42 C
2679 25-03-2019 08:35:00 4.7 C 92 % 3.51 C
2680 25-03-2019 08:40:00 4.8 C 92 % 3.61 C
2681 25-03-2019 08:45:00 4.8 C 92 % 3.61 C
2682 25-03-2019 08:50:00 4.9 C 92 % 3.71 C
2683 25-03-2019 08:55:00 5.1 C 93 % 4.06 C
2684 25-03-2019 09:00:00 5.4 C 93 % 4.36 C
2685 25-03-2019 09:05:00 5.7 C 90 % 4.19 C
2686 25-03-2019 09:10:00 5.9 C 88 % 4.07 C
2687 25-03-2019 09:15:00 6 C 87 % 4 C
2688 25-03-2019 09:20:00 6.1 C 86 % 3.94 C
2689 25-03-2019 09:25:00 6.1 C 86 % 3.94 C
2690 25-03-2019 09:30:00 6.2 C 86 % 4.04 C
2691 25-03-2019 09:35:00 6.2 C 82 % 3.36 C
2692 25-03-2019 09:40:00 6.3 C 82 % 3.46 C
2693 25-03-2019 09:45:00 6.4 C 82 % 3.56 C
2694 25-03-2019 09:50:00 6.6 C 81 % 3.58 C
2695 25-03-2019 09:55:00 6.9 C 80 % 3.7 C
2696 25-03-2019 10:00:00 7.1 C 76 % 3.16 C
2697 25-03-2019 10:05:00 7.3 C 77 % 3.54 C
2698 25-03-2019 10:10:00 7.4 C 74 % 3.08 C
2699 25-03-2019 10:15:00 7.4 C 71 % 2.5 C
2700 25-03-2019 10:20:00 7.5 C 72 % 2.79 C
Sensor: Nr:Datum:Temp:Feuchte:Taupunkt:
Aussen-T/F 2701 25-03-2019 10:25:00 7.5 C 72 % 2.79 C
2702 25-03-2019 10:30:00 7.6 C 72 % 2.88 C
2703 25-03-2019 10:35:00 7.8 C 72 % 3.08 C
2704 25-03-2019 10:40:00 7.7 C 75 % 3.56 C
2705 25-03-2019 10:45:00 7.4 C 76 % 3.45 C
2706 25-03-2019 10:50:00 7.1 C 77 % 3.35 C
2707 25-03-2019 10:55:00 7.2 C 78 % 3.63 C
2708 25-03-2019 11:00:00 7.3 C 76 % 3.36 C
2709 25-03-2019 11:05:00 7.5 C 75 % 3.36 C
2710 25-03-2019 11:10:00 7.6 C 75 % 3.46 C
2711 25-03-2019 11:15:00 7.6 C 73 % 3.08 C
2712 25-03-2019 11:20:00 7.8 C 73 % 3.27 C
2713 25-03-2019 11:25:00 7.8 C 71 % 2.88 C
2714 25-03-2019 11:30:00 7.7 C 71 % 2.78 C
2715 25-03-2019 11:35:00 7.2 C 76 % 3.26 C
2716 25-03-2019 11:40:00 6.9 C 79 % 3.52 C
2717 25-03-2019 11:45:00 6.9 C 80 % 3.7 C
2718 25-03-2019 11:50:00 7 C 81 % 3.97 C
2719 25-03-2019 11:55:00 7.2 C 78 % 3.63 C
2720 25-03-2019 12:00:00 7.7 C 77 % 3.93 C
2721 25-03-2019 12:05:00 7.9 C 75 % 3.75 C
2722 25-03-2019 12:10:00 7.8 C 75 % 3.65 C
2723 25-03-2019 12:15:00 7.4 C 79 % 4 C
2724 25-03-2019 12:20:00 7.3 C 79 % 3.91 C
2725 25-03-2019 12:25:00 7.5 C 80 % 4.28 C
Sensor: Nr:Datum:Temp:Feuchte:Taupunkt:
Aussen-T/F 2726 25-03-2019 12:30:00 7.8 C 78 % 4.21 C
2727 25-03-2019 12:35:00 8.2 C 77 % 4.42 C
2728 25-03-2019 12:40:00 8.4 C 75 % 4.23 C
2729 25-03-2019 12:45:00 8.2 C 75 % 4.04 C
2730 25-03-2019 12:50:00 7.4 C 80 % 4.18 C
2731 25-03-2019 12:55:00 7.1 C 82 % 4.24 C
2732 25-03-2019 13:00:00 7.2 C 84 % 4.68 C
2733 25-03-2019 13:05:00 7.2 C 82 % 4.34 C
2734 25-03-2019 13:10:00 6.7 C 83 % 4.02 C
2735 25-03-2019 13:15:00 6.5 C 85 % 4.17 C
2736 25-03-2019 13:20:00 6.7 C 87 % 4.69 C
2737 25-03-2019 13:25:00 7.1 C 85 % 4.75 C
2738 25-03-2019 13:30:00 7.5 C 81 % 4.46 C
2739 25-03-2019 13:35:00 7.8 C 79 % 4.39 C
2740 25-03-2019 13:40:00 8.2 C 78 % 4.6 C
2741 25-03-2019 13:45:00 8.5 C 75 % 4.33 C
2742 25-03-2019 13:50:00 8.6 C 75 % 4.43 C
2743 25-03-2019 13:55:00 8.6 C 74 % 4.24 C
2744 25-03-2019 14:00:00 8.4 C 73 % 3.85 C
2745 25-03-2019 14:05:00 8.2 C 73 % 3.66 C
2746 25-03-2019 14:10:00 7.8 C 73 % 3.27 C
2747 25-03-2019 14:15:00 7.2 C 76 % 3.26 C
2748 25-03-2019 14:20:00 7 C 77 % 3.25 C
2749 25-03-2019 14:25:00 7.1 C 79 % 3.71 C
2750 25-03-2019 14:30:00 7.4 C 79 % 4 C
Sensor: Nr:Datum:Temp:Feuchte:Taupunkt:
Aussen-T/F 2751 25-03-2019 14:35:00 7.7 C 79 % 4.3 C
2752 25-03-2019 14:40:00 7.8 C 78 % 4.21 C
2753 25-03-2019 14:45:00 7.8 C 77 % 4.03 C
2754 25-03-2019 14:50:00 7.8 C 78 % 4.21 C
2755 25-03-2019 14:55:00 7.7 C 79 % 4.3 C
2756 25-03-2019 15:00:00 7.8 C 79 % 4.39 C
2757 25-03-2019 15:05:00 7.8 C 77 % 4.03 C
2758 25-03-2019 15:10:00 7.8 C 77 % 4.03 C
2759 25-03-2019 15:15:00 7.6 C 79 % 4.2 C
2760 25-03-2019 15:20:00 6.8 C 82 % 3.95 C
2761 25-03-2019 15:25:00 6.4 C 84 % 3.9 C
2762 25-03-2019 15:30:00 6.6 C 88 % 4.76 C
2763 25-03-2019 15:35:00 6.7 C 88 % 4.86 C
2764 25-03-2019 15:40:00 7.1 C 90 % 5.57 C
2765 25-03-2019 15:45:00 7.2 C 87 % 5.19 C
2766 25-03-2019 15:50:00 7.2 C 87 % 5.19 C
2767 25-03-2019 15:55:00 7.2 C 87 % 5.19 C
2768 25-03-2019 16:00:00 7.2 C 85 % 4.85 C
2769 25-03-2019 16:05:00 7.3 C 84 % 4.78 C
2770 25-03-2019 16:10:00 7.3 C 85 % 4.95 C
2771 25-03-2019 16:15:00 7.4 C 84 % 4.88 C
2772 25-03-2019 16:20:00 7.5 C 84 % 4.98 C
2773 25-03-2019 16:25:00 7.6 C 83 % 4.9 C
2774 25-03-2019 16:30:00 7.6 C 83 % 4.9 C
2775 25-03-2019 16:35:00 7.6 C 83 % 4.9 C
Sensor: Nr:Datum:Temp:Feuchte:Taupunkt:
Aussen-T/F 2776 25-03-2019 16:40:00 7.6 C 83 % 4.9 C
2777 25-03-2019 16:45:00 7.1 C 84 % 4.58 C
2778 25-03-2019 16:50:00 6.7 C 85 % 4.36 C
2779 25-03-2019 16:55:00 6.6 C 86 % 4.43 C
2780 25-03-2019 17:00:00 6.4 C 87 % 4.4 C
2781 25-03-2019 17:05:00 6.3 C 87 % 4.3 C
2782 25-03-2019 17:10:00 6.2 C 88 % 4.36 C
2783 25-03-2019 17:15:00 5.9 C 89 % 4.23 C
2784 25-03-2019 17:20:00 5.6 C 89 % 3.93 C
2785 25-03-2019 17:25:00 5.6 C 90 % 4.09 C
2786 25-03-2019 17:30:00 5.6 C 91 % 4.25 C
2787 25-03-2019 17:35:00 5.5 C 91 % 4.15 C
2788 25-03-2019 17:40:00 5.4 C 91 % 4.05 C
2789 25-03-2019 17:45:00 5.4 C 92 % 4.21 C
2790 25-03-2019 17:50:00 5.4 C 92 % 4.21 C
2791 25-03-2019 17:55:00 5.3 C 92 % 4.11 C
2792 25-03-2019 18:00:00 5.3 C 92 % 4.11 C
2793 25-03-2019 18:05:00 5.3 C 93 % 4.26 C
2794 25-03-2019 18:10:00 5.3 C 93 % 4.26 C
2795 25-03-2019 18:15:00 5.3 C 93 % 4.26 C
2796 25-03-2019 18:20:00 5.3 C 93 % 4.26 C
2797 25-03-2019 18:25:00 5.3 C 93 % 4.26 C
2798 25-03-2019 18:30:00 5.3 C 93 % 4.26 C
2799 25-03-2019 18:35:00 5.3 C 93 % 4.26 C
2800 25-03-2019 18:40:00 5.3 C 94 % 4.41 C
Sensor: Nr:Datum:Temp:Feuchte:Taupunkt:
Aussen-T/F 2801 25-03-2019 18:45:00 5.3 C 94 % 4.41 C
2802 25-03-2019 18:50:00 5.3 C 94 % 4.41 C
2803 25-03-2019 18:55:00 5.3 C 94 % 4.41 C
2804 25-03-2019 19:00:00 5.3 C 94 % 4.41 C
2805 25-03-2019 19:05:00 5.3 C 94 % 4.41 C
2806 25-03-2019 19:10:00 5.3 C 94 % 4.41 C
2807 25-03-2019 19:15:00 5.2 C 94 % 4.32 C
2808 25-03-2019 19:20:00 5.1 C 93 % 4.06 C
2809 25-03-2019 19:25:00 4.9 C 93 % 3.87 C
2810 25-03-2019 19:30:00 4.8 C 94 % 3.92 C
2811 25-03-2019 19:35:00 4.8 C 94 % 3.92 C
2812 25-03-2019 19:40:00 4.9 C 94 % 4.02 C
2813 25-03-2019 19:45:00 4.9 C 94 % 4.02 C
2814 25-03-2019 19:50:00 5 C 94 % 4.12 C
2815 25-03-2019 19:55:00 5 C 94 % 4.12 C
2816 25-03-2019 20:00:00 5.1 C 94 % 4.22 C
2817 25-03-2019 20:05:00 5.1 C 94 % 4.22 C
2818 25-03-2019 20:10:00 5.1 C 94 % 4.22 C
2819 25-03-2019 20:15:00 5.1 C 95 % 4.37 C
2820 25-03-2019 20:20:00 5.1 C 95 % 4.37 C
2821 25-03-2019 20:25:00 5.1 C 95 % 4.37 C
2822 25-03-2019 20:30:00 5.1 C 95 % 4.37 C
2823 25-03-2019 20:35:00 5 C 95 % 4.27 C
2824 25-03-2019 20:40:00 5 C 95 % 4.27 C
2825 25-03-2019 20:45:00 5.1 C 95 % 4.37 C
Sensor: Nr:Datum:Temp:Feuchte:Taupunkt:
Aussen-T/F 2826 25-03-2019 20:50:00 5.2 C 95 % 4.47 C
2827 25-03-2019 20:55:00 5.2 C 95 % 4.47 C
2828 25-03-2019 21:00:00 5.3 C 95 % 4.57 C
2829 25-03-2019 21:05:00 5.3 C 95 % 4.57 C
2830 25-03-2019 21:10:00 5.3 C 95 % 4.57 C
2831 25-03-2019 21:15:00 5.3 C 95 % 4.57 C
2832 25-03-2019 21:20:00 5.3 C 95 % 4.57 C
2833 25-03-2019 21:25:00 5.3 C 95 % 4.57 C
2834 25-03-2019 21:30:00 5.2 C 95 % 4.47 C
2835 25-03-2019 21:35:00 5.2 C 95 % 4.47 C
2836 25-03-2019 21:40:00 5.2 C 95 % 4.47 C
2837 25-03-2019 21:45:00 5.2 C 95 % 4.47 C
2838 25-03-2019 21:50:00 5.2 C 95 % 4.47 C
2839 25-03-2019 21:55:00 5.1 C 95 % 4.37 C
2840 25-03-2019 22:00:00 5.2 C 94 % 4.32 C
2841 25-03-2019 22:05:00 5.3 C 94 % 4.41 C
2842 25-03-2019 22:10:00 5.3 C 93 % 4.26 C
2843 25-03-2019 22:15:00 5.2 C 93 % 4.16 C
2844 25-03-2019 22:20:00 5.2 C 92 % 4.01 C
2845 25-03-2019 22:25:00 5.1 C 93 % 4.06 C
2846 25-03-2019 22:30:00 5.1 C 93 % 4.06 C
2847 25-03-2019 22:35:00 5.1 C 93 % 4.06 C
2848 25-03-2019 22:40:00 5.1 C 93 % 4.06 C
2849 25-03-2019 22:45:00 5.1 C 93 % 4.06 C
2850 25-03-2019 22:50:00 5.1 C 93 % 4.06 C
Sensor: Nr:Datum:Temp:Feuchte:Taupunkt:
Aussen-T/F 2851 25-03-2019 22:55:00 5.1 C 93 % 4.06 C
2852 25-03-2019 23:00:00 5 C 93 % 3.96 C
2853 25-03-2019 23:05:00 5 C 93 % 3.96 C
2854 25-03-2019 23:10:00 4.9 C 93 % 3.87 C
2855 25-03-2019 23:15:00 4.9 C 93 % 3.87 C
2856 25-03-2019 23:20:00 4.8 C 93 % 3.77 C
2857 25-03-2019 23:25:00 4.7 C 93 % 3.67 C
2858 25-03-2019 23:30:00 4.6 C 93 % 3.57 C
2859 25-03-2019 23:35:00 4.5 C 93 % 3.47 C
2860 25-03-2019 23:40:00 4.4 C 94 % 3.52 C
2861 25-03-2019 23:45:00 4.4 C 94 % 3.52 C
2862 25-03-2019 23:50:00 4.3 C 94 % 3.42 C
2863 25-03-2019 23:55:00 4.3 C 94 % 3.42 C
2864 26-03-2019 00:00:00 4.3 C 94 % 3.42 C
2865 26-03-2019 00:05:00 4.3 C 94 % 3.42 C
2866 26-03-2019 00:10:00 4.3 C 94 % 3.42 C
2867 26-03-2019 00:15:00 4.4 C 94 % 3.52 C
2868 26-03-2019 00:20:00 4.4 C 94 % 3.52 C
2869 26-03-2019 00:25:00 4.4 C 95 % 3.67 C
2870 26-03-2019 00:30:00 4.6 C 95 % 3.87 C
2871 26-03-2019 00:35:00 4.6 C 95 % 3.87 C
2872 26-03-2019 00:40:00 4.6 C 95 % 3.87 C
2873 26-03-2019 00:45:00 4.6 C 95 % 3.87 C
2874 26-03-2019 00:50:00 4.7 C 95 % 3.97 C
2875 26-03-2019 00:55:00 4.7 C 95 % 3.97 C
Sensor: Nr:Datum:Temp:Feuchte:Taupunkt:
Aussen-T/F 2876 26-03-2019 01:00:00 4.7 C 94 % 3.82 C
2877 26-03-2019 01:05:00 4.7 C 94 % 3.82 C
2878 26-03-2019 01:10:00 4.7 C 94 % 3.82 C
2879 26-03-2019 01:15:00 4.7 C 94 % 3.82 C
2880 26-03-2019 01:20:00 4.7 C 94 % 3.82 C
2881 26-03-2019 01:25:00 4.6 C 94 % 3.72 C
2882 26-03-2019 01:30:00 4.6 C 94 % 3.72 C
2883 26-03-2019 01:35:00 4.4 C 94 % 3.52 C
2884 26-03-2019 01:40:00 4.3 C 94 % 3.42 C
2885 26-03-2019 01:45:00 4.3 C 94 % 3.42 C
2886 26-03-2019 01:50:00 4.3 C 94 % 3.42 C
2887 26-03-2019 01:55:00 4.3 C 94 % 3.42 C
2888 26-03-2019 02:00:00 4.3 C 94 % 3.42 C
2889 26-03-2019 02:05:00 4.3 C 95 % 3.57 C
2890 26-03-2019 02:10:00 4.3 C 95 % 3.57 C
2891 26-03-2019 02:15:00 4.4 C 95 % 3.67 C
2892 26-03-2019 02:20:00 4.4 C 95 % 3.67 C
2893 26-03-2019 02:25:00 4.4 C 95 % 3.67 C
2894 26-03-2019 02:30:00 4.4 C 95 % 3.67 C
2895 26-03-2019 02:35:00 4.4 C 95 % 3.67 C
2896 26-03-2019 02:40:00 4.4 C 95 % 3.67 C
2897 26-03-2019 02:45:00 4.4 C 95 % 3.67 C
2898 26-03-2019 02:50:00 4.4 C 95 % 3.67 C
2899 26-03-2019 02:55:00 4.4 C 95 % 3.67 C
2900 26-03-2019 03:00:00 4.5 C 95 % 3.77 C
Sensor: Nr:Datum:Temp:Feuchte:Taupunkt:
Aussen-T/F 2901 26-03-2019 03:05:00 4.5 C 95 % 3.77 C
2902 26-03-2019 03:10:00 4.6 C 95 % 3.87 C
2903 26-03-2019 03:15:00 4.6 C 95 % 3.87 C
2904 26-03-2019 03:20:00 4.6 C 95 % 3.87 C
2905 26-03-2019 03:25:00 4.6 C 95 % 3.87 C
2906 26-03-2019 03:30:00 4.6 C 95 % 3.87 C
2907 26-03-2019 03:35:00 4.7 C 95 % 3.97 C
2908 26-03-2019 03:40:00 4.7 C 95 % 3.97 C
2909 26-03-2019 03:45:00 4.7 C 95 % 3.97 C
2910 26-03-2019 03:50:00 4.8 C 95 % 4.07 C
2911 26-03-2019 03:55:00 4.8 C 95 % 4.07 C
2912 26-03-2019 04:00:00 4.8 C 95 % 4.07 C
2913 26-03-2019 04:05:00 4.8 C 95 % 4.07 C
2914 26-03-2019 04:10:00 4.8 C 95 % 4.07 C
2915 26-03-2019 04:15:00 4.8 C 95 % 4.07 C
2916 26-03-2019 04:20:00 4.8 C 95 % 4.07 C
2917 26-03-2019 04:25:00 4.9 C 95 % 4.17 C
2918 26-03-2019 04:30:00 4.9 C 95 % 4.17 C
2919 26-03-2019 04:35:00 5 C 95 % 4.27 C
2920 26-03-2019 04:40:00 5 C 95 % 4.27 C
2921 26-03-2019 04:45:00 5 C 95 % 4.27 C
2922 26-03-2019 04:50:00 5.1 C 95 % 4.37 C
2923 26-03-2019 04:55:00 5.1 C 95 % 4.37 C
2924 26-03-2019 05:00:00 5.1 C 94 % 4.22 C
2925 26-03-2019 05:05:00 5 C 94 % 4.12 C
Sensor: Nr:Datum:Temp:Feuchte:Taupunkt:
Aussen-T/F 2926 26-03-2019 05:10:00 5 C 94 % 4.12 C
2927 26-03-2019 05:15:00 5 C 94 % 4.12 C
2928 26-03-2019 05:20:00 5 C 94 % 4.12 C
2929 26-03-2019 05:25:00 5 C 94 % 4.12 C
2930 26-03-2019 05:30:00 5 C 94 % 4.12 C
2931 26-03-2019 05:35:00 5 C 94 % 4.12 C
2932 26-03-2019 05:40:00 5 C 94 % 4.12 C
2933 26-03-2019 05:45:00 5 C 93 % 3.96 C
2934 26-03-2019 05:50:00 5 C 93 % 3.96 C
2935 26-03-2019 05:55:00 5 C 93 % 3.96 C
2936 26-03-2019 06:00:00 5 C 93 % 3.96 C
2937 26-03-2019 06:05:00 4.9 C 93 % 3.87 C
2938 26-03-2019 06:10:00 4.9 C 93 % 3.87 C
2939 26-03-2019 06:15:00 4.9 C 92 % 3.71 C
2940 26-03-2019 06:20:00 4.9 C 92 % 3.71 C
2941 26-03-2019 06:25:00 5 C 92 % 3.81 C
2942 26-03-2019 06:30:00 5 C 91 % 3.66 C
2943 26-03-2019 06:35:00 5 C 91 % 3.66 C
2944 26-03-2019 06:40:00 5.1 C 91 % 3.76 C
2945 26-03-2019 06:45:00 5.1 C 91 % 3.76 C
2946 26-03-2019 06:50:00 5.1 C 91 % 3.76 C
2947 26-03-2019 06:55:00 5 C 91 % 3.66 C
2948 26-03-2019 07:00:00 5 C 91 % 3.66 C
2949 26-03-2019 07:05:00 5 C 91 % 3.66 C
2950 26-03-2019 07:10:00 5 C 91 % 3.66 C
Sensor: Nr:Datum:Temp:Feuchte:Taupunkt:
Aussen-T/F 2951 26-03-2019 07:15:00 5 C 90 % 3.5 C
2952 26-03-2019 07:20:00 5 C 90 % 3.5 C
2953 26-03-2019 07:25:00 5.1 C 90 % 3.6 C
2954 26-03-2019 07:30:00 5.1 C 90 % 3.6 C
2955 26-03-2019 07:35:00 5.1 C 90 % 3.6 C
2956 26-03-2019 07:40:00 5.1 C 90 % 3.6 C
2957 26-03-2019 07:45:00 5.1 C 90 % 3.6 C
2958 26-03-2019 07:50:00 5.1 C 89 % 3.44 C
2959 26-03-2019 07:55:00 5.2 C 89 % 3.54 C
2960 26-03-2019 08:00:00 5.2 C 89 % 3.54 C
2961 26-03-2019 08:05:00 5.2 C 88 % 3.38 C
2962 26-03-2019 08:10:00 5.3 C 87 % 3.32 C
2963 26-03-2019 08:15:00 5.3 C 86 % 3.15 C
2964 26-03-2019 08:20:00 5.4 C 85 % 3.09 C
2965 26-03-2019 08:25:00 5.6 C 85 % 3.28 C
2966 26-03-2019 08:30:00 5.6 C 85 % 3.28 C
2967 26-03-2019 08:35:00 5.7 C 84 % 3.21 C
2968 26-03-2019 08:40:00 5.7 C 83 % 3.04 C
2969 26-03-2019 08:45:00 5.8 C 84 % 3.31 C
2970 26-03-2019 08:50:00 5.9 C 83 % 3.24 C
2971 26-03-2019 08:55:00 5.9 C 83 % 3.24 C
2972 26-03-2019 09:00:00 6.1 C 84 % 3.61 C
2973 26-03-2019 09:05:00 6.1 C 82 % 3.26 C
2974 26-03-2019 09:10:00 6.1 C 80 % 2.92 C
2975 26-03-2019 09:15:00 6.1 C 80 % 2.92 C
Sensor: Nr:Datum:Temp:Feuchte:Taupunkt:
Aussen-T/F 2976 26-03-2019 09:20:00 6.1 C 79 % 2.74 C
2977 26-03-2019 09:25:00 6.1 C 79 % 2.74 C
2978 26-03-2019 09:30:00 6.2 C 80 % 3.01 C
2979 26-03-2019 09:35:00 6.2 C 80 % 3.01 C
2980 26-03-2019 09:40:00 6.3 C 79 % 2.93 C
2981 26-03-2019 09:45:00 6.4 C 80 % 3.21 C
2982 26-03-2019 09:50:00 6.4 C 79 % 3.03 C
2983 26-03-2019 09:55:00 6.6 C 80 % 3.4 C
2984 26-03-2019 10:00:00 6.6 C 80 % 3.4 C
2985 26-03-2019 10:05:00 6.7 C 78 % 3.14 C
2986 26-03-2019 10:10:00 6.7 C 79 % 3.32 C
2987 26-03-2019 10:15:00 6.8 C 79 % 3.42 C
2988 26-03-2019 10:20:00 6.9 C 78 % 3.34 C
2989 26-03-2019 10:25:00 7 C 76 % 3.07 C
2990 26-03-2019 10:30:00 7.1 C 76 % 3.16 C
2991 26-03-2019 10:35:00 7.2 C 75 % 3.07 C
2992 26-03-2019 10:40:00 7.2 C 75 % 3.07 C
2993 26-03-2019 10:45:00 7.2 C 74 % 2.89 C
2994 26-03-2019 10:50:00 7.2 C 73 % 2.69 C
2995 26-03-2019 10:55:00 7.2 C 74 % 2.89 C
2996 26-03-2019 11:00:00 7.2 C 73 % 2.69 C
2997 26-03-2019 11:05:00 7.1 C 73 % 2.6 C
2998 26-03-2019 11:10:00 7.1 C 73 % 2.6 C
2999 26-03-2019 11:15:00 7.1 C 74 % 2.79 C
3000 26-03-2019 11:20:00 7.1 C 75 % 2.98 C
Sensor: Nr:Datum:Temp:Feuchte:Taupunkt:
Aussen-T/F 3001 26-03-2019 11:25:00 6.9 C 72 % 2.21 C
3002 26-03-2019 11:30:00 7 C 72 % 2.31 C
3003 26-03-2019 11:35:00 7.2 C 71 % 2.3 C
3004 26-03-2019 11:40:00 7.3 C 71 % 2.4 C
3005 26-03-2019 11:45:00 7.6 C 69 % 2.29 C
3006 26-03-2019 11:50:00 7.7 C 69 % 2.38 C
3007 26-03-2019 11:55:00 7.9 C 70 % 2.78 C
3008 26-03-2019 12:00:00 8.1 C 70 % 2.97 C
3009 26-03-2019 12:05:00 8.2 C 70 % 3.06 C
3010 26-03-2019 12:10:00 8.3 C 70 % 3.16 C
3011 26-03-2019 12:15:00 8.3 C 70 % 3.16 C
3012 26-03-2019 12:20:00 8.3 C 69 % 2.96 C
3013 26-03-2019 12:25:00 8.3 C 70 % 3.16 C
3014 26-03-2019 12:30:00 8.4 C 70 % 3.26 C
3015 26-03-2019 12:35:00 8.7 C 71 % 3.74 C
3016 26-03-2019 12:40:00 8.8 C 69 % 3.44 C
3017 26-03-2019 12:45:00 8.7 C 67 % 2.92 C
3018 26-03-2019 12:50:00 8.7 C 69 % 3.34 C
3019 26-03-2019 12:55:00 8.8 C 70 % 3.64 C
3020 26-03-2019 13:00:00 8.9 C 69 % 3.53 C
3021 26-03-2019 13:05:00 9 C 64 % 2.57 C
3022 26-03-2019 13:10:00 8.9 C 66 % 2.9 C
3023 26-03-2019 13:15:00 8.7 C 64 % 2.28 C
3024 26-03-2019 13:20:00 8.7 C 65 % 2.5 C
3025 26-03-2019 13:25:00 8.7 C 68 % 3.13 C
Sensor: Nr:Datum:Temp:Feuchte:Taupunkt:
Aussen-T/F 3026 26-03-2019 13:30:00 8.8 C 67 % 3.02 C
3027 26-03-2019 13:35:00 8.9 C 66 % 2.9 C
3028 26-03-2019 13:40:00 8.9 C 67 % 3.12 C
3029 26-03-2019 13:45:00 8.9 C 66 % 2.9 C
3030 26-03-2019 13:50:00 8.9 C 64 % 2.47 C
3031 26-03-2019 13:55:00 8.9 C 66 % 2.9 C
3032 26-03-2019 14:00:00 8.8 C 67 % 3.02 C
3033 26-03-2019 14:05:00 8.9 C 64 % 2.47 C
3034 26-03-2019 14:10:00 8.8 C 64 % 2.38 C
3035 26-03-2019 14:15:00 8.9 C 65 % 2.69 C
3036 26-03-2019 14:20:00 8.9 C 66 % 2.9 C
3037 26-03-2019 14:25:00 9 C 65 % 2.78 C
3038 26-03-2019 14:30:00 9.1 C 65 % 2.88 C
3039 26-03-2019 14:35:00 8.9 C 64 % 2.47 C
3040 26-03-2019 14:40:00 8.9 C 66 % 2.9 C
3041 26-03-2019 14:45:00 8.8 C 64 % 2.38 C
3042 26-03-2019 14:50:00 8.8 C 64 % 2.38 C
3043 26-03-2019 14:55:00 8.7 C 66 % 2.71 C
3044 26-03-2019 15:00:00 8.7 C 65 % 2.5 C
3045 26-03-2019 15:05:00 8.7 C 68 % 3.13 C
3046 26-03-2019 15:10:00 8.8 C 67 % 3.02 C
3047 26-03-2019 15:15:00 8.9 C 66 % 2.9 C
3048 26-03-2019 15:20:00 8.9 C 67 % 3.12 C
3049 26-03-2019 15:25:00 8.9 C 67 % 3.12 C
3050 26-03-2019 15:30:00 8.9 C 68 % 3.32 C
Sensor: Nr:Datum:Temp:Feuchte:Taupunkt:
Aussen-T/F 3051 26-03-2019 15:35:00 9 C 67 % 3.21 C
3052 26-03-2019 15:40:00 9.1 C 68 % 3.52 C
3053 26-03-2019 15:45:00 9.2 C 66 % 3.19 C
3054 26-03-2019 15:50:00 9.5 C 66 % 3.47 C
3055 26-03-2019 15:55:00 9.8 C 64 % 3.32 C
3056 26-03-2019 16:00:00 9.9 C 64 % 3.42 C
3057 26-03-2019 16:05:00 9.9 C 62 % 2.97 C
3058 26-03-2019 16:10:00 9.8 C 62 % 2.88 C
3059 26-03-2019 16:15:00 9.7 C 64 % 3.23 C
3060 26-03-2019 16:20:00 9.6 C 63 % 2.91 C
3061 26-03-2019 16:25:00 9.5 C 65 % 3.26 C
3062 26-03-2019 16:30:00 9.4 C 65 % 3.16 C
3063 26-03-2019 16:35:00 9.4 C 64 % 2.95 C
3064 26-03-2019 16:40:00 9.3 C 66 % 3.28 C
3065 26-03-2019 16:45:00 9.2 C 66 % 3.19 C
3066 26-03-2019 16:50:00 9.2 C 68 % 3.61 C
3067 26-03-2019 16:55:00 9 C 68 % 3.42 C
3068 26-03-2019 17:00:00 8.8 C 69 % 3.44 C
3069 26-03-2019 17:05:00 8.7 C 70 % 3.54 C
3070 26-03-2019 17:10:00 8.6 C 70 % 3.45 C
3071 26-03-2019 17:15:00 8.5 C 71 % 3.55 C
3072 26-03-2019 17:20:00 8.4 C 72 % 3.65 C
3073 26-03-2019 17:25:00 8.4 C 71 % 3.46 C
3074 26-03-2019 17:30:00 8.4 C 72 % 3.65 C
3075 26-03-2019 17:35:00 8.3 C 72 % 3.56 C
Sensor: Nr:Datum:Temp:Feuchte:Taupunkt:
Aussen-T/F 3076 26-03-2019 17:40:00 8.3 C 71 % 3.36 C
3077 26-03-2019 17:45:00 8.3 C 72 % 3.56 C
3078 26-03-2019 17:50:00 8.3 C 72 % 3.56 C
3079 26-03-2019 17:55:00 8.2 C 72 % 3.46 C
3080 26-03-2019 18:00:00 8.2 C 73 % 3.66 C
3081 26-03-2019 18:05:00 8.2 C 73 % 3.66 C
3082 26-03-2019 18:10:00 8.2 C 73 % 3.66 C
3083 26-03-2019 18:15:00 8.2 C 73 % 3.66 C
3084 26-03-2019 18:20:00 8.2 C 73 % 3.66 C
3085 26-03-2019 18:25:00 8.2 C 74 % 3.85 C
3086 26-03-2019 18:30:00 8.2 C 74 % 3.85 C
3087 26-03-2019 18:35:00 8.1 C 74 % 3.75 C
3088 26-03-2019 18:40:00 8.1 C 75 % 3.94 C
3089 26-03-2019 18:45:00 8 C 75 % 3.85 C
3090 26-03-2019 18:50:00 7.9 C 75 % 3.75 C
3091 26-03-2019 18:55:00 7.9 C 75 % 3.75 C
3092 26-03-2019 19:00:00 7.9 C 75 % 3.75 C
3093 26-03-2019 19:05:00 7.9 C 76 % 3.94 C
3094 26-03-2019 19:10:00 7.9 C 77 % 4.12 C
3095 26-03-2019 19:15:00 7.8 C 78 % 4.21 C
3096 26-03-2019 19:20:00 7.7 C 77 % 3.93 C
3097 26-03-2019 19:25:00 7.6 C 78 % 4.02 C
3098 26-03-2019 19:30:00 7.6 C 79 % 4.2 C
3099 26-03-2019 19:35:00 7.5 C 80 % 4.28 C
3100 26-03-2019 19:40:00 7.4 C 81 % 4.36 C
Sensor: Nr:Datum:Temp:Feuchte:Taupunkt:
Aussen-T/F 3101 26-03-2019 19:45:00 7.3 C 81 % 4.26 C
3102 26-03-2019 19:50:00 7.3 C 81 % 4.26 C
3103 26-03-2019 19:55:00 7.2 C 81 % 4.16 C
3104 26-03-2019 20:00:00 7.2 C 82 % 4.34 C
3105 26-03-2019 20:05:00 7.1 C 81 % 4.07 C
3106 26-03-2019 20:10:00 7.1 C 82 % 4.24 C
3107 26-03-2019 20:15:00 7.1 C 82 % 4.24 C
3108 26-03-2019 20:20:00 7.1 C 82 % 4.24 C
3109 26-03-2019 20:25:00 7.1 C 82 % 4.24 C
3110 26-03-2019 20:30:00 7.1 C 82 % 4.24 C
3111 26-03-2019 20:35:00 7.1 C 82 % 4.24 C
3112 26-03-2019 20:40:00 7 C 82 % 4.14 C
3113 26-03-2019 20:45:00 7 C 83 % 4.32 C
3114 26-03-2019 20:50:00 7 C 83 % 4.32 C
3115 26-03-2019 20:55:00 7 C 83 % 4.32 C
3116 26-03-2019 21:00:00 6.9 C 83 % 4.22 C
3117 26-03-2019 21:05:00 6.9 C 83 % 4.22 C
3118 26-03-2019 21:10:00 6.9 C 83 % 4.22 C
3119 26-03-2019 21:15:00 6.9 C 84 % 4.39 C
3120 26-03-2019 21:20:00 6.9 C 84 % 4.39 C
3121 26-03-2019 21:25:00 6.8 C 84 % 4.29 C
3122 26-03-2019 21:30:00 6.8 C 84 % 4.29 C
3123 26-03-2019 21:35:00 6.8 C 84 % 4.29 C
3124 26-03-2019 21:40:00 6.8 C 85 % 4.46 C
3125 26-03-2019 21:45:00 6.7 C 85 % 4.36 C
Sensor: Nr:Datum:Temp:Feuchte:Taupunkt:
Aussen-T/F 3126 26-03-2019 21:50:00 6.7 C 85 % 4.36 C
3127 26-03-2019 21:55:00 6.7 C 85 % 4.36 C
3128 26-03-2019 22:00:00 6.6 C 85 % 4.26 C
3129 26-03-2019 22:05:00 6.6 C 85 % 4.26 C
3130 26-03-2019 22:10:00 6.6 C 86 % 4.43 C
3131 26-03-2019 22:15:00 6.6 C 86 % 4.43 C
3132 26-03-2019 22:20:00 6.6 C 86 % 4.43 C
3133 26-03-2019 22:25:00 6.6 C 86 % 4.43 C
3134 26-03-2019 22:30:00 6.5 C 86 % 4.33 C
3135 26-03-2019 22:35:00 6.5 C 87 % 4.5 C
3136 26-03-2019 22:40:00 6.4 C 87 % 4.4 C
3137 26-03-2019 22:45:00 6.4 C 87 % 4.4 C
3138 26-03-2019 22:50:00 6.4 C 87 % 4.4 C
3139 26-03-2019 22:55:00 6.4 C 87 % 4.4 C
3140 26-03-2019 23:00:00 6.3 C 87 % 4.3 C
3141 26-03-2019 23:05:00 6.3 C 87 % 4.3 C
3142 26-03-2019 23:10:00 6.3 C 87 % 4.3 C
3143 26-03-2019 23:15:00 6.3 C 87 % 4.3 C
3144 26-03-2019 23:20:00 6.3 C 87 % 4.3 C
3145 26-03-2019 23:25:00 6.2 C 87 % 4.2 C
3146 26-03-2019 23:30:00 6.2 C 87 % 4.2 C
3147 26-03-2019 23:35:00 6.2 C 87 % 4.2 C
3148 26-03-2019 23:40:00 6.2 C 88 % 4.36 C
3149 26-03-2019 23:45:00 6.2 C 87 % 4.2 C
3150 26-03-2019 23:50:00 6.2 C 87 % 4.2 C
Sensor: Nr:Datum:Temp:Feuchte:Taupunkt:
Aussen-T/F 3151 26-03-2019 23:55:00 6.2 C 87 % 4.2 C
3152 27-03-2019 00:00:00 6.2 C 88 % 4.36 C
3153 27-03-2019 00:05:00 6.2 C 87 % 4.2 C
3154 27-03-2019 00:10:00 6.2 C 87 % 4.2 C
3155 27-03-2019 00:15:00 6.2 C 87 % 4.2 C
3156 27-03-2019 00:20:00 6.2 C 87 % 4.2 C
3157 27-03-2019 00:25:00 6.2 C 87 % 4.2 C
3158 27-03-2019 00:30:00 6.1 C 87 % 4.1 C
3159 27-03-2019 00:35:00 6.1 C 88 % 4.27 C
3160 27-03-2019 00:40:00 6.1 C 88 % 4.27 C
3161 27-03-2019 00:45:00 6 C 88 % 4.17 C
3162 27-03-2019 00:50:00 5.9 C 88 % 4.07 C
3163 27-03-2019 00:55:00 5.9 C 88 % 4.07 C
3164 27-03-2019 01:00:00 5.8 C 88 % 3.97 C
3165 27-03-2019 01:05:00 5.8 C 89 % 4.13 C
3166 27-03-2019 01:10:00 5.8 C 89 % 4.13 C
3167 27-03-2019 01:15:00 5.7 C 89 % 4.03 C
3168 27-03-2019 01:20:00 5.7 C 89 % 4.03 C
3169 27-03-2019 01:25:00 5.7 C 89 % 4.03 C
3170 27-03-2019 01:30:00 5.6 C 89 % 3.93 C
3171 27-03-2019 01:35:00 5.5 C 89 % 3.84 C
3172 27-03-2019 01:40:00 5.4 C 89 % 3.74 C
3173 27-03-2019 01:45:00 5.3 C 89 % 3.64 C
3174 27-03-2019 01:50:00 5.3 C 90 % 3.8 C
3175 27-03-2019 01:55:00 5.3 C 90 % 3.8 C
Sensor: Nr:Datum:Temp:Feuchte:Taupunkt:
Aussen-T/F 3176 27-03-2019 02:00:00 5.3 C 90 % 3.8 C
3177 27-03-2019 02:05:00 5.3 C 90 % 3.8 C
3178 27-03-2019 02:10:00 5.3 C 90 % 3.8 C
3179 27-03-2019 02:15:00 5.3 C 90 % 3.8 C
3180 27-03-2019 02:20:00 5.3 C 90 % 3.8 C
3181 27-03-2019 02:25:00 5.3 C 91 % 3.95 C
3182 27-03-2019 02:30:00 5.3 C 91 % 3.95 C
3183 27-03-2019 02:35:00 5.2 C 91 % 3.85 C
3184 27-03-2019 02:40:00 5.2 C 91 % 3.85 C
3185 27-03-2019 02:45:00 5.2 C 91 % 3.85 C
3186 27-03-2019 02:50:00 5.2 C 90 % 3.7 C
3187 27-03-2019 02:55:00 5.1 C 91 % 3.76 C
3188 27-03-2019 03:00:00 5.1 C 90 % 3.6 C
3189 27-03-2019 03:05:00 5 C 90 % 3.5 C
3190 27-03-2019 03:10:00 5 C 91 % 3.66 C
3191 27-03-2019 03:15:00 5 C 91 % 3.66 C
3192 27-03-2019 03:20:00 5 C 91 % 3.66 C
3193 27-03-2019 03:25:00 4.9 C 91 % 3.56 C
3194 27-03-2019 03:30:00 4.9 C 91 % 3.56 C
3195 27-03-2019 03:35:00 4.9 C 91 % 3.56 C
3196 27-03-2019 03:40:00 4.9 C 91 % 3.56 C
3197 27-03-2019 03:45:00 4.8 C 91 % 3.46 C
3198 27-03-2019 03:50:00 4.7 C 90 % 3.2 C
3199 27-03-2019 03:55:00 4.6 C 90 % 3.1 C
3200 27-03-2019 04:00:00 4.5 C 91 % 3.16 C
Sensor: Nr:Datum:Temp:Feuchte:Taupunkt:
Aussen-T/F 3201 27-03-2019 04:05:00 4.4 C 91 % 3.06 C
3202 27-03-2019 04:10:00 4.3 C 91 % 2.96 C
3203 27-03-2019 04:15:00 4.2 C 91 % 2.87 C
3204 27-03-2019 04:20:00 4.2 C 91 % 2.87 C
3205 27-03-2019 04:25:00 4.2 C 91 % 2.87 C
3206 27-03-2019 04:30:00 4.1 C 91 % 2.77 C
3207 27-03-2019 04:35:00 4 C 91 % 2.67 C
3208 27-03-2019 04:40:00 3.8 C 91 % 2.47 C
3209 27-03-2019 04:45:00 3.8 C 91 % 2.47 C
3210 27-03-2019 04:50:00 3.7 C 91 % 2.37 C
3211 27-03-2019 04:55:00 3.5 C 91 % 2.17 C
3212 27-03-2019 05:00:00 3.3 C 91 % 1.98 C
3213 27-03-2019 05:05:00 3.2 C 91 % 1.88 C
3214 27-03-2019 05:10:00 3.2 C 92 % 2.03 C
3215 27-03-2019 05:15:00 3.1 C 92 % 1.93 C
3216 27-03-2019 05:20:00 3 C 92 % 1.83 C
3217 27-03-2019 05:25:00 2.9 C 92 % 1.73 C
3218 27-03-2019 05:30:00 2.9 C 92 % 1.73 C
3219 27-03-2019 05:35:00 2.9 C 92 % 1.73 C
3220 27-03-2019 05:40:00 2.8 C 93 % 1.78 C
3221 27-03-2019 05:45:00 2.7 C 92 % 1.53 C
3222 27-03-2019 05:50:00 2.6 C 92 % 1.43 C
3223 27-03-2019 05:55:00 2.4 C 92 % 1.24 C
3224 27-03-2019 06:00:00 2.4 C 93 % 1.39 C
3225 27-03-2019 06:05:00 2.3 C 93 % 1.29 C
Sensor: Nr:Datum:Temp:Feuchte:Taupunkt:
Aussen-T/F 3226 27-03-2019 06:10:00 2.2 C 93 % 1.19 C
3227 27-03-2019 06:15:00 2.1 C 93 % 1.09 C
3228 27-03-2019 06:20:00 2.1 C 93 % 1.09 C
3229 27-03-2019 06:25:00 2.1 C 93 % 1.09 C
3230 27-03-2019 06:30:00 2.1 C 93 % 1.09 C
3231 27-03-2019 06:35:00 2.1 C 94 % 1.24 C
3232 27-03-2019 06:40:00 2 C 94 % 1.14 C
3233 27-03-2019 06:45:00 1.9 C 94 % 1.04 C
3234 27-03-2019 06:50:00 1.9 C 94 % 1.04 C
3235 27-03-2019 06:55:00 2 C 94 % 1.14 C
3236 27-03-2019 07:00:00 2.1 C 94 % 1.24 C
3237 27-03-2019 07:05:00 2.2 C 94 % 1.34 C
3238 27-03-2019 07:10:00 2.2 C 94 % 1.34 C
3239 27-03-2019 07:15:00 2.2 C 94 % 1.34 C
3240 27-03-2019 07:20:00 2.3 C 94 % 1.44 C
3241 27-03-2019 07:25:00 2.3 C 95 % 1.58 C
3242 27-03-2019 07:30:00 2.5 C 95 % 1.78 C
3243 27-03-2019 07:35:00 2.7 C 95 % 1.98 C
3244 27-03-2019 07:40:00 2.9 C 95 % 2.18 C
3245 27-03-2019 07:45:00 3.1 C 95 % 2.38 C
3246 27-03-2019 07:50:00 3.3 C 95 % 2.58 C
3247 27-03-2019 07:55:00 3.4 C 95 % 2.68 C
3248 27-03-2019 08:00:00 3.6 C 95 % 2.88 C
3249 27-03-2019 08:05:00 3.6 C 95 % 2.88 C
3250 27-03-2019 08:10:00 3.7 C 95 % 2.98 C
Sensor: Nr:Datum:Temp:Feuchte:Taupunkt:
Aussen-T/F 3251 27-03-2019 08:15:00 3.7 C 94 % 2.83 C
3252 27-03-2019 08:20:00 3.7 C 94 % 2.83 C
3253 27-03-2019 08:25:00 3.8 C 94 % 2.93 C
3254 27-03-2019 08:30:00 3.8 C 95 % 3.07 C
3255 27-03-2019 08:35:00 3.9 C 95 % 3.17 C
3256 27-03-2019 08:40:00 4.1 C 94 % 3.22 C
3257 27-03-2019 08:45:00 4.1 C 95 % 3.37 C
3258 27-03-2019 08:50:00 4.2 C 95 % 3.47 C
3259 27-03-2019 08:55:00 4.4 C 95 % 3.67 C
3260 27-03-2019 09:00:00 4.6 C 95 % 3.87 C
3261 27-03-2019 09:05:00 4.8 C 94 % 3.92 C
3262 27-03-2019 09:10:00 4.9 C 94 % 4.02 C
3263 27-03-2019 09:15:00 5.2 C 93 % 4.16 C
3264 27-03-2019 09:20:00 5.4 C 93 % 4.36 C
3265 27-03-2019 09:25:00 5.7 C 93 % 4.66 C
3266 27-03-2019 09:30:00 5.8 C 92 % 4.6 C
3267 27-03-2019 09:35:00 6.1 C 91 % 4.74 C
3268 27-03-2019 09:40:00 6.3 C 91 % 4.94 C
3269 27-03-2019 09:45:00 6.7 C 89 % 5.02 C
3270 27-03-2019 09:50:00 6.9 C 89 % 5.22 C
3271 27-03-2019 09:55:00 7.2 C 88 % 5.35 C
3272 27-03-2019 10:00:00 7.4 C 87 % 5.38 C
3273 27-03-2019 10:05:00 7.7 C 86 % 5.51 C
3274 27-03-2019 10:10:00 7.8 C 84 % 5.27 C
3275 27-03-2019 10:15:00 7.9 C 84 % 5.37 C
Sensor: Nr:Datum:Temp:Feuchte:Taupunkt:
Aussen-T/F 3276 27-03-2019 10:20:00 7.9 C 84 % 5.37 C
3277 27-03-2019 10:25:00 8.1 C 84 % 5.56 C
3278 27-03-2019 10:30:00 8.2 C 83 % 5.49 C
3279 27-03-2019 10:35:00 8.3 C 83 % 5.59 C
3280 27-03-2019 10:40:00 8.5 C 83 % 5.78 C
3281 27-03-2019 10:45:00 8.6 C 83 % 5.88 C
3282 27-03-2019 10:50:00 8.7 C 82 % 5.8 C
3283 27-03-2019 10:55:00 8.9 C 82 % 6 C
3284 27-03-2019 11:00:00 9 C 79 % 5.56 C
3285 27-03-2019 11:05:00 9 C 79 % 5.56 C
3286 27-03-2019 11:10:00 9 C 78 % 5.38 C
3287 27-03-2019 11:15:00 9 C 79 % 5.56 C
3288 27-03-2019 11:20:00 9 C 77 % 5.19 C
3289 27-03-2019 11:25:00 9 C 76 % 5 C
3290 27-03-2019 11:30:00 9.1 C 77 % 5.29 C
3291 27-03-2019 11:35:00 9.1 C 76 % 5.1 C
3292 27-03-2019 11:40:00 9.3 C 76 % 5.29 C
3293 27-03-2019 11:45:00 9.4 C 75 % 5.2 C
3294 27-03-2019 11:50:00 9.4 C 73 % 4.81 C
3295 27-03-2019 11:55:00 9.3 C 73 % 4.72 C
3296 27-03-2019 12:00:00 9.3 C 74 % 4.91 C
3297 27-03-2019 12:05:00 9.3 C 73 % 4.72 C
3298 27-03-2019 12:10:00 9.4 C 71 % 4.42 C
3299 27-03-2019 12:15:00 9.5 C 71 % 4.51 C
3300 27-03-2019 12:20:00 9.7 C 72 % 4.9 C
Sensor: Nr:Datum:Temp:Feuchte:Taupunkt:
Aussen-T/F 3301 27-03-2019 12:25:00 9.9 C 71 % 4.9 C
3302 27-03-2019 12:30:00 10.2 C 71 % 5.18 C
3303 27-03-2019 12:35:00 10.4 C 70 % 5.17 C
3304 27-03-2019 12:40:00 10.6 C 67 % 4.74 C
3305 27-03-2019 12:45:00 10.8 C 67 % 4.93 C
3306 27-03-2019 12:50:00 10.8 C 63 % 4.05 C
3307 27-03-2019 12:55:00 10.7 C 64 % 4.18 C
3308 27-03-2019 13:00:00 10.6 C 65 % 4.3 C
3309 27-03-2019 13:05:00 10.6 C 63 % 3.86 C
3310 27-03-2019 13:10:00 10.7 C 64 % 4.18 C
3311 27-03-2019 13:15:00 11.1 C 62 % 4.11 C
3312 27-03-2019 13:20:00 11.2 C 62 % 4.2 C
3313 27-03-2019 13:25:00 11.1 C 61 % 3.87 C
3314 27-03-2019 13:30:00 10.8 C 63 % 4.05 C
3315 27-03-2019 13:35:00 10.7 C 65 % 4.4 C
3316 27-03-2019 13:40:00 10.7 C 65 % 4.4 C
3317 27-03-2019 13:45:00 10.6 C 65 % 4.3 C
3318 27-03-2019 13:50:00 10.7 C 64 % 4.18 C
3319 27-03-2019 13:55:00 10.8 C 64 % 4.27 C
3320 27-03-2019 14:00:00 10.8 C 63 % 4.05 C
3321 27-03-2019 14:05:00 10.7 C 63 % 3.95 C
3322 27-03-2019 14:10:00 10.8 C 63 % 4.05 C
3323 27-03-2019 14:15:00 10.8 C 63 % 4.05 C
3324 27-03-2019 14:20:00 10.8 C 61 % 3.59 C
3325 27-03-2019 14:25:00 10.9 C 62 % 3.92 C
Sensor: Nr:Datum:Temp:Feuchte:Taupunkt:
Aussen-T/F 3326 27-03-2019 14:30:00 10.9 C 62 % 3.92 C
3327 27-03-2019 14:35:00 11.1 C 59 % 3.4 C
3328 27-03-2019 14:40:00 11.3 C 60 % 3.83 C
3329 27-03-2019 14:45:00 11.5 C 59 % 3.78 C
3330 27-03-2019 14:50:00 11.6 C 59 % 3.87 C
3331 27-03-2019 14:55:00 11.4 C 58 % 3.44 C
3332 27-03-2019 15:00:00 11.3 C 61 % 4.06 C
3333 27-03-2019 15:05:00 11.3 C 61 % 4.06 C
3334 27-03-2019 15:10:00 11.3 C 59 % 3.59 C
3335 27-03-2019 15:15:00 11.2 C 59 % 3.5 C
3336 27-03-2019 15:20:00 11.1 C 57 % 2.92 C
3337 27-03-2019 15:25:00 11.1 C 59 % 3.4 C
3338 27-03-2019 15:30:00 11.1 C 61 % 3.87 C
3339 27-03-2019 15:35:00 11 C 61 % 3.78 C
3340 27-03-2019 15:40:00 11 C 62 % 4.01 C
3341 27-03-2019 15:45:00 11 C 61 % 3.78 C
3342 27-03-2019 15:50:00 11 C 61 % 3.78 C
3343 27-03-2019 15:55:00 10.9 C 61 % 3.69 C
3344 27-03-2019 16:00:00 11 C 61 % 3.78 C
3345 27-03-2019 16:05:00 11 C 61 % 3.78 C
3346 27-03-2019 16:10:00 11.1 C 61 % 3.87 C
3347 27-03-2019 16:15:00 11.1 C 60 % 3.64 C
3348 27-03-2019 16:20:00 11.1 C 59 % 3.4 C
3349 27-03-2019 16:25:00 11.1 C 58 % 3.16 C
3350 27-03-2019 16:30:00 11.3 C 61 % 4.06 C
Sensor: Nr:Datum:Temp:Feuchte:Taupunkt:
Aussen-T/F 3351 27-03-2019 16:35:00 11.6 C 58 % 3.63 C
3352 27-03-2019 16:40:00 11.4 C 58 % 3.44 C
3353 27-03-2019 16:45:00 11.4 C 59 % 3.68 C
3354 27-03-2019 16:50:00 11.4 C 58 % 3.44 C
3355 27-03-2019 16:55:00 11.3 C 57 % 3.1 C
3356 27-03-2019 17:00:00 11.2 C 58 % 3.25 C
3357 27-03-2019 17:05:00 11.2 C 58 % 3.25 C
3358 27-03-2019 17:10:00 11.2 C 57 % 3.01 C
3359 27-03-2019 17:15:00 11.2 C 58 % 3.25 C
3360 27-03-2019 17:20:00 11.1 C 59 % 3.4 C
3361 27-03-2019 17:25:00 11 C 60 % 3.55 C
3362 27-03-2019 17:30:00 10.9 C 61 % 3.69 C
3363 27-03-2019 17:35:00 10.8 C 61 % 3.59 C
3364 27-03-2019 17:40:00 10.7 C 61 % 3.5 C
3365 27-03-2019 17:45:00 10.7 C 62 % 3.73 C
3366 27-03-2019 17:50:00 10.8 C 62 % 3.82 C
3367 27-03-2019 17:55:00 10.9 C 62 % 3.92 C
3368 27-03-2019 18:00:00 10.8 C 62 % 3.82 C
3369 27-03-2019 18:05:00 10.7 C 62 % 3.73 C
3370 27-03-2019 18:10:00 10.7 C 66 % 4.62 C
3371 27-03-2019 18:15:00 10.5 C 66 % 4.43 C
3372 27-03-2019 18:20:00 10.3 C 68 % 4.66 C
3373 27-03-2019 18:25:00 10.1 C 71 % 5.09 C
3374 27-03-2019 18:30:00 9.8 C 70 % 4.6 C
3375 27-03-2019 18:35:00 9.4 C 71 % 4.42 C
Sensor: Nr:Datum:Temp:Feuchte:Taupunkt:
Aussen-T/F 3376 27-03-2019 18:40:00 9.2 C 70 % 4.02 C
3377 27-03-2019 18:45:00 9.1 C 72 % 4.33 C
3378 27-03-2019 18:50:00 8.8 C 73 % 4.24 C
3379 27-03-2019 18:55:00 8.6 C 72 % 3.85 C
3380 27-03-2019 19:00:00 8.5 C 73 % 3.95 C
3381 27-03-2019 19:05:00 8.3 C 75 % 4.14 C
3382 27-03-2019 19:10:00 8.2 C 76 % 4.23 C
3383 27-03-2019 19:15:00 7.9 C 76 % 3.94 C
3384 27-03-2019 19:20:00 7.8 C 77 % 4.03 C
3385 27-03-2019 19:25:00 7.6 C 77 % 3.83 C
3386 27-03-2019 19:30:00 7.5 C 77 % 3.74 C
3387 27-03-2019 19:35:00 7.4 C 78 % 3.82 C
3388 27-03-2019 19:40:00 7.3 C 79 % 3.91 C
3389 27-03-2019 19:45:00 7.2 C 79 % 3.81 C
3390 27-03-2019 19:50:00 7.1 C 80 % 3.89 C
3391 27-03-2019 19:55:00 6.9 C 80 % 3.7 C
3392 27-03-2019 20:00:00 6.8 C 81 % 3.77 C
3393 27-03-2019 20:05:00 6.6 C 81 % 3.58 C
3394 27-03-2019 20:10:00 6.7 C 80 % 3.5 C
3395 27-03-2019 20:15:00 6.7 C 81 % 3.68 C
3396 27-03-2019 20:20:00 6.6 C 81 % 3.58 C
3397 27-03-2019 20:25:00 6.6 C 81 % 3.58 C
3398 27-03-2019 20:30:00 6.4 C 82 % 3.56 C
3399 27-03-2019 20:35:00 6.4 C 82 % 3.56 C
3400 27-03-2019 20:40:00 6.3 C 82 % 3.46 C
Sensor: Nr:Datum:Temp:Feuchte:Taupunkt:
Aussen-T/F 3401 27-03-2019 20:45:00 6.3 C 83 % 3.63 C
3402 27-03-2019 20:50:00 6.3 C 83 % 3.63 C
3403 27-03-2019 20:55:00 6.2 C 83 % 3.53 C
3404 27-03-2019 21:00:00 6.2 C 84 % 3.7 C
3405 27-03-2019 21:05:00 6.1 C 84 % 3.61 C
3406 27-03-2019 21:10:00 6 C 84 % 3.51 C
3407 27-03-2019 21:15:00 5.9 C 84 % 3.41 C
3408 27-03-2019 21:20:00 5.8 C 84 % 3.31 C
3409 27-03-2019 21:25:00 5.7 C 85 % 3.38 C
3410 27-03-2019 21:30:00 5.6 C 85 % 3.28 C
3411 27-03-2019 21:35:00 5.5 C 85 % 3.18 C
3412 27-03-2019 21:40:00 5.5 C 86 % 3.35 C
3413 27-03-2019 21:45:00 5.4 C 86 % 3.25 C
3414 27-03-2019 21:50:00 5.3 C 86 % 3.15 C
3415 27-03-2019 21:55:00 5.3 C 86 % 3.15 C
3416 27-03-2019 22:00:00 5.2 C 86 % 3.05 C
3417 27-03-2019 22:05:00 5.2 C 87 % 3.22 C
3418 27-03-2019 22:10:00 5.1 C 86 % 2.96 C
3419 27-03-2019 22:15:00 5 C 86 % 2.86 C
3420 27-03-2019 22:20:00 4.9 C 86 % 2.76 C
3421 27-03-2019 22:25:00 4.8 C 86 % 2.66 C
3422 27-03-2019 22:30:00 4.7 C 87 % 2.73 C
3423 27-03-2019 22:35:00 4.6 C 87 % 2.63 C
3424 27-03-2019 22:40:00 4.5 C 88 % 2.69 C
3425 27-03-2019 22:45:00 4.4 C 88 % 2.59 C
Sensor: Nr:Datum:Temp:Feuchte:Taupunkt:
Aussen-T/F 3426 27-03-2019 22:50:00 4.2 C 87 % 2.23 C
3427 27-03-2019 22:55:00 4.1 C 88 % 2.3 C
3428 27-03-2019 23:00:00 4 C 89 % 2.36 C
3429 27-03-2019 23:05:00 3.9 C 89 % 2.26 C
3430 27-03-2019 23:10:00 3.8 C 89 % 2.16 C
3431 27-03-2019 23:15:00 3.7 C 89 % 2.06 C
3432 27-03-2019 23:20:00 3.6 C 89 % 1.96 C
3433 27-03-2019 23:25:00 3.4 C 90 % 1.92 C
3434 27-03-2019 23:30:00 3.4 C 90 % 1.92 C
3435 27-03-2019 23:35:00 3.3 C 90 % 1.82 C
3436 27-03-2019 23:40:00 3.2 C 91 % 1.88 C
3437 27-03-2019 23:45:00 3.2 C 91 % 1.88 C
3438 27-03-2019 23:50:00 3.1 C 91 % 1.78 C
3439 27-03-2019 23:55:00 3.1 C 91 % 1.78 C
3440 28-03-2019 00:00:00 3 C 91 % 1.68 C
3441 28-03-2019 00:05:00 3 C 91 % 1.68 C
3442 28-03-2019 00:10:00 3 C 92 % 1.83 C
3443 28-03-2019 00:15:00 2.9 C 92 % 1.73 C
3444 28-03-2019 00:20:00 3 C 92 % 1.83 C
3445 28-03-2019 00:25:00 2.9 C 92 % 1.73 C
3446 28-03-2019 00:30:00 2.9 C 92 % 1.73 C
3447 28-03-2019 00:35:00 2.9 C 92 % 1.73 C
3448 28-03-2019 00:40:00 2.9 C 92 % 1.73 C
3449 28-03-2019 00:45:00 2.9 C 92 % 1.73 C
3450 28-03-2019 00:50:00 2.9 C 92 % 1.73 C
Sensor: Nr:Datum:Temp:Feuchte:Taupunkt:
Aussen-T/F 3451 28-03-2019 00:55:00 2.8 C 92 % 1.63 C
3452 28-03-2019 01:00:00 2.8 C 92 % 1.63 C
3453 28-03-2019 01:05:00 2.7 C 92 % 1.53 C
3454 28-03-2019 01:10:00 2.6 C 92 % 1.43 C
3455 28-03-2019 01:15:00 2.5 C 92 % 1.34 C
3456 28-03-2019 01:20:00 2.4 C 92 % 1.24 C
3457 28-03-2019 01:25:00 2.5 C 92 % 1.34 C
3458 28-03-2019 01:30:00 2.4 C 92 % 1.24 C
3459 28-03-2019 01:35:00 2.3 C 92 % 1.14 C
3460 28-03-2019 01:40:00 2.3 C 93 % 1.29 C
3461 28-03-2019 01:45:00 2.4 C 93 % 1.39 C
3462 28-03-2019 01:50:00 2.4 C 93 % 1.39 C
3463 28-03-2019 01:55:00 2.4 C 93 % 1.39 C
3464 28-03-2019 02:00:00 2.3 C 93 % 1.29 C
3465 28-03-2019 02:05:00 2.2 C 93 % 1.19 C
3466 28-03-2019 02:10:00 2.2 C 93 % 1.19 C
3467 28-03-2019 02:15:00 2.1 C 93 % 1.09 C
3468 28-03-2019 02:20:00 2 C 93 % 0.99 C
3469 28-03-2019 02:25:00 2 C 93 % 0.99 C
3470 28-03-2019 02:30:00 1.9 C 93 % 0.89 C
3471 28-03-2019 02:35:00 1.9 C 93 % 0.89 C
3472 28-03-2019 02:40:00 1.8 C 93 % 0.79 C
3473 28-03-2019 02:45:00 1.8 C 93 % 0.79 C
3474 28-03-2019 02:50:00 1.8 C 93 % 0.79 C
3475 28-03-2019 02:55:00 1.7 C 93 % 0.69 C
Sensor: Nr:Datum:Temp:Feuchte:Taupunkt:
Aussen-T/F 3476 28-03-2019 03:00:00 1.7 C 93 % 0.69 C
3477 28-03-2019 03:05:00 1.7 C 93 % 0.69 C
3478 28-03-2019 03:10:00 1.6 C 94 % 0.74 C
3479 28-03-2019 03:15:00 1.6 C 94 % 0.74 C
3480 28-03-2019 03:20:00 1.5 C 94 % 0.64 C
3481 28-03-2019 03:25:00 1.6 C 94 % 0.74 C
3482 28-03-2019 03:30:00 1.7 C 94 % 0.84 C
3483 28-03-2019 03:35:00 1.8 C 94 % 0.94 C
3484 28-03-2019 03:40:00 1.7 C 94 % 0.84 C
3485 28-03-2019 03:45:00 1.6 C 94 % 0.74 C
3486 28-03-2019 03:50:00 1.4 C 93 % 0.4 C
3487 28-03-2019 03:55:00 1.4 C 94 % 0.54 C
3488 28-03-2019 04:00:00 1.4 C 94 % 0.54 C
3489 28-03-2019 04:05:00 1.6 C 94 % 0.74 C
3490 28-03-2019 04:10:00 1.6 C 94 % 0.74 C
3491 28-03-2019 04:15:00 1.5 C 94 % 0.64 C
3492 28-03-2019 04:20:00 1.5 C 94 % 0.64 C
3493 28-03-2019 04:25:00 1.4 C 94 % 0.54 C
3494 28-03-2019 04:30:00 1.2 C 94 % 0.34 C
3495 28-03-2019 04:35:00 1.2 C 94 % 0.34 C
3496 28-03-2019 04:40:00 1.3 C 94 % 0.44 C
3497 28-03-2019 04:45:00 1.3 C 94 % 0.44 C
3498 28-03-2019 04:50:00 1.3 C 94 % 0.44 C
3499 28-03-2019 04:55:00 1.2 C 94 % 0.34 C
3500 28-03-2019 05:00:00 1.1 C 94 % 0.24 C
Sensor: Nr:Datum:Temp:Feuchte:Taupunkt:
Aussen-T/F 3501 28-03-2019 05:05:00 1 C 94 % 0.15 C
3502 28-03-2019 05:10:00 1 C 94 % 0.15 C
3503 28-03-2019 05:15:00 1 C 94 % 0.15 C
3504 28-03-2019 05:20:00 0.9 C 94 % 0.05 C
3505 28-03-2019 05:25:00 0.9 C 94 % 0.05 C
3506 28-03-2019 05:30:00 1 C 95 % 0.29 C
3507 28-03-2019 05:35:00 1.2 C 95 % 0.49 C
3508 28-03-2019 05:40:00 1.3 C 95 % 0.59 C
3509 28-03-2019 05:45:00 1.4 C 95 % 0.69 C
3510 28-03-2019 05:50:00 1.4 C 95 % 0.69 C
3511 28-03-2019 05:55:00 1.4 C 95 % 0.69 C
3512 28-03-2019 06:00:00 1.4 C 95 % 0.69 C
3513 28-03-2019 06:05:00 1.4 C 95 % 0.69 C
3514 28-03-2019 06:10:00 1.4 C 95 % 0.69 C
3515 28-03-2019 06:15:00 1.6 C 95 % 0.89 C
3516 28-03-2019 06:20:00 1.6 C 95 % 0.89 C
3517 28-03-2019 06:25:00 1.6 C 95 % 0.89 C
3518 28-03-2019 06:30:00 1.6 C 95 % 0.89 C
3519 28-03-2019 06:35:00 1.6 C 95 % 0.89 C
3520 28-03-2019 06:40:00 1.6 C 95 % 0.89 C
3521 28-03-2019 06:45:00 1.7 C 95 % 0.99 C
3522 28-03-2019 06:50:00 1.8 C 95 % 1.09 C
3523 28-03-2019 06:55:00 1.8 C 95 % 1.09 C
3524 28-03-2019 07:00:00 1.9 C 95 % 1.19 C
3525 28-03-2019 07:05:00 1.9 C 95 % 1.19 C
Sensor: Nr:Datum:Temp:Feuchte:Taupunkt:
Aussen-T/F 3526 28-03-2019 07:10:00 1.9 C 95 % 1.19 C
3527 28-03-2019 07:15:00 2 C 95 % 1.29 C
3528 28-03-2019 07:20:00 2 C 95 % 1.29 C
3529 28-03-2019 07:25:00 2.1 C 95 % 1.38 C
3530 28-03-2019 07:30:00 2.2 C 95 % 1.48 C
3531 28-03-2019 07:35:00 2.2 C 95 % 1.48 C
3532 28-03-2019 07:40:00 2.2 C 95 % 1.48 C
3533 28-03-2019 07:45:00 2.3 C 95 % 1.58 C
3534 28-03-2019 07:50:00 2.3 C 95 % 1.58 C
3535 28-03-2019 07:55:00 2.4 C 95 % 1.68 C
3536 28-03-2019 08:00:00 2.4 C 95 % 1.68 C
3537 28-03-2019 08:05:00 2.6 C 95 % 1.88 C
3538 28-03-2019 08:10:00 2.7 C 95 % 1.98 C
3539 28-03-2019 08:15:00 2.7 C 95 % 1.98 C
3540 28-03-2019 08:20:00 2.7 C 95 % 1.98 C
3541 28-03-2019 08:25:00 2.7 C 94 % 1.83 C
3542 28-03-2019 08:30:00 2.8 C 94 % 1.93 C
3543 28-03-2019 08:35:00 2.8 C 95 % 2.08 C
3544 28-03-2019 08:40:00 2.9 C 95 % 2.18 C
3545 28-03-2019 08:45:00 2.9 C 94 % 2.03 C
3546 28-03-2019 08:50:00 3.1 C 95 % 2.38 C
3547 28-03-2019 08:55:00 3.2 C 95 % 2.48 C
3548 28-03-2019 09:00:00 3.3 C 94 % 2.43 C
3549 28-03-2019 09:05:00 3.6 C 95 % 2.88 C
3550 28-03-2019 09:10:00 3.8 C 94 % 2.93 C
Sensor: Nr:Datum:Temp:Feuchte:Taupunkt:
Aussen-T/F 3551 28-03-2019 09:15:00 3.9 C 94 % 3.02 C
3552 28-03-2019 09:20:00 4.2 C 93 % 3.17 C
3553 28-03-2019 09:25:00 4.3 C 93 % 3.27 C
3554 28-03-2019 09:30:00 4.5 C 92 % 3.32 C
3555 28-03-2019 09:35:00 4.7 C 92 % 3.51 C
3556 28-03-2019 09:40:00 4.8 C 92 % 3.61 C
3557 28-03-2019 09:45:00 5.1 C 92 % 3.91 C
3558 28-03-2019 09:50:00 5.3 C 91 % 3.95 C
3559 28-03-2019 09:55:00 5.6 C 91 % 4.25 C
3560 28-03-2019 10:00:00 5.8 C 90 % 4.29 C
3561 28-03-2019 10:05:00 6.1 C 89 % 4.43 C
3562 28-03-2019 10:10:00 6.4 C 88 % 4.56 C
3563 28-03-2019 10:15:00 6.8 C 87 % 4.79 C
3564 28-03-2019 10:20:00 7 C 86 % 4.82 C
3565 28-03-2019 10:25:00 7.3 C 85 % 4.95 C
3566 28-03-2019 10:30:00 7.5 C 84 % 4.98 C
3567 28-03-2019 10:35:00 7.7 C 83 % 5 C
3568 28-03-2019 10:40:00 7.9 C 83 % 5.2 C
3569 28-03-2019 10:45:00 8.1 C 81 % 5.04 C
3570 28-03-2019 10:50:00 8.4 C 80 % 5.16 C
3571 28-03-2019 10:55:00 8.7 C 80 % 5.45 C
3572 28-03-2019 11:00:00 8.9 C 79 % 5.46 C
3573 28-03-2019 11:05:00 9.2 C 78 % 5.57 C
3574 28-03-2019 11:10:00 9.5 C 78 % 5.86 C
3575 28-03-2019 11:15:00 9.7 C 78 % 6.06 C
Sensor: Nr:Datum:Temp:Feuchte:Taupunkt:
Aussen-T/F 3576 28-03-2019 11:20:00 9.9 C 76 % 5.87 C
3577 28-03-2019 11:25:00 10.2 C 76 % 6.16 C
3578 28-03-2019 11:30:00 10.4 C 76 % 6.36 C
3579 28-03-2019 11:35:00 10.6 C 76 % 6.55 C
3580 28-03-2019 11:40:00 10.9 C 75 % 6.65 C
3581 28-03-2019 11:45:00 11.2 C 75 % 6.94 C
3582 28-03-2019 11:50:00 11.6 C 73 % 6.93 C
3583 28-03-2019 11:55:00 11.8 C 70 % 6.51 C
3584 28-03-2019 12:00:00 12 C 69 % 6.5 C
3585 28-03-2019 12:05:00 12.2 C 68 % 6.48 C
3586 28-03-2019 12:10:00 12.3 C 67 % 6.36 C
3587 28-03-2019 12:15:00 12.5 C 67 % 6.55 C
3588 28-03-2019 12:20:00 12.6 C 66 % 6.42 C
3589 28-03-2019 12:25:00 12.6 C 66 % 6.42 C
3590 28-03-2019 12:30:00 12.6 C 66 % 6.42 C
3591 28-03-2019 12:35:00 12.6 C 65 % 6.2 C
3592 28-03-2019 12:40:00 12.7 C 67 % 6.74 C
3593 28-03-2019 12:45:00 12.7 C 67 % 6.74 C
3594 28-03-2019 12:50:00 12.8 C 68 % 7.05 C
3595 28-03-2019 12:55:00 12.8 C 66 % 6.61 C
3596 28-03-2019 13:00:00 12.7 C 67 % 6.74 C
3597 28-03-2019 13:05:00 12.8 C 67 % 6.83 C
3598 28-03-2019 13:10:00 12.9 C 67 % 6.93 C
3599 28-03-2019 13:15:00 13.2 C 67 % 7.21 C
3600 28-03-2019 13:20:00 13.4 C 66 % 7.19 C
Sensor: Nr:Datum:Temp:Feuchte:Taupunkt:
Aussen-T/F 3601 28-03-2019 13:25:00 13.4 C 64 % 6.74 C
3602 28-03-2019 13:30:00 13.4 C 65 % 6.96 C
3603 28-03-2019 13:35:00 13.2 C 64 % 6.55 C
3604 28-03-2019 13:40:00 13.2 C 64 % 6.55 C
3605 28-03-2019 13:45:00 13.2 C 68 % 7.43 C
3606 28-03-2019 13:50:00 13.5 C 67 % 7.5 C
3607 28-03-2019 13:55:00 13.7 C 64 % 7.02 C
3608 28-03-2019 14:00:00 13.6 C 63 % 6.7 C
3609 28-03-2019 14:05:00 13.5 C 64 % 6.83 C
3610 28-03-2019 14:10:00 13.5 C 64 % 6.83 C
3611 28-03-2019 14:15:00 13.4 C 64 % 6.74 C
3612 28-03-2019 14:20:00 13.4 C 65 % 6.96 C
3613 28-03-2019 14:25:00 13.4 C 64 % 6.74 C
3614 28-03-2019 14:30:00 13.6 C 65 % 7.15 C
3615 28-03-2019 14:35:00 13.7 C 65 % 7.25 C
3616 28-03-2019 14:40:00 13.7 C 63 % 6.79 C
3617 28-03-2019 14:45:00 13.5 C 64 % 6.83 C
3618 28-03-2019 14:50:00 13.4 C 65 % 6.96 C
3619 28-03-2019 14:55:00 13.3 C 65 % 6.87 C
3620 28-03-2019 15:00:00 13.3 C 65 % 6.87 C
3621 28-03-2019 15:05:00 13.3 C 64 % 6.64 C
3622 28-03-2019 15:10:00 13.3 C 64 % 6.64 C
3623 28-03-2019 15:15:00 13.4 C 64 % 6.74 C
3624 28-03-2019 15:20:00 13.4 C 64 % 6.74 C
3625 28-03-2019 15:25:00 13.4 C 64 % 6.74 C
Sensor: Nr:Datum:Temp:Feuchte:Taupunkt:
Aussen-T/F 3626 28-03-2019 15:30:00 13.4 C 63 % 6.51 C
3627 28-03-2019 15:35:00 13.4 C 63 % 6.51 C
3628 28-03-2019 15:40:00 13.4 C 63 % 6.51 C
3629 28-03-2019 15:45:00 13.5 C 64 % 6.83 C
3630 28-03-2019 15:50:00 13.5 C 63 % 6.6 C
3631 28-03-2019 15:55:00 13.5 C 63 % 6.6 C
3632 28-03-2019 16:00:00 13.5 C 63 % 6.6 C
3633 28-03-2019 16:05:00 13.5 C 63 % 6.6 C
3634 28-03-2019 16:10:00 13.5 C 63 % 6.6 C
3635 28-03-2019 16:15:00 13.6 C 62 % 6.47 C
3636 28-03-2019 16:20:00 13.5 C 62 % 6.37 C
3637 28-03-2019 16:25:00 13.5 C 63 % 6.6 C
3638 28-03-2019 16:30:00 13.5 C 62 % 6.37 C
3639 28-03-2019 16:35:00 13.5 C 63 % 6.6 C
3640 28-03-2019 16:40:00 13.4 C 63 % 6.51 C
3641 28-03-2019 16:45:00 13.4 C 63 % 6.51 C
3642 28-03-2019 16:50:00 13.3 C 63 % 6.41 C
3643 28-03-2019 16:55:00 13.3 C 63 % 6.41 C
3644 28-03-2019 17:00:00 13.3 C 63 % 6.41 C
3645 28-03-2019 17:05:00 13.3 C 64 % 6.64 C
3646 28-03-2019 17:10:00 13.3 C 63 % 6.41 C
3647 28-03-2019 17:15:00 13.3 C 63 % 6.41 C
3648 28-03-2019 17:20:00 13.2 C 63 % 6.32 C
3649 28-03-2019 17:25:00 13.2 C 63 % 6.32 C
3650 28-03-2019 17:30:00 13.2 C 64 % 6.55 C
Sensor: Nr:Datum:Temp:Feuchte:Taupunkt:
Aussen-T/F 3651 28-03-2019 17:35:00 13.2 C 64 % 6.55 C
3652 28-03-2019 17:40:00 13.1 C 64 % 6.45 C
3653 28-03-2019 17:45:00 13.1 C 65 % 6.68 C
3654 28-03-2019 17:50:00 13.1 C 64 % 6.45 C
3655 28-03-2019 17:55:00 13 C 65 % 6.58 C
3656 28-03-2019 18:00:00 13 C 68 % 7.24 C
3657 28-03-2019 18:05:00 12.9 C 66 % 6.71 C
3658 28-03-2019 18:10:00 12.8 C 67 % 6.83 C
3659 28-03-2019 18:15:00 12.8 C 67 % 6.83 C
3660 28-03-2019 18:20:00 12.7 C 70 % 7.38 C
3661 28-03-2019 18:25:00 12.6 C 70 % 7.28 C
3662 28-03-2019 18:30:00 12.3 C 71 % 7.2 C
3663 28-03-2019 18:35:00 12.1 C 72 % 7.21 C
3664 28-03-2019 18:40:00 11.7 C 72 % 6.83 C
3665 28-03-2019 18:45:00 11.3 C 73 % 6.64 C
3666 28-03-2019 18:50:00 11 C 74 % 6.55 C
3667 28-03-2019 18:55:00 10.8 C 75 % 6.55 C
3668 28-03-2019 19:00:00 10.5 C 76 % 6.45 C
3669 28-03-2019 19:05:00 10.4 C 77 % 6.55 C
3670 28-03-2019 19:10:00 10.3 C 78 % 6.64 C
3671 28-03-2019 19:15:00 10.3 C 78 % 6.64 C
3672 28-03-2019 19:20:00 10.3 C 79 % 6.82 C
3673 28-03-2019 19:25:00 10.3 C 79 % 6.82 C
3674 28-03-2019 19:30:00 10.3 C 79 % 6.82 C
3675 28-03-2019 19:35:00 10.3 C 79 % 6.82 C
Sensor: Nr:Datum:Temp:Feuchte:Taupunkt:
Aussen-T/F 3676 28-03-2019 19:40:00 10.4 C 79 % 6.92 C
3677 28-03-2019 19:45:00 10.4 C 78 % 6.74 C
3678 28-03-2019 19:50:00 10.4 C 78 % 6.74 C
3679 28-03-2019 19:55:00 10.5 C 78 % 6.83 C
3680 28-03-2019 20:00:00 10.5 C 78 % 6.83 C
3681 28-03-2019 20:05:00 10.5 C 78 % 6.83 C
3682 28-03-2019 20:10:00 10.4 C 78 % 6.74 C
3683 28-03-2019 20:15:00 10.4 C 78 % 6.74 C
3684 28-03-2019 20:20:00 10.4 C 78 % 6.74 C
3685 28-03-2019 20:25:00 10.3 C 78 % 6.64 C
3686 28-03-2019 20:30:00 10.2 C 78 % 6.54 C
3687 28-03-2019 20:35:00 10.1 C 78 % 6.44 C
3688 28-03-2019 20:40:00 10.1 C 79 % 6.63 C
3689 28-03-2019 20:45:00 10 C 79 % 6.53 C
3690 28-03-2019 20:50:00 10 C 80 % 6.71 C
3691 28-03-2019 20:55:00 9.9 C 80 % 6.62 C
3692 28-03-2019 21:00:00 9.9 C 80 % 6.62 C
3693 28-03-2019 21:05:00 9.9 C 80 % 6.62 C
3694 28-03-2019 21:10:00 9.9 C 80 % 6.62 C
3695 28-03-2019 21:15:00 9.8 C 80 % 6.52 C
3696 28-03-2019 21:20:00 9.8 C 80 % 6.52 C
3697 28-03-2019 21:25:00 9.7 C 80 % 6.42 C
3698 28-03-2019 21:30:00 9.6 C 79 % 6.14 C
3699 28-03-2019 21:35:00 9.4 C 79 % 5.95 C
3700 28-03-2019 21:40:00 9.3 C 79 % 5.85 C
Sensor: Nr:Datum:Temp:Feuchte:Taupunkt:
Aussen-T/F 3701 28-03-2019 21:45:00 9.1 C 80 % 5.84 C
3702 28-03-2019 21:50:00 8.9 C 80 % 5.64 C
3703 28-03-2019 21:55:00 8.8 C 81 % 5.72 C
3704 28-03-2019 22:00:00 8.6 C 81 % 5.53 C
3705 28-03-2019 22:05:00 8.4 C 82 % 5.51 C
3706 28-03-2019 22:10:00 8.3 C 82 % 5.41 C
3707 28-03-2019 22:15:00 8.2 C 83 % 5.49 C
3708 28-03-2019 22:20:00 8.1 C 83 % 5.39 C
3709 28-03-2019 22:25:00 7.9 C 84 % 5.37 C
3710 28-03-2019 22:30:00 7.8 C 84 % 5.27 C
3711 28-03-2019 22:35:00 7.7 C 85 % 5.34 C
3712 28-03-2019 22:40:00 7.6 C 85 % 5.24 C
3713 28-03-2019 22:45:00 7.4 C 85 % 5.05 C
3714 28-03-2019 22:50:00 7.3 C 86 % 5.12 C
3715 28-03-2019 22:55:00 7.3 C 86 % 5.12 C
3716 28-03-2019 23:00:00 7.2 C 86 % 5.02 C
3717 28-03-2019 23:05:00 7 C 86 % 4.82 C
3718 28-03-2019 23:10:00 6.8 C 86 % 4.63 C
3719 28-03-2019 23:15:00 6.5 C 86 % 4.33 C
3720 28-03-2019 23:20:00 6.3 C 88 % 4.46 C
3721 28-03-2019 23:25:00 6.3 C 88 % 4.46 C
3722 28-03-2019 23:30:00 6.2 C 88 % 4.36 C
3723 28-03-2019 23:35:00 6.1 C 88 % 4.27 C
3724 28-03-2019 23:40:00 5.9 C 89 % 4.23 C
3725 28-03-2019 23:45:00 5.8 C 89 % 4.13 C
Sensor: Nr:Datum:Temp:Feuchte:Taupunkt:
Aussen-T/F 3726 28-03-2019 23:50:00 5.8 C 90 % 4.29 C
3727 28-03-2019 23:55:00 5.7 C 90 % 4.19 C
3728 29-03-2019 00:00:00 5.7 C 90 % 4.19 C
3729 29-03-2019 00:05:00 5.6 C 90 % 4.09 C
3730 29-03-2019 00:10:00 5.6 C 90 % 4.09 C
3731 29-03-2019 00:15:00 5.4 C 90 % 3.89 C
3732 29-03-2019 00:20:00 5.2 C 90 % 3.7 C
3733 29-03-2019 00:25:00 5.3 C 91 % 3.95 C
3734 29-03-2019 00:30:00 5.3 C 91 % 3.95 C
3735 29-03-2019 00:35:00 5.2 C 91 % 3.85 C
3736 29-03-2019 00:40:00 5.2 C 91 % 3.85 C
3737 29-03-2019 00:45:00 5.1 C 91 % 3.76 C
3738 29-03-2019 00:50:00 5 C 91 % 3.66 C
3739 29-03-2019 00:55:00 4.8 C 91 % 3.46 C
3740 29-03-2019 01:00:00 4.7 C 91 % 3.36 C
3741 29-03-2019 01:05:00 4.6 C 92 % 3.42 C
3742 29-03-2019 01:10:00 4.6 C 92 % 3.42 C
3743 29-03-2019 01:15:00 4.5 C 92 % 3.32 C
3744 29-03-2019 01:20:00 4.4 C 92 % 3.22 C
3745 29-03-2019 01:25:00 4.3 C 92 % 3.12 C
3746 29-03-2019 01:30:00 4.4 C 93 % 3.37 C
3747 29-03-2019 01:35:00 4.3 C 93 % 3.27 C
3748 29-03-2019 01:40:00 4.2 C 92 % 3.02 C
3749 29-03-2019 01:45:00 4.1 C 92 % 2.92 C
3750 29-03-2019 01:50:00 4 C 93 % 2.97 C
Sensor: Nr:Datum:Temp:Feuchte:Taupunkt:
Aussen-T/F 3751 29-03-2019 01:55:00 4.1 C 93 % 3.07 C
3752 29-03-2019 02:00:00 4.1 C 93 % 3.07 C
3753 29-03-2019 02:05:00 3.9 C 93 % 2.87 C
3754 29-03-2019 02:10:00 4 C 94 % 3.12 C
3755 29-03-2019 02:15:00 4 C 93 % 2.97 C
3756 29-03-2019 02:20:00 3.9 C 93 % 2.87 C
3757 29-03-2019 02:25:00 3.8 C 93 % 2.77 C
3758 29-03-2019 02:30:00 3.8 C 93 % 2.77 C
3759 29-03-2019 02:35:00 3.9 C 94 % 3.02 C
3760 29-03-2019 02:40:00 3.8 C 94 % 2.93 C
3761 29-03-2019 02:45:00 3.8 C 94 % 2.93 C
3762 29-03-2019 02:50:00 3.7 C 94 % 2.83 C
3763 29-03-2019 02:55:00 3.6 C 94 % 2.73 C
3764 29-03-2019 03:00:00 3.6 C 94 % 2.73 C
3765 29-03-2019 03:05:00 3.5 C 94 % 2.63 C
3766 29-03-2019 03:10:00 3.3 C 94 % 2.43 C
3767 29-03-2019 03:15:00 3.2 C 94 % 2.33 C
3768 29-03-2019 03:20:00 3.1 C 94 % 2.23 C
3769 29-03-2019 03:25:00 2.9 C 94 % 2.03 C
3770 29-03-2019 03:30:00 2.8 C 94 % 1.93 C
3771 29-03-2019 03:35:00 2.8 C 94 % 1.93 C
3772 29-03-2019 03:40:00 2.8 C 94 % 1.93 C
3773 29-03-2019 03:45:00 2.9 C 94 % 2.03 C
3774 29-03-2019 03:50:00 2.9 C 94 % 2.03 C
3775 29-03-2019 03:55:00 2.9 C 94 % 2.03 C
Sensor: Nr:Datum:Temp:Feuchte:Taupunkt:
Aussen-T/F 3776 29-03-2019 04:00:00 2.9 C 95 % 2.18 C
3777 29-03-2019 04:05:00 2.9 C 95 % 2.18 C
3778 29-03-2019 04:10:00 3 C 95 % 2.28 C
3779 29-03-2019 04:15:00 3 C 95 % 2.28 C
3780 29-03-2019 04:20:00 2.9 C 95 % 2.18 C
3781 29-03-2019 04:25:00 2.8 C 95 % 2.08 C
3782 29-03-2019 04:30:00 2.8 C 95 % 2.08 C
3783 29-03-2019 04:35:00 2.9 C 95 % 2.18 C
3784 29-03-2019 04:40:00 3.1 C 95 % 2.38 C
3785 29-03-2019 04:45:00 2.9 C 95 % 2.18 C
3786 29-03-2019 04:50:00 2.8 C 95 % 2.08 C
3787 29-03-2019 04:55:00 2.7 C 95 % 1.98 C
3788 29-03-2019 05:00:00 2.6 C 95 % 1.88 C
3789 29-03-2019 05:05:00 2.5 C 95 % 1.78 C
3790 29-03-2019 05:10:00 2.3 C 95 % 1.58 C
3791 29-03-2019 05:15:00 2.3 C 95 % 1.58 C
3792 29-03-2019 05:20:00 2.3 C 95 % 1.58 C
3793 29-03-2019 05:25:00 2.2 C 95 % 1.48 C
3794 29-03-2019 05:30:00 2.1 C 95 % 1.38 C
3795 29-03-2019 05:35:00 2.2 C 95 % 1.48 C
3796 29-03-2019 05:40:00 2.1 C 95 % 1.38 C
3797 29-03-2019 05:45:00 1.9 C 95 % 1.19 C
3798 29-03-2019 05:50:00 1.8 C 95 % 1.09 C
3799 29-03-2019 05:55:00 1.9 C 95 % 1.19 C
3800 29-03-2019 06:00:00 2 C 95 % 1.29 C
Sensor: Nr:Datum:Temp:Feuchte:Taupunkt:
Aussen-T/F 3801 29-03-2019 06:05:00 2.1 C 95 % 1.38 C
3802 29-03-2019 06:10:00 2.1 C 95 % 1.38 C
3803 29-03-2019 06:15:00 2.1 C 95 % 1.38 C
3804 29-03-2019 06:20:00 2 C 95 % 1.29 C
3805 29-03-2019 06:25:00 2 C 95 % 1.29 C
3806 29-03-2019 06:30:00 2.1 C 95 % 1.38 C
3807 29-03-2019 06:35:00 2.1 C 95 % 1.38 C
3808 29-03-2019 06:40:00 2.1 C 95 % 1.38 C
3809 29-03-2019 06:45:00 2.1 C 95 % 1.38 C
3810 29-03-2019 06:50:00 2.1 C 95 % 1.38 C
3811 29-03-2019 06:55:00 2.1 C 95 % 1.38 C
3812 29-03-2019 07:00:00 2.1 C 96 % 1.53 C
3813 29-03-2019 07:05:00 2.1 C 95 % 1.38 C
3814 29-03-2019 07:10:00 2 C 95 % 1.29 C
3815 29-03-2019 07:15:00 2 C 96 % 1.43 C
3816 29-03-2019 07:20:00 2 C 96 % 1.43 C
3817 29-03-2019 07:25:00 2.1 C 96 % 1.53 C
3818 29-03-2019 07:30:00 2.1 C 96 % 1.53 C
3819 29-03-2019 07:35:00 2.2 C 96 % 1.63 C
3820 29-03-2019 07:40:00 2.3 C 96 % 1.73 C
3821 29-03-2019 07:45:00 2.4 C 96 % 1.83 C
3822 29-03-2019 07:50:00 2.4 C 96 % 1.83 C
3823 29-03-2019 07:55:00 2.4 C 96 % 1.83 C
3824 29-03-2019 08:00:00 2.4 C 96 % 1.83 C
3825 29-03-2019 08:05:00 2.5 C 96 % 1.93 C
Sensor: Nr:Datum:Temp:Feuchte:Taupunkt:
Aussen-T/F 3826 29-03-2019 08:10:00 2.6 C 96 % 2.03 C
3827 29-03-2019 08:15:00 2.7 C 96 % 2.13 C
3828 29-03-2019 08:20:00 2.8 C 96 % 2.23 C
3829 29-03-2019 08:25:00 2.8 C 96 % 2.23 C
3830 29-03-2019 08:30:00 2.9 C 96 % 2.33 C
3831 29-03-2019 08:35:00 3.1 C 96 % 2.53 C
3832 29-03-2019 08:40:00 3.2 C 96 % 2.63 C
3833 29-03-2019 08:45:00 3.3 C 96 % 2.72 C
3834 29-03-2019 08:50:00 3.4 C 97 % 2.97 C
3835 29-03-2019 08:55:00 3.5 C 96 % 2.92 C
3836 29-03-2019 09:00:00 3.7 C 96 % 3.12 C
3837 29-03-2019 09:05:00 3.9 C 97 % 3.47 C
3838 29-03-2019 09:10:00 4.1 C 97 % 3.67 C
3839 29-03-2019 09:15:00 4.3 C 97 % 3.87 C
3840 29-03-2019 09:20:00 4.5 C 97 % 4.07 C
3841 29-03-2019 09:25:00 4.7 C 97 % 4.27 C
3842 29-03-2019 09:30:00 5 C 97 % 4.56 C
3843 29-03-2019 09:35:00 5.3 C 97 % 4.86 C
3844 29-03-2019 09:40:00 5.5 C 97 % 5.06 C
3845 29-03-2019 09:45:00 5.8 C 97 % 5.36 C
3846 29-03-2019 09:50:00 6.1 C 97 % 5.66 C
3847 29-03-2019 09:55:00 6.4 C 97 % 5.96 C
3848 29-03-2019 10:00:00 6.8 C 97 % 6.36 C
3849 29-03-2019 10:05:00 7 C 97 % 6.56 C
3850 29-03-2019 10:10:00 7.2 C 97 % 6.76 C
Sensor: Nr:Datum:Temp:Feuchte:Taupunkt:
Aussen-T/F 3851 29-03-2019 10:15:00 7.4 C 97 % 6.96 C
3852 29-03-2019 10:20:00 7.6 C 97 % 7.16 C
3853 29-03-2019 10:25:00 7.8 C 97 % 7.35 C
3854 29-03-2019 10:30:00 8.1 C 97 % 7.65 C
3855 29-03-2019 10:35:00 8.4 C 96 % 7.8 C
3856 29-03-2019 10:40:00 8.7 C 96 % 8.1 C
3857 29-03-2019 10:45:00 9 C 95 % 8.24 C
3858 29-03-2019 10:50:00 9.3 C 93 % 8.23 C
3859 29-03-2019 10:55:00 9.8 C 92 % 8.56 C
3860 29-03-2019 11:00:00 10.2 C 90 % 8.64 C
3861 29-03-2019 11:05:00 10.8 C 87 % 8.73 C
3862 29-03-2019 11:10:00 11.4 C 83 % 8.62 C
3863 29-03-2019 11:15:00 11.8 C 81 % 8.65 C
3864 29-03-2019 11:20:00 12.1 C 80 % 8.76 C
3865 29-03-2019 11:25:00 12.6 C 76 % 8.49 C
3866 29-03-2019 11:30:00 12.9 C 77 % 8.97 C
3867 29-03-2019 11:35:00 13.1 C 75 % 8.77 C
3868 29-03-2019 11:40:00 13.3 C 73 % 8.57 C
3869 29-03-2019 11:45:00 13.7 C 70 % 8.33 C
3870 29-03-2019 11:50:00 13.9 C 72 % 8.94 C
3871 29-03-2019 11:55:00 14 C 69 % 8.41 C
3872 29-03-2019 12:00:00 14.2 C 69 % 8.6 C
3873 29-03-2019 12:05:00 14.2 C 68 % 8.39 C
3874 29-03-2019 12:10:00 14.2 C 68 % 8.39 C
3875 29-03-2019 12:15:00 14.2 C 67 % 8.17 C
Sensor: Nr:Datum:Temp:Feuchte:Taupunkt:
Aussen-T/F 3876 29-03-2019 12:20:00 14.3 C 67 % 8.26 C
3877 29-03-2019 12:25:00 14.3 C 67 % 8.26 C
3878 29-03-2019 12:30:00 14.5 C 66 % 8.23 C
3879 29-03-2019 12:35:00 14.7 C 66 % 8.42 C
3880 29-03-2019 12:40:00 14.7 C 66 % 8.42 C
3881 29-03-2019 12:45:00 14.7 C 66 % 8.42 C
3882 29-03-2019 12:50:00 14.8 C 66 % 8.52 C
3883 29-03-2019 12:55:00 14.9 C 65 % 8.39 C
3884 29-03-2019 13:00:00 15 C 65 % 8.48 C
3885 29-03-2019 13:05:00 15.3 C 64 % 8.54 C
3886 29-03-2019 13:10:00 15.6 C 61 % 8.11 C
3887 29-03-2019 13:15:00 15.9 C 60 % 8.15 C
3888 29-03-2019 13:20:00 16 C 59 % 8 C
3889 29-03-2019 13:25:00 16 C 61 % 8.49 C
3890 29-03-2019 13:30:00 16 C 60 % 8.25 C
3891 29-03-2019 13:35:00 16.1 C 59 % 8.09 C
3892 29-03-2019 13:40:00 16.2 C 58 % 7.94 C
3893 29-03-2019 13:45:00